<?xml version="1.0" encoding="UTF-8" standalone="no" ?>
<gpx xmlns="http://www.topografix.com/GPX/1/1" xmlns:xsi="http://www.w3.org/2001/XMLSchema-instance" xsi:schemaLocation="http://www.topografix.com/GPX/1/1 http://www.topografix.com/GPX/1/1/gpx.xsd" version="1.1" creator="VisuGPX - https://www.visugpx.com">
  <metadata>
    <name>Vieille-Eglise en Yvelines</name>
    <desc><![CDATA[Passage par l\'étang de la Tour. Point haut pour l\'alimentation du Château de Versailles.]]></desc>
  </metadata>
  <trk>
    <name><![CDATA[Track 007]]></name>
    <desc><![CDATA[6 oct. 2013  1:54 pm]]></desc>
    <trkseg>
      <trkpt lat="48.69172" lon="1.90867">
        <ele>136.593</ele>
        <time>2013-10-06T11:54:05.063Z</time>
      </trkpt>
      <trkpt lat="48.69172" lon="1.90867">
        <ele>136.581</ele>
        <time>2013-10-06T11:54:05.163Z</time>
      </trkpt>
      <trkpt lat="48.69165" lon="1.90861">
        <ele>136.489</ele>
        <time>2013-10-06T11:54:16.389Z</time>
      </trkpt>
      <trkpt lat="48.69156" lon="1.90862">
        <ele>136.444</ele>
        <time>2013-10-06T11:54:23.964Z</time>
      </trkpt>
      <trkpt lat="48.69156" lon="1.90862">
        <ele>136.406</ele>
        <time>2013-10-06T11:54:31.971Z</time>
      </trkpt>
      <trkpt lat="48.69156" lon="1.90862">
        <ele>136.352</ele>
        <time>2013-10-06T11:54:32.071Z</time>
      </trkpt>
      <trkpt lat="48.69137" lon="1.90875">
        <ele>136.297</ele>
        <time>2013-10-06T11:54:47.977Z</time>
      </trkpt>
      <trkpt lat="48.69137" lon="1.90875">
        <ele>136.246</ele>
        <time>2013-10-06T11:54:54.964Z</time>
      </trkpt>
      <trkpt lat="48.69137" lon="1.90875">
        <ele>136.183</ele>
        <time>2013-10-06T11:54:55.064Z</time>
      </trkpt>
      <trkpt lat="48.69124" lon="1.90879">
        <ele>136.087</ele>
        <time>2013-10-06T11:55:12.765Z</time>
      </trkpt>
      <trkpt lat="48.69115" lon="1.9088">
        <ele>136.078</ele>
        <time>2013-10-06T11:55:19.679Z</time>
      </trkpt>
      <trkpt lat="48.69106" lon="1.9088">
        <ele>138.072</ele>
        <time>2013-10-06T11:55:25.671Z</time>
      </trkpt>
      <trkpt lat="48.69097" lon="1.90876">
        <ele>143.262</ele>
        <time>2013-10-06T11:55:32.014Z</time>
      </trkpt>
      <trkpt lat="48.69087" lon="1.90871">
        <ele>148.348</ele>
        <time>2013-10-06T11:55:39.279Z</time>
      </trkpt>
      <trkpt lat="48.69078" lon="1.90865">
        <ele>149.129</ele>
        <time>2013-10-06T11:55:46.939Z</time>
      </trkpt>
      <trkpt lat="48.69071" lon="1.90854">
        <ele>145.949</ele>
        <time>2013-10-06T11:55:55.031Z</time>
      </trkpt>
      <trkpt lat="48.69065" lon="1.90844">
        <ele>142.522</ele>
        <time>2013-10-06T11:56:03.156Z</time>
      </trkpt>
      <trkpt lat="48.69059" lon="1.90834">
        <ele>141.689</ele>
        <time>2013-10-06T11:56:11.647Z</time>
      </trkpt>
      <trkpt lat="48.69051" lon="1.90822">
        <ele>142.845</ele>
        <time>2013-10-06T11:56:22.117Z</time>
      </trkpt>
      <trkpt lat="48.69044" lon="1.90813">
        <ele>144.664</ele>
        <time>2013-10-06T11:56:30.676Z</time>
      </trkpt>
      <trkpt lat="48.69036" lon="1.90805">
        <ele>146.522</ele>
        <time>2013-10-06T11:56:38.617Z</time>
      </trkpt>
      <trkpt lat="48.69027" lon="1.90798">
        <ele>148.277</ele>
        <time>2013-10-06T11:56:48.164Z</time>
      </trkpt>
      <trkpt lat="48.69021" lon="1.90787">
        <ele>150.662</ele>
        <time>2013-10-06T11:56:58.392Z</time>
      </trkpt>
      <trkpt lat="48.69008" lon="1.9078">
        <ele>154.558</ele>
        <time>2013-10-06T11:57:10.816Z</time>
      </trkpt>
      <trkpt lat="48.68998" lon="1.90775">
        <ele>159.691</ele>
        <time>2013-10-06T11:57:17.363Z</time>
      </trkpt>
      <trkpt lat="48.6899" lon="1.90766">
        <ele>164.614</ele>
        <time>2013-10-06T11:57:24.152Z</time>
      </trkpt>
      <trkpt lat="48.68981" lon="1.90762">
        <ele>167.312</ele>
        <time>2013-10-06T11:57:31.781Z</time>
      </trkpt>
      <trkpt lat="48.68972" lon="1.90757">
        <ele>167.197</ele>
        <time>2013-10-06T11:57:39.875Z</time>
      </trkpt>
      <trkpt lat="48.68963" lon="1.90751">
        <ele>164.734</ele>
        <time>2013-10-06T11:57:49.340Z</time>
      </trkpt>
      <trkpt lat="48.68954" lon="1.9075">
        <ele>160.346</ele>
        <time>2013-10-06T11:57:58.940Z</time>
      </trkpt>
      <trkpt lat="48.68944" lon="1.90751">
        <ele>155.455</ele>
        <time>2013-10-06T11:58:07.499Z</time>
      </trkpt>
      <trkpt lat="48.68934" lon="1.90753">
        <ele>150.945</ele>
        <time>2013-10-06T11:58:16.825Z</time>
      </trkpt>
      <trkpt lat="48.68926" lon="1.90757">
        <ele>145.76</ele>
        <time>2013-10-06T11:58:26.062Z</time>
      </trkpt>
      <trkpt lat="48.68916" lon="1.90761">
        <ele>140.197</ele>
        <time>2013-10-06T11:58:34.634Z</time>
      </trkpt>
      <trkpt lat="48.68906" lon="1.90761">
        <ele>136.222</ele>
        <time>2013-10-06T11:58:41.622Z</time>
      </trkpt>
      <trkpt lat="48.68894" lon="1.90756">
        <ele>134.136</ele>
        <time>2013-10-06T11:58:50.761Z</time>
      </trkpt>
      <trkpt lat="48.68885" lon="1.90758">
        <ele>132.895</ele>
        <time>2013-10-06T11:58:59.199Z</time>
      </trkpt>
      <trkpt lat="48.68876" lon="1.90754">
        <ele>132.927</ele>
        <time>2013-10-06T11:59:09.635Z</time>
      </trkpt>
      <trkpt lat="48.68867" lon="1.90757">
        <ele>136.133</ele>
        <time>2013-10-06T11:59:21.877Z</time>
      </trkpt>
      <trkpt lat="48.68858" lon="1.90757">
        <ele>142.106</ele>
        <time>2013-10-06T11:59:35.991Z</time>
      </trkpt>
      <trkpt lat="48.68858" lon="1.90757">
        <ele>147.35</ele>
        <time>2013-10-06T12:00:01.990Z</time>
      </trkpt>
      <trkpt lat="48.68858" lon="1.90757">
        <ele>149.446</ele>
        <time>2013-10-06T12:00:02.090Z</time>
      </trkpt>
      <trkpt lat="48.68837" lon="1.90753">
        <ele>148.901</ele>
        <time>2013-10-06T12:00:17.977Z</time>
      </trkpt>
      <trkpt lat="48.68837" lon="1.90753">
        <ele>147.5</ele>
        <time>2013-10-06T12:00:26.980Z</time>
      </trkpt>
      <trkpt lat="48.68837" lon="1.90753">
        <ele>146.774</ele>
        <time>2013-10-06T12:00:27.080Z</time>
      </trkpt>
      <trkpt lat="48.68828" lon="1.90758">
        <ele>147.123</ele>
        <time>2013-10-06T12:00:50.757Z</time>
      </trkpt>
      <trkpt lat="48.68819" lon="1.90755">
        <ele>148.293</ele>
        <time>2013-10-06T12:00:58.752Z</time>
      </trkpt>
      <trkpt lat="48.68809" lon="1.90755">
        <ele>150.908</ele>
        <time>2013-10-06T12:01:06.549Z</time>
      </trkpt>
      <trkpt lat="48.688" lon="1.90757">
        <ele>153.52</ele>
        <time>2013-10-06T12:01:14.388Z</time>
      </trkpt>
      <trkpt lat="48.68791" lon="1.90756">
        <ele>155.266</ele>
        <time>2013-10-06T12:01:22.800Z</time>
      </trkpt>
      <trkpt lat="48.68781" lon="1.90754">
        <ele>156.894</ele>
        <time>2013-10-06T12:01:31.075Z</time>
      </trkpt>
      <trkpt lat="48.68772" lon="1.90754">
        <ele>158.716</ele>
        <time>2013-10-06T12:01:38.655Z</time>
      </trkpt>
      <trkpt lat="48.68761" lon="1.90756">
        <ele>161.028</ele>
        <time>2013-10-06T12:01:48.982Z</time>
      </trkpt>
      <trkpt lat="48.68761" lon="1.90756">
        <ele>163.683</ele>
        <time>2013-10-06T12:01:49.980Z</time>
      </trkpt>
      <trkpt lat="48.68761" lon="1.90756">
        <ele>165.251</ele>
        <time>2013-10-06T12:01:50.080Z</time>
      </trkpt>
      <trkpt lat="48.68751" lon="1.90751">
        <ele>164.187</ele>
        <time>2013-10-06T12:02:44.184Z</time>
      </trkpt>
      <trkpt lat="48.68741" lon="1.90753">
        <ele>162.411</ele>
        <time>2013-10-06T12:03:04.482Z</time>
      </trkpt>
      <trkpt lat="48.68732" lon="1.90752">
        <ele>159.196</ele>
        <time>2013-10-06T12:03:27.405Z</time>
      </trkpt>
      <trkpt lat="48.68723" lon="1.90751">
        <ele>157.915</ele>
        <time>2013-10-06T12:03:42.009Z</time>
      </trkpt>
      <trkpt lat="48.68714" lon="1.9075">
        <ele>158.887</ele>
        <time>2013-10-06T12:03:53.448Z</time>
      </trkpt>
      <trkpt lat="48.68705" lon="1.90751">
        <ele>160.279</ele>
        <time>2013-10-06T12:04:03.514Z</time>
      </trkpt>
      <trkpt lat="48.68695" lon="1.90751">
        <ele>162.859</ele>
        <time>2013-10-06T12:04:15.254Z</time>
      </trkpt>
      <trkpt lat="48.68686" lon="1.90753">
        <ele>165.602</ele>
        <time>2013-10-06T12:04:26.050Z</time>
      </trkpt>
      <trkpt lat="48.68676" lon="1.90754">
        <ele>167.586</ele>
        <time>2013-10-06T12:04:34.888Z</time>
      </trkpt>
      <trkpt lat="48.68666" lon="1.90753">
        <ele>169.478</ele>
        <time>2013-10-06T12:04:43.605Z</time>
      </trkpt>
      <trkpt lat="48.68657" lon="1.90752">
        <ele>172.088</ele>
        <time>2013-10-06T12:04:52.647Z</time>
      </trkpt>
      <trkpt lat="48.68647" lon="1.90753">
        <ele>175.692</ele>
        <time>2013-10-06T12:05:00.927Z</time>
      </trkpt>
      <trkpt lat="48.68638" lon="1.90753">
        <ele>179.412</ele>
        <time>2013-10-06T12:05:08.808Z</time>
      </trkpt>
      <trkpt lat="48.68627" lon="1.90753">
        <ele>181.69</ele>
        <time>2013-10-06T12:05:17.308Z</time>
      </trkpt>
      <trkpt lat="48.68618" lon="1.90756">
        <ele>181.73</ele>
        <time>2013-10-06T12:05:25.749Z</time>
      </trkpt>
      <trkpt lat="48.68609" lon="1.90747">
        <ele>180.255</ele>
        <time>2013-10-06T12:05:35.175Z</time>
      </trkpt>
      <trkpt lat="48.68606" lon="1.90734">
        <ele>178.044</ele>
        <time>2013-10-06T12:05:43.886Z</time>
      </trkpt>
      <trkpt lat="48.68608" lon="1.9072">
        <ele>174.996</ele>
        <time>2013-10-06T12:05:53.439Z</time>
      </trkpt>
      <trkpt lat="48.68609" lon="1.90706">
        <ele>171.577</ele>
        <time>2013-10-06T12:06:03.284Z</time>
      </trkpt>
      <trkpt lat="48.68608" lon="1.90691">
        <ele>170.399</ele>
        <time>2013-10-06T12:06:11.977Z</time>
      </trkpt>
      <trkpt lat="48.68607" lon="1.90677">
        <ele>172.639</ele>
        <time>2013-10-06T12:06:20.529Z</time>
      </trkpt>
      <trkpt lat="48.68606" lon="1.90663">
        <ele>175.823</ele>
        <time>2013-10-06T12:06:29.253Z</time>
      </trkpt>
      <trkpt lat="48.68607" lon="1.90648">
        <ele>176.746</ele>
        <time>2013-10-06T12:06:37.290Z</time>
      </trkpt>
      <trkpt lat="48.68606" lon="1.90633">
        <ele>174.984</ele>
        <time>2013-10-06T12:06:45.124Z</time>
      </trkpt>
      <trkpt lat="48.68605" lon="1.90618">
        <ele>172.877</ele>
        <time>2013-10-06T12:06:53.873Z</time>
      </trkpt>
      <trkpt lat="48.68607" lon="1.90604">
        <ele>172.636</ele>
        <time>2013-10-06T12:07:02.875Z</time>
      </trkpt>
      <trkpt lat="48.68609" lon="1.90591">
        <ele>173.845</ele>
        <time>2013-10-06T12:07:10.988Z</time>
      </trkpt>
      <trkpt lat="48.68607" lon="1.90575">
        <ele>174.897</ele>
        <time>2013-10-06T12:07:20.282Z</time>
      </trkpt>
      <trkpt lat="48.68607" lon="1.90561">
        <ele>174.741</ele>
        <time>2013-10-06T12:07:29.377Z</time>
      </trkpt>
      <trkpt lat="48.68607" lon="1.90547">
        <ele>173.65</ele>
        <time>2013-10-06T12:07:37.800Z</time>
      </trkpt>
      <trkpt lat="48.68605" lon="1.90533">
        <ele>172.697</ele>
        <time>2013-10-06T12:07:46.984Z</time>
      </trkpt>
      <trkpt lat="48.68596" lon="1.90531">
        <ele>173.187</ele>
        <time>2013-10-06T12:07:55.344Z</time>
      </trkpt>
      <trkpt lat="48.68585" lon="1.90541">
        <ele>175.26</ele>
        <time>2013-10-06T12:08:06.912Z</time>
      </trkpt>
      <trkpt lat="48.68577" lon="1.90547">
        <ele>177.473</ele>
        <time>2013-10-06T12:08:14.309Z</time>
      </trkpt>
      <trkpt lat="48.68567" lon="1.90552">
        <ele>178.961</ele>
        <time>2013-10-06T12:08:23.802Z</time>
      </trkpt>
      <trkpt lat="48.68557" lon="1.90553">
        <ele>180.043</ele>
        <time>2013-10-06T12:08:33.083Z</time>
      </trkpt>
      <trkpt lat="48.68548" lon="1.90552">
        <ele>179.484</ele>
        <time>2013-10-06T12:08:40.737Z</time>
      </trkpt>
      <trkpt lat="48.68539" lon="1.90548">
        <ele>176.483</ele>
        <time>2013-10-06T12:08:47.980Z</time>
      </trkpt>
      <trkpt lat="48.6853" lon="1.90546">
        <ele>174.578</ele>
        <time>2013-10-06T12:08:55.028Z</time>
      </trkpt>
      <trkpt lat="48.68521" lon="1.90548">
        <ele>176.629</ele>
        <time>2013-10-06T12:09:03.209Z</time>
      </trkpt>
      <trkpt lat="48.68511" lon="1.90551">
        <ele>179.351</ele>
        <time>2013-10-06T12:09:15.122Z</time>
      </trkpt>
      <trkpt lat="48.685" lon="1.90554">
        <ele>179.113</ele>
        <time>2013-10-06T12:09:26.454Z</time>
      </trkpt>
      <trkpt lat="48.6849" lon="1.90554">
        <ele>175.934</ele>
        <time>2013-10-06T12:09:34.536Z</time>
      </trkpt>
      <trkpt lat="48.68483" lon="1.90563">
        <ele>170.252</ele>
        <time>2013-10-06T12:09:42.183Z</time>
      </trkpt>
      <trkpt lat="48.68474" lon="1.90568">
        <ele>163.493</ele>
        <time>2013-10-06T12:09:49.808Z</time>
      </trkpt>
      <trkpt lat="48.68466" lon="1.90575">
        <ele>159.02</ele>
        <time>2013-10-06T12:09:57.391Z</time>
      </trkpt>
      <trkpt lat="48.68457" lon="1.90582">
        <ele>158.475</ele>
        <time>2013-10-06T12:10:06.213Z</time>
      </trkpt>
      <trkpt lat="48.68447" lon="1.90592">
        <ele>161.333</ele>
        <time>2013-10-06T12:10:16.227Z</time>
      </trkpt>
      <trkpt lat="48.68439" lon="1.90599">
        <ele>166.052</ele>
        <time>2013-10-06T12:10:21.717Z</time>
      </trkpt>
      <trkpt lat="48.68431" lon="1.90611">
        <ele>171.148</ele>
        <time>2013-10-06T12:10:28.202Z</time>
      </trkpt>
      <trkpt lat="48.68425" lon="1.90621">
        <ele>176.291</ele>
        <time>2013-10-06T12:10:34.364Z</time>
      </trkpt>
      <trkpt lat="48.68417" lon="1.90628">
        <ele>180.868</ele>
        <time>2013-10-06T12:10:42.210Z</time>
      </trkpt>
      <trkpt lat="48.68407" lon="1.90632">
        <ele>183.585</ele>
        <time>2013-10-06T12:10:52.161Z</time>
      </trkpt>
      <trkpt lat="48.68397" lon="1.90637">
        <ele>184.011</ele>
        <time>2013-10-06T12:11:01.634Z</time>
      </trkpt>
      <trkpt lat="48.68387" lon="1.9064">
        <ele>182.405</ele>
        <time>2013-10-06T12:11:08.371Z</time>
      </trkpt>
      <trkpt lat="48.68378" lon="1.90645">
        <ele>180.019</ele>
        <time>2013-10-06T12:11:15.385Z</time>
      </trkpt>
      <trkpt lat="48.68369" lon="1.9065">
        <ele>178.821</ele>
        <time>2013-10-06T12:11:24.067Z</time>
      </trkpt>
      <trkpt lat="48.6836" lon="1.90657">
        <ele>180.1</ele>
        <time>2013-10-06T12:11:34.716Z</time>
      </trkpt>
      <trkpt lat="48.68351" lon="1.90663">
        <ele>183.037</ele>
        <time>2013-10-06T12:11:40.883Z</time>
      </trkpt>
      <trkpt lat="48.68343" lon="1.90668">
        <ele>185.508</ele>
        <time>2013-10-06T12:11:47.867Z</time>
      </trkpt>
      <trkpt lat="48.68333" lon="1.90671">
        <ele>187.305</ele>
        <time>2013-10-06T12:11:56.526Z</time>
      </trkpt>
      <trkpt lat="48.68324" lon="1.90674">
        <ele>189.39</ele>
        <time>2013-10-06T12:12:06.735Z</time>
      </trkpt>
      <trkpt lat="48.68316" lon="1.90681">
        <ele>190.314</ele>
        <time>2013-10-06T12:12:16.883Z</time>
      </trkpt>
      <trkpt lat="48.68307" lon="1.90686">
        <ele>187.448</ele>
        <time>2013-10-06T12:12:27.392Z</time>
      </trkpt>
      <trkpt lat="48.68298" lon="1.90689">
        <ele>180.874</ele>
        <time>2013-10-06T12:12:36.653Z</time>
      </trkpt>
      <trkpt lat="48.6829" lon="1.90698">
        <ele>173.858</ele>
        <time>2013-10-06T12:12:45.677Z</time>
      </trkpt>
      <trkpt lat="48.68283" lon="1.9071">
        <ele>169.191</ele>
        <time>2013-10-06T12:12:55.031Z</time>
      </trkpt>
      <trkpt lat="48.68277" lon="1.90719">
        <ele>166.916</ele>
        <time>2013-10-06T12:13:02.635Z</time>
      </trkpt>
      <trkpt lat="48.68269" lon="1.90729">
        <ele>166.069</ele>
        <time>2013-10-06T12:13:10.483Z</time>
      </trkpt>
      <trkpt lat="48.68261" lon="1.90735">
        <ele>165.774</ele>
        <time>2013-10-06T12:13:18.044Z</time>
      </trkpt>
      <trkpt lat="48.68251" lon="1.90744">
        <ele>165.317</ele>
        <time>2013-10-06T12:13:28.731Z</time>
      </trkpt>
      <trkpt lat="48.68246" lon="1.90756">
        <ele>165.719</ele>
        <time>2013-10-06T12:13:37.327Z</time>
      </trkpt>
      <trkpt lat="48.6824" lon="1.90768">
        <ele>169.067</ele>
        <time>2013-10-06T12:13:45.457Z</time>
      </trkpt>
      <trkpt lat="48.68232" lon="1.90774">
        <ele>175.136</ele>
        <time>2013-10-06T12:13:53.861Z</time>
      </trkpt>
      <trkpt lat="48.68226" lon="1.90786">
        <ele>180.856</ele>
        <time>2013-10-06T12:14:01.842Z</time>
      </trkpt>
      <trkpt lat="48.68218" lon="1.90794">
        <ele>182.147</ele>
        <time>2013-10-06T12:14:11.095Z</time>
      </trkpt>
      <trkpt lat="48.68211" lon="1.90804">
        <ele>178.231</ele>
        <time>2013-10-06T12:14:19.992Z</time>
      </trkpt>
      <trkpt lat="48.68204" lon="1.90812">
        <ele>173.404</ele>
        <time>2013-10-06T12:14:29.107Z</time>
      </trkpt>
      <trkpt lat="48.68197" lon="1.90821">
        <ele>171.826</ele>
        <time>2013-10-06T12:14:38.674Z</time>
      </trkpt>
      <trkpt lat="48.68187" lon="1.90826">
        <ele>173.463</ele>
        <time>2013-10-06T12:14:49.628Z</time>
      </trkpt>
      <trkpt lat="48.68178" lon="1.90832">
        <ele>176.196</ele>
        <time>2013-10-06T12:14:58.729Z</time>
      </trkpt>
      <trkpt lat="48.68172" lon="1.90842">
        <ele>178.091</ele>
        <time>2013-10-06T12:15:07.271Z</time>
      </trkpt>
      <trkpt lat="48.68165" lon="1.90852">
        <ele>177.995</ele>
        <time>2013-10-06T12:15:16.903Z</time>
      </trkpt>
      <trkpt lat="48.68158" lon="1.90862">
        <ele>175.035</ele>
        <time>2013-10-06T12:15:26.214Z</time>
      </trkpt>
      <trkpt lat="48.68156" lon="1.90877">
        <ele>170.136</ele>
        <time>2013-10-06T12:15:37.222Z</time>
      </trkpt>
      <trkpt lat="48.68153" lon="1.9089">
        <ele>166.004</ele>
        <time>2013-10-06T12:15:47.546Z</time>
      </trkpt>
      <trkpt lat="48.6815" lon="1.90903">
        <ele>162.662</ele>
        <time>2013-10-06T12:15:57.696Z</time>
      </trkpt>
      <trkpt lat="48.68148" lon="1.90919">
        <ele>158.177</ele>
        <time>2013-10-06T12:16:08.921Z</time>
      </trkpt>
      <trkpt lat="48.68149" lon="1.90933">
        <ele>153.307</ele>
        <time>2013-10-06T12:16:16.906Z</time>
      </trkpt>
      <trkpt lat="48.68146" lon="1.90952">
        <ele>150.329</ele>
        <time>2013-10-06T12:16:26.775Z</time>
      </trkpt>
      <trkpt lat="48.68147" lon="1.90966">
        <ele>150.818</ele>
        <time>2013-10-06T12:16:34.224Z</time>
      </trkpt>
      <trkpt lat="48.68147" lon="1.9098">
        <ele>155.577</ele>
        <time>2013-10-06T12:16:42.939Z</time>
      </trkpt>
      <trkpt lat="48.68147" lon="1.90994">
        <ele>162.347</ele>
        <time>2013-10-06T12:16:51.995Z</time>
      </trkpt>
      <trkpt lat="48.68146" lon="1.91008">
        <ele>167.215</ele>
        <time>2013-10-06T12:17:00.595Z</time>
      </trkpt>
      <trkpt lat="48.68146" lon="1.91023">
        <ele>168.957</ele>
        <time>2013-10-06T12:17:09.398Z</time>
      </trkpt>
      <trkpt lat="48.68143" lon="1.91037">
        <ele>168.902</ele>
        <time>2013-10-06T12:17:18.259Z</time>
      </trkpt>
      <trkpt lat="48.68141" lon="1.91052">
        <ele>168.25</ele>
        <time>2013-10-06T12:17:27.078Z</time>
      </trkpt>
      <trkpt lat="48.68141" lon="1.91067">
        <ele>167.511</ele>
        <time>2013-10-06T12:17:36.468Z</time>
      </trkpt>
      <trkpt lat="48.68144" lon="1.91082">
        <ele>166.986</ele>
        <time>2013-10-06T12:17:44.539Z</time>
      </trkpt>
      <trkpt lat="48.68146" lon="1.91096">
        <ele>167.196</ele>
        <time>2013-10-06T12:17:52.304Z</time>
      </trkpt>
      <trkpt lat="48.68147" lon="1.9111">
        <ele>169.238</ele>
        <time>2013-10-06T12:18:02.779Z</time>
      </trkpt>
      <trkpt lat="48.68149" lon="1.91124">
        <ele>172.973</ele>
        <time>2013-10-06T12:18:12.697Z</time>
      </trkpt>
      <trkpt lat="48.68153" lon="1.91138">
        <ele>175.759</ele>
        <time>2013-10-06T12:18:21.257Z</time>
      </trkpt>
      <trkpt lat="48.68157" lon="1.9115">
        <ele>175.914</ele>
        <time>2013-10-06T12:18:29.144Z</time>
      </trkpt>
      <trkpt lat="48.6816" lon="1.91163">
        <ele>174.267</ele>
        <time>2013-10-06T12:18:37.796Z</time>
      </trkpt>
      <trkpt lat="48.68165" lon="1.91175">
        <ele>172.064</ele>
        <time>2013-10-06T12:18:46.554Z</time>
      </trkpt>
      <trkpt lat="48.68168" lon="1.91187">
        <ele>170.358</ele>
        <time>2013-10-06T12:18:53.984Z</time>
      </trkpt>
      <trkpt lat="48.68172" lon="1.912">
        <ele>169.945</ele>
        <time>2013-10-06T12:19:01.336Z</time>
      </trkpt>
      <trkpt lat="48.68175" lon="1.91214">
        <ele>170.615</ele>
        <time>2013-10-06T12:19:08.839Z</time>
      </trkpt>
      <trkpt lat="48.68179" lon="1.91226">
        <ele>171.503</ele>
        <time>2013-10-06T12:19:16.979Z</time>
      </trkpt>
      <trkpt lat="48.68179" lon="1.91226">
        <ele>171.894</ele>
        <time>2013-10-06T12:19:23.972Z</time>
      </trkpt>
      <trkpt lat="48.68179" lon="1.91226">
        <ele>171.831</ele>
        <time>2013-10-06T12:19:24.072Z</time>
      </trkpt>
      <trkpt lat="48.68179" lon="1.91226">
        <ele>171.651</ele>
        <time>2013-10-06T12:19:33.974Z</time>
      </trkpt>
      <trkpt lat="48.68179" lon="1.91226">
        <ele>171.636</ele>
        <time>2013-10-06T12:19:42.979Z</time>
      </trkpt>
      <trkpt lat="48.68179" lon="1.91226">
        <ele>171.578</ele>
        <time>2013-10-06T12:19:43.079Z</time>
      </trkpt>
      <trkpt lat="48.68183" lon="1.91247">
        <ele>171.5</ele>
        <time>2013-10-06T12:20:10.983Z</time>
      </trkpt>
      <trkpt lat="48.68183" lon="1.91247">
        <ele>171.451</ele>
        <time>2013-10-06T12:20:17.987Z</time>
      </trkpt>
      <trkpt lat="48.68183" lon="1.91247">
        <ele>171.414</ele>
        <time>2013-10-06T12:20:18.087Z</time>
      </trkpt>
      <trkpt lat="48.68175" lon="1.91258">
        <ele>171.356</ele>
        <time>2013-10-06T12:20:49.890Z</time>
      </trkpt>
      <trkpt lat="48.68166" lon="1.91265">
        <ele>171.292</ele>
        <time>2013-10-06T12:20:58.623Z</time>
      </trkpt>
      <trkpt lat="48.68157" lon="1.91262">
        <ele>172.013</ele>
        <time>2013-10-06T12:21:07.212Z</time>
      </trkpt>
      <trkpt lat="48.68147" lon="1.91262">
        <ele>174.504</ele>
        <time>2013-10-06T12:21:17.066Z</time>
      </trkpt>
      <trkpt lat="48.68137" lon="1.91265">
        <ele>178.407</ele>
        <time>2013-10-06T12:21:26.261Z</time>
      </trkpt>
      <trkpt lat="48.68128" lon="1.91264">
        <ele>182.627</ele>
        <time>2013-10-06T12:21:36.062Z</time>
      </trkpt>
      <trkpt lat="48.68118" lon="1.91262">
        <ele>186.179</ele>
        <time>2013-10-06T12:21:47.613Z</time>
      </trkpt>
      <trkpt lat="48.68109" lon="1.91264">
        <ele>187.692</ele>
        <time>2013-10-06T12:21:57.202Z</time>
      </trkpt>
      <trkpt lat="48.68099" lon="1.91264">
        <ele>186.67</ele>
        <time>2013-10-06T12:22:05.925Z</time>
      </trkpt>
      <trkpt lat="48.6809" lon="1.91262">
        <ele>184.162</ele>
        <time>2013-10-06T12:22:14.003Z</time>
      </trkpt>
      <trkpt lat="48.6808" lon="1.91261">
        <ele>181.637</ele>
        <time>2013-10-06T12:22:22.548Z</time>
      </trkpt>
      <trkpt lat="48.68071" lon="1.91261">
        <ele>179.956</ele>
        <time>2013-10-06T12:22:30.306Z</time>
      </trkpt>
      <trkpt lat="48.68061" lon="1.91264">
        <ele>179.376</ele>
        <time>2013-10-06T12:22:38.719Z</time>
      </trkpt>
      <trkpt lat="48.68052" lon="1.91265">
        <ele>179.884</ele>
        <time>2013-10-06T12:22:46.605Z</time>
      </trkpt>
      <trkpt lat="48.68041" lon="1.91265">
        <ele>181.039</ele>
        <time>2013-10-06T12:22:55.415Z</time>
      </trkpt>
      <trkpt lat="48.68031" lon="1.91264">
        <ele>181.501</ele>
        <time>2013-10-06T12:23:04.916Z</time>
      </trkpt>
      <trkpt lat="48.68022" lon="1.91264">
        <ele>180.256</ele>
        <time>2013-10-06T12:23:14.118Z</time>
      </trkpt>
      <trkpt lat="48.68013" lon="1.91264">
        <ele>178.014</ele>
        <time>2013-10-06T12:23:22.036Z</time>
      </trkpt>
      <trkpt lat="48.68003" lon="1.91262">
        <ele>176.293</ele>
        <time>2013-10-06T12:23:29.858Z</time>
      </trkpt>
      <trkpt lat="48.67994" lon="1.91262">
        <ele>175.773</ele>
        <time>2013-10-06T12:23:38.685Z</time>
      </trkpt>
      <trkpt lat="48.67984" lon="1.9126">
        <ele>175.779</ele>
        <time>2013-10-06T12:23:47.358Z</time>
      </trkpt>
      <trkpt lat="48.67974" lon="1.91259">
        <ele>175.769</ele>
        <time>2013-10-06T12:23:56.185Z</time>
      </trkpt>
      <trkpt lat="48.67965" lon="1.91259">
        <ele>176.156</ele>
        <time>2013-10-06T12:24:05.396Z</time>
      </trkpt>
      <trkpt lat="48.67956" lon="1.91259">
        <ele>176.96</ele>
        <time>2013-10-06T12:24:13.123Z</time>
      </trkpt>
      <trkpt lat="48.67946" lon="1.9126">
        <ele>177.509</ele>
        <time>2013-10-06T12:24:20.831Z</time>
      </trkpt>
      <trkpt lat="48.67936" lon="1.91262">
        <ele>177.301</ele>
        <time>2013-10-06T12:24:29.382Z</time>
      </trkpt>
      <trkpt lat="48.67926" lon="1.91262">
        <ele>175.726</ele>
        <time>2013-10-06T12:24:38.063Z</time>
      </trkpt>
      <trkpt lat="48.67918" lon="1.91266">
        <ele>173.187</ele>
        <time>2013-10-06T12:24:45.612Z</time>
      </trkpt>
      <trkpt lat="48.67909" lon="1.91268">
        <ele>171.043</ele>
        <time>2013-10-06T12:24:52.766Z</time>
      </trkpt>
      <trkpt lat="48.67899" lon="1.91267">
        <ele>170.325</ele>
        <time>2013-10-06T12:25:00.097Z</time>
      </trkpt>
      <trkpt lat="48.67889" lon="1.91266">
        <ele>171.005</ele>
        <time>2013-10-06T12:25:07.628Z</time>
      </trkpt>
      <trkpt lat="48.67879" lon="1.91266">
        <ele>172.56</ele>
        <time>2013-10-06T12:25:16.025Z</time>
      </trkpt>
      <trkpt lat="48.67869" lon="1.91266">
        <ele>174.363</ele>
        <time>2013-10-06T12:25:24.817Z</time>
      </trkpt>
      <trkpt lat="48.67859" lon="1.91266">
        <ele>175.149</ele>
        <time>2013-10-06T12:25:33.390Z</time>
      </trkpt>
      <trkpt lat="48.67849" lon="1.91267">
        <ele>174.032</ele>
        <time>2013-10-06T12:25:41.110Z</time>
      </trkpt>
      <trkpt lat="48.67839" lon="1.91268">
        <ele>172.283</ele>
        <time>2013-10-06T12:25:50.048Z</time>
      </trkpt>
      <trkpt lat="48.6783" lon="1.91269">
        <ele>171.51</ele>
        <time>2013-10-06T12:25:58.691Z</time>
      </trkpt>
      <trkpt lat="48.6782" lon="1.91268">
        <ele>171.766</ele>
        <time>2013-10-06T12:26:07.100Z</time>
      </trkpt>
      <trkpt lat="48.6781" lon="1.91268">
        <ele>172.386</ele>
        <time>2013-10-06T12:26:15.005Z</time>
      </trkpt>
      <trkpt lat="48.67801" lon="1.91268">
        <ele>173.026</ele>
        <time>2013-10-06T12:26:23.187Z</time>
      </trkpt>
      <trkpt lat="48.67791" lon="1.91268">
        <ele>173.967</ele>
        <time>2013-10-06T12:26:30.208Z</time>
      </trkpt>
      <trkpt lat="48.67782" lon="1.91268">
        <ele>175.32</ele>
        <time>2013-10-06T12:26:37.695Z</time>
      </trkpt>
      <trkpt lat="48.67772" lon="1.91268">
        <ele>176.479</ele>
        <time>2013-10-06T12:26:45.980Z</time>
      </trkpt>
      <trkpt lat="48.67763" lon="1.91271">
        <ele>176.966</ele>
        <time>2013-10-06T12:26:53.999Z</time>
      </trkpt>
      <trkpt lat="48.67753" lon="1.91273">
        <ele>177.005</ele>
        <time>2013-10-06T12:27:02.764Z</time>
      </trkpt>
      <trkpt lat="48.67744" lon="1.91274">
        <ele>177.064</ele>
        <time>2013-10-06T12:27:10.163Z</time>
      </trkpt>
      <trkpt lat="48.67733" lon="1.91273">
        <ele>177.992</ele>
        <time>2013-10-06T12:27:18.665Z</time>
      </trkpt>
      <trkpt lat="48.67724" lon="1.91274">
        <ele>179.928</ele>
        <time>2013-10-06T12:27:26.288Z</time>
      </trkpt>
      <trkpt lat="48.67714" lon="1.91277">
        <ele>181.559</ele>
        <time>2013-10-06T12:27:34.875Z</time>
      </trkpt>
      <trkpt lat="48.67706" lon="1.91282">
        <ele>181.96</ele>
        <time>2013-10-06T12:27:43.678Z</time>
      </trkpt>
      <trkpt lat="48.677" lon="1.91293">
        <ele>181.649</ele>
        <time>2013-10-06T12:27:52.752Z</time>
      </trkpt>
      <trkpt lat="48.67697" lon="1.91306">
        <ele>180.624</ele>
        <time>2013-10-06T12:28:00.543Z</time>
      </trkpt>
      <trkpt lat="48.67694" lon="1.9132">
        <ele>178.686</ele>
        <time>2013-10-06T12:28:08.598Z</time>
      </trkpt>
      <trkpt lat="48.67694" lon="1.91333">
        <ele>177.042</ele>
        <time>2013-10-06T12:28:17.046Z</time>
      </trkpt>
      <trkpt lat="48.67691" lon="1.91346">
        <ele>176.725</ele>
        <time>2013-10-06T12:28:25.272Z</time>
      </trkpt>
      <trkpt lat="48.67688" lon="1.9136">
        <ele>176.458</ele>
        <time>2013-10-06T12:28:33.907Z</time>
      </trkpt>
      <trkpt lat="48.67685" lon="1.91373">
        <ele>174.798</ele>
        <time>2013-10-06T12:28:42.851Z</time>
      </trkpt>
      <trkpt lat="48.67682" lon="1.91386">
        <ele>172.448</ele>
        <time>2013-10-06T12:28:52.108Z</time>
      </trkpt>
      <trkpt lat="48.67679" lon="1.91401">
        <ele>170.892</ele>
        <time>2013-10-06T12:29:01.586Z</time>
      </trkpt>
      <trkpt lat="48.67677" lon="1.91415">
        <ele>170.475</ele>
        <time>2013-10-06T12:29:09.563Z</time>
      </trkpt>
      <trkpt lat="48.67675" lon="1.91429">
        <ele>170.758</ele>
        <time>2013-10-06T12:29:17.790Z</time>
      </trkpt>
      <trkpt lat="48.67672" lon="1.91444">
        <ele>171.303</ele>
        <time>2013-10-06T12:29:27.414Z</time>
      </trkpt>
      <trkpt lat="48.67671" lon="1.91458">
        <ele>172.168</ele>
        <time>2013-10-06T12:29:35.153Z</time>
      </trkpt>
      <trkpt lat="48.6767" lon="1.91473">
        <ele>173.34</ele>
        <time>2013-10-06T12:29:43.439Z</time>
      </trkpt>
      <trkpt lat="48.67669" lon="1.91487">
        <ele>173.863</ele>
        <time>2013-10-06T12:29:51.904Z</time>
      </trkpt>
      <trkpt lat="48.67667" lon="1.91501">
        <ele>172.443</ele>
        <time>2013-10-06T12:30:00.956Z</time>
      </trkpt>
      <trkpt lat="48.67664" lon="1.91514">
        <ele>169.044</ele>
        <time>2013-10-06T12:30:09.122Z</time>
      </trkpt>
      <trkpt lat="48.67663" lon="1.91529">
        <ele>165.361</ele>
        <time>2013-10-06T12:30:16.754Z</time>
      </trkpt>
      <trkpt lat="48.67663" lon="1.91543">
        <ele>163.686</ele>
        <time>2013-10-06T12:30:23.667Z</time>
      </trkpt>
      <trkpt lat="48.67663" lon="1.91559">
        <ele>164.925</ele>
        <time>2013-10-06T12:30:31.185Z</time>
      </trkpt>
      <trkpt lat="48.67661" lon="1.91572">
        <ele>168.038</ele>
        <time>2013-10-06T12:30:38.535Z</time>
      </trkpt>
      <trkpt lat="48.67657" lon="1.91585">
        <ele>171.157</ele>
        <time>2013-10-06T12:30:46.633Z</time>
      </trkpt>
      <trkpt lat="48.67651" lon="1.91597">
        <ele>173.082</ele>
        <time>2013-10-06T12:30:55.086Z</time>
      </trkpt>
      <trkpt lat="48.67643" lon="1.91604">
        <ele>173.598</ele>
        <time>2013-10-06T12:31:03.578Z</time>
      </trkpt>
      <trkpt lat="48.67634" lon="1.91609">
        <ele>173.358</ele>
        <time>2013-10-06T12:31:12.772Z</time>
      </trkpt>
      <trkpt lat="48.67624" lon="1.91607">
        <ele>173.666</ele>
        <time>2013-10-06T12:31:22.277Z</time>
      </trkpt>
      <trkpt lat="48.67615" lon="1.91602">
        <ele>175.201</ele>
        <time>2013-10-06T12:31:31.183Z</time>
      </trkpt>
      <trkpt lat="48.67606" lon="1.91597">
        <ele>177.451</ele>
        <time>2013-10-06T12:31:39.986Z</time>
      </trkpt>
      <trkpt lat="48.67606" lon="1.91597">
        <ele>179.612</ele>
        <time>2013-10-06T12:31:50.997Z</time>
      </trkpt>
      <trkpt lat="48.67606" lon="1.91597">
        <ele>180.77</ele>
        <time>2013-10-06T12:31:51.489Z</time>
      </trkpt>
      <trkpt lat="48.67593" lon="1.91589">
        <ele>180.302</ele>
        <time>2013-10-06T12:32:43.481Z</time>
      </trkpt>
      <trkpt lat="48.67586" lon="1.9158">
        <ele>176.956</ele>
        <time>2013-10-06T12:32:49.891Z</time>
      </trkpt>
      <trkpt lat="48.67576" lon="1.91576">
        <ele>170.785</ele>
        <time>2013-10-06T12:32:56.843Z</time>
      </trkpt>
      <trkpt lat="48.67567" lon="1.91576">
        <ele>165.673</ele>
        <time>2013-10-06T12:33:04.412Z</time>
      </trkpt>
      <trkpt lat="48.67557" lon="1.91572">
        <ele>164.437</ele>
        <time>2013-10-06T12:33:13.304Z</time>
      </trkpt>
      <trkpt lat="48.67548" lon="1.91567">
        <ele>165.443</ele>
        <time>2013-10-06T12:33:22.198Z</time>
      </trkpt>
      <trkpt lat="48.67539" lon="1.91563">
        <ele>166.591</ele>
        <time>2013-10-06T12:33:29.980Z</time>
      </trkpt>
      <trkpt lat="48.67539" lon="1.91563">
        <ele>167.188</ele>
        <time>2013-10-06T12:33:42.991Z</time>
      </trkpt>
      <trkpt lat="48.67539" lon="1.91563">
        <ele>167.296</ele>
        <time>2013-10-06T12:33:43.091Z</time>
      </trkpt>
      <trkpt lat="48.67531" lon="1.91549">
        <ele>167.049</ele>
        <time>2013-10-06T12:34:01.989Z</time>
      </trkpt>
      <trkpt lat="48.67531" lon="1.91549">
        <ele>166.964</ele>
        <time>2013-10-06T12:34:06.982Z</time>
      </trkpt>
      <trkpt lat="48.67531" lon="1.91549">
        <ele>166.89</ele>
        <time>2013-10-06T12:34:07.082Z</time>
      </trkpt>
      <trkpt lat="48.67518" lon="1.91543">
        <ele>166.818</ele>
        <time>2013-10-06T12:34:27.944Z</time>
      </trkpt>
      <trkpt lat="48.67508" lon="1.9154">
        <ele>166.712</ele>
        <time>2013-10-06T12:34:34.755Z</time>
      </trkpt>
      <trkpt lat="48.67499" lon="1.91537">
        <ele>166.542</ele>
        <time>2013-10-06T12:34:41.768Z</time>
      </trkpt>
      <trkpt lat="48.6749" lon="1.91535">
        <ele>167.431</ele>
        <time>2013-10-06T12:34:48.855Z</time>
      </trkpt>
      <trkpt lat="48.67481" lon="1.91531">
        <ele>170.153</ele>
        <time>2013-10-06T12:34:55.826Z</time>
      </trkpt>
      <trkpt lat="48.67472" lon="1.91527">
        <ele>173.11</ele>
        <time>2013-10-06T12:35:03.020Z</time>
      </trkpt>
      <trkpt lat="48.67462" lon="1.91522">
        <ele>174.109</ele>
        <time>2013-10-06T12:35:09.963Z</time>
      </trkpt>
      <trkpt lat="48.67455" lon="1.91511">
        <ele>172.592</ele>
        <time>2013-10-06T12:35:16.791Z</time>
      </trkpt>
      <trkpt lat="48.67451" lon="1.91499">
        <ele>169.771</ele>
        <time>2013-10-06T12:35:22.952Z</time>
      </trkpt>
      <trkpt lat="48.6745" lon="1.91483">
        <ele>167.845</ele>
        <time>2013-10-06T12:35:29.558Z</time>
      </trkpt>
      <trkpt lat="48.67449" lon="1.91468">
        <ele>167.647</ele>
        <time>2013-10-06T12:35:35.893Z</time>
      </trkpt>
      <trkpt lat="48.6745" lon="1.91454">
        <ele>167.989</ele>
        <time>2013-10-06T12:35:42.439Z</time>
      </trkpt>
      <trkpt lat="48.6745" lon="1.91438">
        <ele>167.71</ele>
        <time>2013-10-06T12:35:49.169Z</time>
      </trkpt>
      <trkpt lat="48.6745" lon="1.91424">
        <ele>167.071</ele>
        <time>2013-10-06T12:35:54.685Z</time>
      </trkpt>
      <trkpt lat="48.67451" lon="1.91409">
        <ele>166.663</ele>
        <time>2013-10-06T12:36:01.238Z</time>
      </trkpt>
      <trkpt lat="48.67455" lon="1.91396">
        <ele>162.885</ele>
        <time>2013-10-06T12:36:09.534Z</time>
      </trkpt>
      <trkpt lat="48.67449" lon="1.91382">
        <ele>153.325</ele>
        <time>2013-10-06T12:36:21.959Z</time>
      </trkpt>
      <trkpt lat="48.67446" lon="1.91369">
        <ele>143.139</ele>
        <time>2013-10-06T12:36:30.823Z</time>
      </trkpt>
      <trkpt lat="48.6745" lon="1.91356">
        <ele>135.701</ele>
        <time>2013-10-06T12:36:37.669Z</time>
      </trkpt>
      <trkpt lat="48.6745" lon="1.91342">
        <ele>129.238</ele>
        <time>2013-10-06T12:36:44.976Z</time>
      </trkpt>
      <trkpt lat="48.67447" lon="1.91328">
        <ele>129.447</ele>
        <time>2013-10-06T12:36:53.103Z</time>
      </trkpt>
      <trkpt lat="48.67442" lon="1.91314">
        <ele>142.293</ele>
        <time>2013-10-06T12:37:00.821Z</time>
      </trkpt>
      <trkpt lat="48.67434" lon="1.91307">
        <ele>161.277</ele>
        <time>2013-10-06T12:37:06.801Z</time>
      </trkpt>
      <trkpt lat="48.67424" lon="1.91304">
        <ele>175.93</ele>
        <time>2013-10-06T12:37:13.084Z</time>
      </trkpt>
      <trkpt lat="48.67414" lon="1.91302">
        <ele>182.987</ele>
        <time>2013-10-06T12:37:18.860Z</time>
      </trkpt>
      <trkpt lat="48.67405" lon="1.913">
        <ele>184.641</ele>
        <time>2013-10-06T12:37:24.800Z</time>
      </trkpt>
      <trkpt lat="48.67396" lon="1.91296">
        <ele>184.765</ele>
        <time>2013-10-06T12:37:31.411Z</time>
      </trkpt>
      <trkpt lat="48.67386" lon="1.91291">
        <ele>186.381</ele>
        <time>2013-10-06T12:37:38.439Z</time>
      </trkpt>
      <trkpt lat="48.67377" lon="1.91288">
        <ele>189.879</ele>
        <time>2013-10-06T12:37:44.993Z</time>
      </trkpt>
      <trkpt lat="48.67377" lon="1.91288">
        <ele>192.507</ele>
        <time>2013-10-06T12:37:55.972Z</time>
      </trkpt>
      <trkpt lat="48.67377" lon="1.91288">
        <ele>192.352</ele>
        <time>2013-10-06T12:37:56.072Z</time>
      </trkpt>
      <trkpt lat="48.67361" lon="1.91277">
        <ele>190.873</ele>
        <time>2013-10-06T12:38:20.512Z</time>
      </trkpt>
      <trkpt lat="48.67351" lon="1.91274">
        <ele>187.563</ele>
        <time>2013-10-06T12:38:27.812Z</time>
      </trkpt>
      <trkpt lat="48.67342" lon="1.91273">
        <ele>181.341</ele>
        <time>2013-10-06T12:38:35.377Z</time>
      </trkpt>
      <trkpt lat="48.67333" lon="1.91268">
        <ele>175.577</ele>
        <time>2013-10-06T12:38:43.081Z</time>
      </trkpt>
      <trkpt lat="48.67323" lon="1.91265">
        <ele>173.661</ele>
        <time>2013-10-06T12:38:51.219Z</time>
      </trkpt>
      <trkpt lat="48.67315" lon="1.91261">
        <ele>174.359</ele>
        <time>2013-10-06T12:38:58.942Z</time>
      </trkpt>
      <trkpt lat="48.67306" lon="1.91254">
        <ele>175.347</ele>
        <time>2013-10-06T12:39:08.338Z</time>
      </trkpt>
      <trkpt lat="48.67297" lon="1.9125">
        <ele>175.712</ele>
        <time>2013-10-06T12:39:17.569Z</time>
      </trkpt>
      <trkpt lat="48.67294" lon="1.91237">
        <ele>175.749</ele>
        <time>2013-10-06T12:39:24.805Z</time>
      </trkpt>
      <trkpt lat="48.67289" lon="1.91224">
        <ele>175.98</ele>
        <time>2013-10-06T12:39:31.950Z</time>
      </trkpt>
      <trkpt lat="48.67283" lon="1.91211">
        <ele>176.607</ele>
        <time>2013-10-06T12:39:39.296Z</time>
      </trkpt>
      <trkpt lat="48.67279" lon="1.91198">
        <ele>177.18</ele>
        <time>2013-10-06T12:39:46.802Z</time>
      </trkpt>
      <trkpt lat="48.67274" lon="1.91184">
        <ele>177.251</ele>
        <time>2013-10-06T12:39:55.152Z</time>
      </trkpt>
      <trkpt lat="48.67269" lon="1.91172">
        <ele>177.022</ele>
        <time>2013-10-06T12:40:03.177Z</time>
      </trkpt>
      <trkpt lat="48.67264" lon="1.9116">
        <ele>176.818</ele>
        <time>2013-10-06T12:40:12.095Z</time>
      </trkpt>
      <trkpt lat="48.67258" lon="1.91148">
        <ele>176.428</ele>
        <time>2013-10-06T12:40:20.220Z</time>
      </trkpt>
      <trkpt lat="48.67253" lon="1.91137">
        <ele>175.547</ele>
        <time>2013-10-06T12:40:27.699Z</time>
      </trkpt>
      <trkpt lat="48.67247" lon="1.91125">
        <ele>174.647</ele>
        <time>2013-10-06T12:40:36.304Z</time>
      </trkpt>
      <trkpt lat="48.67241" lon="1.91112">
        <ele>174.644</ele>
        <time>2013-10-06T12:40:43.732Z</time>
      </trkpt>
      <trkpt lat="48.67233" lon="1.91102">
        <ele>176.021</ele>
        <time>2013-10-06T12:40:51.447Z</time>
      </trkpt>
      <trkpt lat="48.6723" lon="1.91088">
        <ele>178.141</ele>
        <time>2013-10-06T12:40:59.579Z</time>
      </trkpt>
      <trkpt lat="48.67227" lon="1.91074">
        <ele>179.236</ele>
        <time>2013-10-06T12:41:08.185Z</time>
      </trkpt>
      <trkpt lat="48.67224" lon="1.91061">
        <ele>178.445</ele>
        <time>2013-10-06T12:41:16.083Z</time>
      </trkpt>
      <trkpt lat="48.67221" lon="1.91046">
        <ele>176.977</ele>
        <time>2013-10-06T12:41:23.809Z</time>
      </trkpt>
      <trkpt lat="48.67218" lon="1.91033">
        <ele>176.554</ele>
        <time>2013-10-06T12:41:31.154Z</time>
      </trkpt>
      <trkpt lat="48.67215" lon="1.9102">
        <ele>177.47</ele>
        <time>2013-10-06T12:41:38.085Z</time>
      </trkpt>
      <trkpt lat="48.67213" lon="1.91006">
        <ele>178.631</ele>
        <time>2013-10-06T12:41:45.565Z</time>
      </trkpt>
      <trkpt lat="48.6721" lon="1.90992">
        <ele>178.896</ele>
        <time>2013-10-06T12:41:54.070Z</time>
      </trkpt>
      <trkpt lat="48.67207" lon="1.90977">
        <ele>177.828</ele>
        <time>2013-10-06T12:42:02.781Z</time>
      </trkpt>
      <trkpt lat="48.67205" lon="1.90964">
        <ele>175.893</ele>
        <time>2013-10-06T12:42:09.931Z</time>
      </trkpt>
      <trkpt lat="48.67203" lon="1.9095">
        <ele>174.261</ele>
        <time>2013-10-06T12:42:17.410Z</time>
      </trkpt>
      <trkpt lat="48.67201" lon="1.90936">
        <ele>173.582</ele>
        <time>2013-10-06T12:42:24.835Z</time>
      </trkpt>
      <trkpt lat="48.67197" lon="1.90922">
        <ele>173.557</ele>
        <time>2013-10-06T12:42:32.592Z</time>
      </trkpt>
      <trkpt lat="48.67193" lon="1.90908">
        <ele>173.683</ele>
        <time>2013-10-06T12:42:40.040Z</time>
      </trkpt>
      <trkpt lat="48.6719" lon="1.90894">
        <ele>173.657</ele>
        <time>2013-10-06T12:42:47.367Z</time>
      </trkpt>
      <trkpt lat="48.67188" lon="1.90879">
        <ele>173.795</ele>
        <time>2013-10-06T12:42:55.782Z</time>
      </trkpt>
      <trkpt lat="48.67185" lon="1.90864">
        <ele>174.103</ele>
        <time>2013-10-06T12:43:03.862Z</time>
      </trkpt>
      <trkpt lat="48.67183" lon="1.90849">
        <ele>174.313</ele>
        <time>2013-10-06T12:43:11.638Z</time>
      </trkpt>
      <trkpt lat="48.67179" lon="1.90835">
        <ele>174.416</ele>
        <time>2013-10-06T12:43:18.618Z</time>
      </trkpt>
      <trkpt lat="48.67176" lon="1.90821">
        <ele>174.59</ele>
        <time>2013-10-06T12:43:26.081Z</time>
      </trkpt>
      <trkpt lat="48.67173" lon="1.90808">
        <ele>174.72</ele>
        <time>2013-10-06T12:43:34.199Z</time>
      </trkpt>
      <trkpt lat="48.67169" lon="1.90793">
        <ele>175.123</ele>
        <time>2013-10-06T12:43:42.538Z</time>
      </trkpt>
      <trkpt lat="48.67166" lon="1.90779">
        <ele>175.586</ele>
        <time>2013-10-06T12:43:50.606Z</time>
      </trkpt>
      <trkpt lat="48.67164" lon="1.90766">
        <ele>175.66</ele>
        <time>2013-10-06T12:43:58.179Z</time>
      </trkpt>
      <trkpt lat="48.67161" lon="1.90752">
        <ele>175.711</ele>
        <time>2013-10-06T12:44:05.798Z</time>
      </trkpt>
      <trkpt lat="48.67157" lon="1.90738">
        <ele>176.116</ele>
        <time>2013-10-06T12:44:14.112Z</time>
      </trkpt>
      <trkpt lat="48.67154" lon="1.90725">
        <ele>176.313</ele>
        <time>2013-10-06T12:44:22.634Z</time>
      </trkpt>
      <trkpt lat="48.67149" lon="1.90712">
        <ele>176.128</ele>
        <time>2013-10-06T12:44:32.540Z</time>
      </trkpt>
      <trkpt lat="48.67148" lon="1.90697">
        <ele>175.031</ele>
        <time>2013-10-06T12:44:40.478Z</time>
      </trkpt>
      <trkpt lat="48.67145" lon="1.90683">
        <ele>172.869</ele>
        <time>2013-10-06T12:44:46.964Z</time>
      </trkpt>
      <trkpt lat="48.67142" lon="1.90669">
        <ele>170.84</ele>
        <time>2013-10-06T12:44:53.780Z</time>
      </trkpt>
      <trkpt lat="48.67139" lon="1.90655">
        <ele>170.079</ele>
        <time>2013-10-06T12:45:01.337Z</time>
      </trkpt>
      <trkpt lat="48.67136" lon="1.90642">
        <ele>170.344</ele>
        <time>2013-10-06T12:45:08.438Z</time>
      </trkpt>
      <trkpt lat="48.67134" lon="1.90627">
        <ele>170.895</ele>
        <time>2013-10-06T12:45:16.348Z</time>
      </trkpt>
      <trkpt lat="48.67132" lon="1.90613">
        <ele>171.546</ele>
        <time>2013-10-06T12:45:23.783Z</time>
      </trkpt>
      <trkpt lat="48.67128" lon="1.906">
        <ele>172.68</ele>
        <time>2013-10-06T12:45:31.739Z</time>
      </trkpt>
      <trkpt lat="48.67126" lon="1.90586">
        <ele>173.922</ele>
        <time>2013-10-06T12:45:39.619Z</time>
      </trkpt>
      <trkpt lat="48.67123" lon="1.90573">
        <ele>174.629</ele>
        <time>2013-10-06T12:45:47.568Z</time>
      </trkpt>
      <trkpt lat="48.67121" lon="1.9056">
        <ele>174.915</ele>
        <time>2013-10-06T12:45:55.157Z</time>
      </trkpt>
      <trkpt lat="48.67117" lon="1.90545">
        <ele>175.045</ele>
        <time>2013-10-06T12:46:03.167Z</time>
      </trkpt>
      <trkpt lat="48.67116" lon="1.9053">
        <ele>174.911</ele>
        <time>2013-10-06T12:46:10.853Z</time>
      </trkpt>
      <trkpt lat="48.67113" lon="1.90517">
        <ele>174.526</ele>
        <time>2013-10-06T12:46:18.065Z</time>
      </trkpt>
      <trkpt lat="48.6711" lon="1.90503">
        <ele>174.141</ele>
        <time>2013-10-06T12:46:25.674Z</time>
      </trkpt>
      <trkpt lat="48.67108" lon="1.90489">
        <ele>174.064</ele>
        <time>2013-10-06T12:46:34.430Z</time>
      </trkpt>
      <trkpt lat="48.67104" lon="1.90475">
        <ele>174.117</ele>
        <time>2013-10-06T12:46:43.906Z</time>
      </trkpt>
      <trkpt lat="48.67101" lon="1.90461">
        <ele>173.958</ele>
        <time>2013-10-06T12:46:52.707Z</time>
      </trkpt>
      <trkpt lat="48.67099" lon="1.90447">
        <ele>173.656</ele>
        <time>2013-10-06T12:47:00.766Z</time>
      </trkpt>
      <trkpt lat="48.67096" lon="1.90433">
        <ele>173.384</ele>
        <time>2013-10-06T12:47:11.116Z</time>
      </trkpt>
      <trkpt lat="48.67094" lon="1.90418">
        <ele>173.109</ele>
        <time>2013-10-06T12:47:23.147Z</time>
      </trkpt>
      <trkpt lat="48.67092" lon="1.90405">
        <ele>172.777</ele>
        <time>2013-10-06T12:47:32.793Z</time>
      </trkpt>
      <trkpt lat="48.67089" lon="1.9039">
        <ele>172.603</ele>
        <time>2013-10-06T12:47:41.731Z</time>
      </trkpt>
      <trkpt lat="48.67087" lon="1.90377">
        <ele>172.863</ele>
        <time>2013-10-06T12:47:49.915Z</time>
      </trkpt>
      <trkpt lat="48.67084" lon="1.90364">
        <ele>173.327</ele>
        <time>2013-10-06T12:47:58.425Z</time>
      </trkpt>
      <trkpt lat="48.67081" lon="1.90351">
        <ele>173.594</ele>
        <time>2013-10-06T12:48:07.186Z</time>
      </trkpt>
      <trkpt lat="48.67079" lon="1.90336">
        <ele>173.664</ele>
        <time>2013-10-06T12:48:15.804Z</time>
      </trkpt>
      <trkpt lat="48.67076" lon="1.90323">
        <ele>173.674</ele>
        <time>2013-10-06T12:48:23.898Z</time>
      </trkpt>
      <trkpt lat="48.67073" lon="1.90309">
        <ele>173.717</ele>
        <time>2013-10-06T12:48:32.023Z</time>
      </trkpt>
      <trkpt lat="48.67072" lon="1.90295">
        <ele>173.494</ele>
        <time>2013-10-06T12:48:40.229Z</time>
      </trkpt>
      <trkpt lat="48.67068" lon="1.90281">
        <ele>172.806</ele>
        <time>2013-10-06T12:48:48.553Z</time>
      </trkpt>
      <trkpt lat="48.67065" lon="1.90267">
        <ele>172.078</ele>
        <time>2013-10-06T12:48:56.756Z</time>
      </trkpt>
      <trkpt lat="48.67064" lon="1.90252">
        <ele>171.78</ele>
        <time>2013-10-06T12:49:05.061Z</time>
      </trkpt>
      <trkpt lat="48.6706" lon="1.90239">
        <ele>171.741</ele>
        <time>2013-10-06T12:49:12.890Z</time>
      </trkpt>
      <trkpt lat="48.67057" lon="1.90224">
        <ele>171.624</ele>
        <time>2013-10-06T12:49:21.267Z</time>
      </trkpt>
      <trkpt lat="48.67054" lon="1.90211">
        <ele>171.424</ele>
        <time>2013-10-06T12:49:28.299Z</time>
      </trkpt>
      <trkpt lat="48.67051" lon="1.90197">
        <ele>171.401</ele>
        <time>2013-10-06T12:49:35.420Z</time>
      </trkpt>
      <trkpt lat="48.67048" lon="1.90183">
        <ele>171.766</ele>
        <time>2013-10-06T12:49:42.701Z</time>
      </trkpt>
      <trkpt lat="48.67045" lon="1.90169">
        <ele>172.274</ele>
        <time>2013-10-06T12:49:50.169Z</time>
      </trkpt>
      <trkpt lat="48.67042" lon="1.90155">
        <ele>172.573</ele>
        <time>2013-10-06T12:49:57.687Z</time>
      </trkpt>
      <trkpt lat="48.67037" lon="1.90142">
        <ele>172.743</ele>
        <time>2013-10-06T12:50:05.257Z</time>
      </trkpt>
      <trkpt lat="48.67033" lon="1.90128">
        <ele>172.859</ele>
        <time>2013-10-06T12:50:13.455Z</time>
      </trkpt>
      <trkpt lat="48.67031" lon="1.90114">
        <ele>172.585</ele>
        <time>2013-10-06T12:50:21.600Z</time>
      </trkpt>
      <trkpt lat="48.67027" lon="1.901">
        <ele>171.849</ele>
        <time>2013-10-06T12:50:30.487Z</time>
      </trkpt>
      <trkpt lat="48.67024" lon="1.90087">
        <ele>171.389</ele>
        <time>2013-10-06T12:50:38.152Z</time>
      </trkpt>
      <trkpt lat="48.67021" lon="1.90073">
        <ele>171.779</ele>
        <time>2013-10-06T12:50:46.723Z</time>
      </trkpt>
      <trkpt lat="48.67018" lon="1.90059">
        <ele>172.335</ele>
        <time>2013-10-06T12:50:55.067Z</time>
      </trkpt>
      <trkpt lat="48.67014" lon="1.90046">
        <ele>172.121</ele>
        <time>2013-10-06T12:51:03.107Z</time>
      </trkpt>
      <trkpt lat="48.6701" lon="1.90034">
        <ele>171.166</ele>
        <time>2013-10-06T12:51:10.326Z</time>
      </trkpt>
      <trkpt lat="48.67007" lon="1.90018">
        <ele>170.045</ele>
        <time>2013-10-06T12:51:18.386Z</time>
      </trkpt>
      <trkpt lat="48.67001" lon="1.90005">
        <ele>169.159</ele>
        <time>2013-10-06T12:51:25.995Z</time>
      </trkpt>
      <trkpt lat="48.66999" lon="1.89991">
        <ele>168.746</ele>
        <time>2013-10-06T12:51:33.969Z</time>
      </trkpt>
      <trkpt lat="48.66996" lon="1.89976">
        <ele>168.838</ele>
        <time>2013-10-06T12:51:42.221Z</time>
      </trkpt>
      <trkpt lat="48.66993" lon="1.89962">
        <ele>168.809</ele>
        <time>2013-10-06T12:51:50.156Z</time>
      </trkpt>
      <trkpt lat="48.66989" lon="1.89948">
        <ele>168.209</ele>
        <time>2013-10-06T12:51:58.552Z</time>
      </trkpt>
      <trkpt lat="48.66986" lon="1.89935">
        <ele>167.6</ele>
        <time>2013-10-06T12:52:05.912Z</time>
      </trkpt>
      <trkpt lat="48.66982" lon="1.89921">
        <ele>167.657</ele>
        <time>2013-10-06T12:52:13.732Z</time>
      </trkpt>
      <trkpt lat="48.66979" lon="1.89908">
        <ele>168.469</ele>
        <time>2013-10-06T12:52:21.340Z</time>
      </trkpt>
      <trkpt lat="48.66975" lon="1.89894">
        <ele>169.76</ele>
        <time>2013-10-06T12:52:29.680Z</time>
      </trkpt>
      <trkpt lat="48.6697" lon="1.89882">
        <ele>171.005</ele>
        <time>2013-10-06T12:52:38.000Z</time>
      </trkpt>
      <trkpt lat="48.6697" lon="1.89882">
        <ele>171.72</ele>
        <time>2013-10-06T12:52:50.021Z</time>
      </trkpt>
      <trkpt lat="48.6697" lon="1.89882">
        <ele>171.854</ele>
        <time>2013-10-06T12:55:46.806Z</time>
      </trkpt>
      <trkpt lat="48.66966" lon="1.89867">
        <ele>171.703</ele>
        <time>2013-10-06T12:56:51.825Z</time>
      </trkpt>
      <trkpt lat="48.66963" lon="1.89855">
        <ele>171.564</ele>
        <time>2013-10-06T12:57:01.133Z</time>
      </trkpt>
      <trkpt lat="48.66959" lon="1.89841">
        <ele>171.424</ele>
        <time>2013-10-06T12:57:09.457Z</time>
      </trkpt>
      <trkpt lat="48.66955" lon="1.89829">
        <ele>171.216</ele>
        <time>2013-10-06T12:57:17.383Z</time>
      </trkpt>
      <trkpt lat="48.6695" lon="1.89816">
        <ele>171.029</ele>
        <time>2013-10-06T12:57:26.511Z</time>
      </trkpt>
      <trkpt lat="48.66946" lon="1.89803">
        <ele>171.1</ele>
        <time>2013-10-06T12:57:35.053Z</time>
      </trkpt>
      <trkpt lat="48.66942" lon="1.8979">
        <ele>171.333</ele>
        <time>2013-10-06T12:57:43.286Z</time>
      </trkpt>
      <trkpt lat="48.66938" lon="1.89777">
        <ele>171.416</ele>
        <time>2013-10-06T12:57:51.107Z</time>
      </trkpt>
      <trkpt lat="48.66935" lon="1.89763">
        <ele>171.36</ele>
        <time>2013-10-06T12:57:59.513Z</time>
      </trkpt>
      <trkpt lat="48.66931" lon="1.89749">
        <ele>171.429</ele>
        <time>2013-10-06T12:58:07.991Z</time>
      </trkpt>
      <trkpt lat="48.66927" lon="1.89736">
        <ele>171.821</ele>
        <time>2013-10-06T12:58:16.424Z</time>
      </trkpt>
      <trkpt lat="48.66923" lon="1.89723">
        <ele>172.374</ele>
        <time>2013-10-06T12:58:24.452Z</time>
      </trkpt>
      <trkpt lat="48.66919" lon="1.8971">
        <ele>172.631</ele>
        <time>2013-10-06T12:58:32.366Z</time>
      </trkpt>
      <trkpt lat="48.66915" lon="1.89697">
        <ele>172.551</ele>
        <time>2013-10-06T12:58:39.787Z</time>
      </trkpt>
      <trkpt lat="48.6691" lon="1.89684">
        <ele>172.366</ele>
        <time>2013-10-06T12:58:47.369Z</time>
      </trkpt>
      <trkpt lat="48.66906" lon="1.89671">
        <ele>171.926</ele>
        <time>2013-10-06T12:58:54.880Z</time>
      </trkpt>
      <trkpt lat="48.66902" lon="1.89658">
        <ele>171.171</ele>
        <time>2013-10-06T12:59:02.436Z</time>
      </trkpt>
      <trkpt lat="48.66898" lon="1.89645">
        <ele>170.533</ele>
        <time>2013-10-06T12:59:09.991Z</time>
      </trkpt>
      <trkpt lat="48.66898" lon="1.89645">
        <ele>170.33</ele>
        <time>2013-10-06T12:59:23.975Z</time>
      </trkpt>
      <trkpt lat="48.66898" lon="1.89645">
        <ele>170.361</ele>
        <time>2013-10-06T12:59:24.075Z</time>
      </trkpt>
      <trkpt lat="48.66893" lon="1.89623">
        <ele>170.387</ele>
        <time>2013-10-06T13:00:02.626Z</time>
      </trkpt>
      <trkpt lat="48.66888" lon="1.8961">
        <ele>170.56</ele>
        <time>2013-10-06T13:00:10.286Z</time>
      </trkpt>
      <trkpt lat="48.66884" lon="1.89596">
        <ele>171.038</ele>
        <time>2013-10-06T13:00:19.145Z</time>
      </trkpt>
      <trkpt lat="48.6688" lon="1.89583">
        <ele>171.425</ele>
        <time>2013-10-06T13:00:28.925Z</time>
      </trkpt>
      <trkpt lat="48.66876" lon="1.89569">
        <ele>171.366</ele>
        <time>2013-10-06T13:00:40.328Z</time>
      </trkpt>
      <trkpt lat="48.66872" lon="1.89557">
        <ele>171.087</ele>
        <time>2013-10-06T13:00:48.576Z</time>
      </trkpt>
      <trkpt lat="48.66869" lon="1.89544">
        <ele>170.939</ele>
        <time>2013-10-06T13:00:56.527Z</time>
      </trkpt>
      <trkpt lat="48.66865" lon="1.89532">
        <ele>171.146</ele>
        <time>2013-10-06T13:01:04.821Z</time>
      </trkpt>
      <trkpt lat="48.66861" lon="1.89518">
        <ele>171.667</ele>
        <time>2013-10-06T13:01:13.280Z</time>
      </trkpt>
      <trkpt lat="48.66857" lon="1.89505">
        <ele>172.156</ele>
        <time>2013-10-06T13:01:22.090Z</time>
      </trkpt>
      <trkpt lat="48.66854" lon="1.89492">
        <ele>172.183</ele>
        <time>2013-10-06T13:01:29.999Z</time>
      </trkpt>
      <trkpt lat="48.66848" lon="1.89479">
        <ele>171.659</ele>
        <time>2013-10-06T13:01:38.310Z</time>
      </trkpt>
      <trkpt lat="48.66845" lon="1.89465">
        <ele>171.004</ele>
        <time>2013-10-06T13:01:46.176Z</time>
      </trkpt>
      <trkpt lat="48.66843" lon="1.89451">
        <ele>170.434</ele>
        <time>2013-10-06T13:01:53.913Z</time>
      </trkpt>
      <trkpt lat="48.66838" lon="1.8944">
        <ele>169.867</ele>
        <time>2013-10-06T13:02:01.565Z</time>
      </trkpt>
      <trkpt lat="48.66836" lon="1.89425">
        <ele>169.494</ele>
        <time>2013-10-06T13:02:10.145Z</time>
      </trkpt>
      <trkpt lat="48.66832" lon="1.89411">
        <ele>169.506</ele>
        <time>2013-10-06T13:02:18.448Z</time>
      </trkpt>
      <trkpt lat="48.66829" lon="1.89397">
        <ele>170</ele>
        <time>2013-10-06T13:02:26.723Z</time>
      </trkpt>
      <trkpt lat="48.66824" lon="1.89385">
        <ele>171.119</ele>
        <time>2013-10-06T13:02:34.279Z</time>
      </trkpt>
      <trkpt lat="48.66822" lon="1.8937">
        <ele>172.512</ele>
        <time>2013-10-06T13:02:43.172Z</time>
      </trkpt>
      <trkpt lat="48.66819" lon="1.89357">
        <ele>173.502</ele>
        <time>2013-10-06T13:02:52.042Z</time>
      </trkpt>
      <trkpt lat="48.66815" lon="1.89344">
        <ele>173.437</ele>
        <time>2013-10-06T13:03:00.453Z</time>
      </trkpt>
      <trkpt lat="48.66811" lon="1.89331">
        <ele>172.331</ele>
        <time>2013-10-06T13:03:08.933Z</time>
      </trkpt>
      <trkpt lat="48.66807" lon="1.89318">
        <ele>171.191</ele>
        <time>2013-10-06T13:03:16.418Z</time>
      </trkpt>
      <trkpt lat="48.66805" lon="1.89305">
        <ele>170.819</ele>
        <time>2013-10-06T13:03:24.644Z</time>
      </trkpt>
      <trkpt lat="48.66803" lon="1.89291">
        <ele>170.736</ele>
        <time>2013-10-06T13:03:33.617Z</time>
      </trkpt>
      <trkpt lat="48.66799" lon="1.89278">
        <ele>170.286</ele>
        <time>2013-10-06T13:03:42.541Z</time>
      </trkpt>
      <trkpt lat="48.66789" lon="1.89278">
        <ele>169.597</ele>
        <time>2013-10-06T13:03:50.988Z</time>
      </trkpt>
      <trkpt lat="48.66789" lon="1.89278">
        <ele>168.944</ele>
        <time>2013-10-06T13:04:01.007Z</time>
      </trkpt>
      <trkpt lat="48.66789" lon="1.89278">
        <ele>168.905</ele>
        <time>2013-10-06T13:04:01.107Z</time>
      </trkpt>
      <trkpt lat="48.66797" lon="1.8927">
        <ele>168.83</ele>
        <time>2013-10-06T13:04:56.558Z</time>
      </trkpt>
      <trkpt lat="48.66794" lon="1.89256">
        <ele>168.802</ele>
        <time>2013-10-06T13:05:04.679Z</time>
      </trkpt>
      <trkpt lat="48.66792" lon="1.89243">
        <ele>168.852</ele>
        <time>2013-10-06T13:05:10.691Z</time>
      </trkpt>
      <trkpt lat="48.66788" lon="1.89229">
        <ele>168.816</ele>
        <time>2013-10-06T13:05:17.190Z</time>
      </trkpt>
      <trkpt lat="48.66785" lon="1.89215">
        <ele>168.276</ele>
        <time>2013-10-06T13:05:24.932Z</time>
      </trkpt>
      <trkpt lat="48.66783" lon="1.89201">
        <ele>168.056</ele>
        <time>2013-10-06T13:05:33.306Z</time>
      </trkpt>
      <trkpt lat="48.6678" lon="1.89187">
        <ele>168.674</ele>
        <time>2013-10-06T13:05:40.713Z</time>
      </trkpt>
      <trkpt lat="48.66777" lon="1.89174">
        <ele>169.627</ele>
        <time>2013-10-06T13:05:47.142Z</time>
      </trkpt>
      <trkpt lat="48.66774" lon="1.8916">
        <ele>169.444</ele>
        <time>2013-10-06T13:05:54.016Z</time>
      </trkpt>
      <trkpt lat="48.66771" lon="1.89146">
        <ele>169.333</ele>
        <time>2013-10-06T13:06:01.761Z</time>
      </trkpt>
      <trkpt lat="48.66769" lon="1.89131">
        <ele>169.403</ele>
        <time>2013-10-06T13:06:09.383Z</time>
      </trkpt>
      <trkpt lat="48.66765" lon="1.89118">
        <ele>169.578</ele>
        <time>2013-10-06T13:06:16.432Z</time>
      </trkpt>
      <trkpt lat="48.66762" lon="1.89104">
        <ele>169.738</ele>
        <time>2013-10-06T13:06:24.107Z</time>
      </trkpt>
      <trkpt lat="48.66759" lon="1.89088">
        <ele>169.264</ele>
        <time>2013-10-06T13:06:32.274Z</time>
      </trkpt>
      <trkpt lat="48.66756" lon="1.89075">
        <ele>167.771</ele>
        <time>2013-10-06T13:06:39.821Z</time>
      </trkpt>
      <trkpt lat="48.66751" lon="1.89062">
        <ele>165.889</ele>
        <time>2013-10-06T13:06:47.806Z</time>
      </trkpt>
      <trkpt lat="48.6675" lon="1.89048">
        <ele>164.452</ele>
        <time>2013-10-06T13:06:55.511Z</time>
      </trkpt>
      <trkpt lat="48.66747" lon="1.89034">
        <ele>163.954</ele>
        <time>2013-10-06T13:07:02.779Z</time>
      </trkpt>
      <trkpt lat="48.66746" lon="1.89019">
        <ele>164.444</ele>
        <time>2013-10-06T13:07:10.083Z</time>
      </trkpt>
      <trkpt lat="48.66743" lon="1.89006">
        <ele>165.264</ele>
        <time>2013-10-06T13:07:16.959Z</time>
      </trkpt>
      <trkpt lat="48.66742" lon="1.8899">
        <ele>165.884</ele>
        <time>2013-10-06T13:07:24.738Z</time>
      </trkpt>
      <trkpt lat="48.6674" lon="1.88976">
        <ele>166.23</ele>
        <time>2013-10-06T13:07:31.667Z</time>
      </trkpt>
      <trkpt lat="48.66738" lon="1.88962">
        <ele>166.399</ele>
        <time>2013-10-06T13:07:38.239Z</time>
      </trkpt>
      <trkpt lat="48.66737" lon="1.88947">
        <ele>166.648</ele>
        <time>2013-10-06T13:07:44.608Z</time>
      </trkpt>
      <trkpt lat="48.66734" lon="1.88932">
        <ele>167.055</ele>
        <time>2013-10-06T13:07:52.537Z</time>
      </trkpt>
      <trkpt lat="48.66728" lon="1.88922">
        <ele>167.594</ele>
        <time>2013-10-06T13:08:01.404Z</time>
      </trkpt>
      <trkpt lat="48.6672" lon="1.88931">
        <ele>167.972</ele>
        <time>2013-10-06T13:08:13.890Z</time>
      </trkpt>
      <trkpt lat="48.66712" lon="1.88938">
        <ele>167.8</ele>
        <time>2013-10-06T13:08:23.876Z</time>
      </trkpt>
      <trkpt lat="48.66703" lon="1.88946">
        <ele>167.298</ele>
        <time>2013-10-06T13:08:33.678Z</time>
      </trkpt>
      <trkpt lat="48.66694" lon="1.88951">
        <ele>166.929</ele>
        <time>2013-10-06T13:08:45.631Z</time>
      </trkpt>
      <trkpt lat="48.66686" lon="1.88958">
        <ele>166.721</ele>
        <time>2013-10-06T13:08:59.981Z</time>
      </trkpt>
      <trkpt lat="48.66686" lon="1.88958">
        <ele>166.612</ele>
        <time>2013-10-06T13:08:59.981Z</time>
      </trkpt>
      <trkpt lat="48.66686" lon="1.88958">
        <ele>166.54</ele>
        <time>2013-10-06T13:09:00.081Z</time>
      </trkpt>
      <trkpt lat="48.66677" lon="1.88965">
        <ele>166.424</ele>
        <time>2013-10-06T13:09:13.059Z</time>
      </trkpt>
      <trkpt lat="48.6667" lon="1.88972">
        <ele>166.519</ele>
        <time>2013-10-06T13:09:20.746Z</time>
      </trkpt>
      <trkpt lat="48.66661" lon="1.88981">
        <ele>167.28</ele>
        <time>2013-10-06T13:09:29.427Z</time>
      </trkpt>
      <trkpt lat="48.66653" lon="1.88989">
        <ele>168.808</ele>
        <time>2013-10-06T13:09:37.106Z</time>
      </trkpt>
      <trkpt lat="48.66645" lon="1.88994">
        <ele>170.123</ele>
        <time>2013-10-06T13:09:44.096Z</time>
      </trkpt>
      <trkpt lat="48.66645" lon="1.88994">
        <ele>170.506</ele>
        <time>2013-10-06T13:09:59.001Z</time>
      </trkpt>
      <trkpt lat="48.66645" lon="1.88994">
        <ele>170.315</ele>
        <time>2013-10-06T13:09:59.101Z</time>
      </trkpt>
      <trkpt lat="48.66635" lon="1.88998">
        <ele>170.054</ele>
        <time>2013-10-06T13:10:14.879Z</time>
      </trkpt>
      <trkpt lat="48.66626" lon="1.89003">
        <ele>169.815</ele>
        <time>2013-10-06T13:10:21.440Z</time>
      </trkpt>
      <trkpt lat="48.66618" lon="1.89009">
        <ele>169.266</ele>
        <time>2013-10-06T13:10:27.626Z</time>
      </trkpt>
      <trkpt lat="48.66609" lon="1.89016">
        <ele>168.419</ele>
        <time>2013-10-06T13:10:34.192Z</time>
      </trkpt>
      <trkpt lat="48.66601" lon="1.89022">
        <ele>167.745</ele>
        <time>2013-10-06T13:10:40.986Z</time>
      </trkpt>
      <trkpt lat="48.66593" lon="1.8903">
        <ele>167.29</ele>
        <time>2013-10-06T13:10:48.628Z</time>
      </trkpt>
      <trkpt lat="48.66584" lon="1.89035">
        <ele>166.775</ele>
        <time>2013-10-06T13:10:56.143Z</time>
      </trkpt>
      <trkpt lat="48.66575" lon="1.89042">
        <ele>166.286</ele>
        <time>2013-10-06T13:11:02.960Z</time>
      </trkpt>
      <trkpt lat="48.66567" lon="1.89048">
        <ele>166.005</ele>
        <time>2013-10-06T13:11:09.648Z</time>
      </trkpt>
      <trkpt lat="48.66558" lon="1.89057">
        <ele>166.096</ele>
        <time>2013-10-06T13:11:17.141Z</time>
      </trkpt>
      <trkpt lat="48.6655" lon="1.89066">
        <ele>166.548</ele>
        <time>2013-10-06T13:11:24.888Z</time>
      </trkpt>
      <trkpt lat="48.66542" lon="1.89072">
        <ele>167.032</ele>
        <time>2013-10-06T13:11:31.873Z</time>
      </trkpt>
      <trkpt lat="48.66533" lon="1.89081">
        <ele>167.315</ele>
        <time>2013-10-06T13:11:40.050Z</time>
      </trkpt>
      <trkpt lat="48.66524" lon="1.89086">
        <ele>167.625</ele>
        <time>2013-10-06T13:11:47.720Z</time>
      </trkpt>
      <trkpt lat="48.66515" lon="1.89093">
        <ele>167.953</ele>
        <time>2013-10-06T13:11:56.178Z</time>
      </trkpt>
      <trkpt lat="48.66506" lon="1.89099">
        <ele>167.922</ele>
        <time>2013-10-06T13:12:05.004Z</time>
      </trkpt>
      <trkpt lat="48.66506" lon="1.89099">
        <ele>167.549</ele>
        <time>2013-10-06T13:12:14.009Z</time>
      </trkpt>
      <trkpt lat="48.66506" lon="1.89099">
        <ele>167.257</ele>
        <time>2013-10-06T13:12:31.011Z</time>
      </trkpt>
      <trkpt lat="48.66506" lon="1.89099">
        <ele>167.197</ele>
        <time>2013-10-06T13:12:31.111Z</time>
      </trkpt>
      <trkpt lat="48.66487" lon="1.89096">
        <ele>167.265</ele>
        <time>2013-10-06T13:12:46.783Z</time>
      </trkpt>
      <trkpt lat="48.66481" lon="1.89085">
        <ele>167.825</ele>
        <time>2013-10-06T13:12:52.000Z</time>
      </trkpt>
      <trkpt lat="48.66481" lon="1.89085">
        <ele>169.137</ele>
        <time>2013-10-06T13:13:09.001Z</time>
      </trkpt>
      <trkpt lat="48.66481" lon="1.89085">
        <ele>170.184</ele>
        <time>2013-10-06T13:13:09.101Z</time>
      </trkpt>
      <trkpt lat="48.66476" lon="1.89068">
        <ele>170.093</ele>
        <time>2013-10-06T13:13:22.491Z</time>
      </trkpt>
      <trkpt lat="48.66471" lon="1.89056">
        <ele>169.7</ele>
        <time>2013-10-06T13:13:28.357Z</time>
      </trkpt>
      <trkpt lat="48.66469" lon="1.89042">
        <ele>170.076</ele>
        <time>2013-10-06T13:13:35.774Z</time>
      </trkpt>
      <trkpt lat="48.66465" lon="1.8903">
        <ele>171.152</ele>
        <time>2013-10-06T13:13:42.281Z</time>
      </trkpt>
      <trkpt lat="48.66461" lon="1.89016">
        <ele>172.206</ele>
        <time>2013-10-06T13:13:48.873Z</time>
      </trkpt>
      <trkpt lat="48.66457" lon="1.89003">
        <ele>172.492</ele>
        <time>2013-10-06T13:13:55.010Z</time>
      </trkpt>
      <trkpt lat="48.66457" lon="1.89003">
        <ele>172.058</ele>
        <time>2013-10-06T13:14:00.022Z</time>
      </trkpt>
      <trkpt lat="48.66457" lon="1.89003">
        <ele>171.822</ele>
        <time>2013-10-06T13:14:00.122Z</time>
      </trkpt>
      <trkpt lat="48.66448" lon="1.88989">
        <ele>171.796</ele>
        <time>2013-10-06T13:14:22.137Z</time>
      </trkpt>
      <trkpt lat="48.66441" lon="1.8898">
        <ele>171.561</ele>
        <time>2013-10-06T13:14:33.288Z</time>
      </trkpt>
      <trkpt lat="48.66433" lon="1.88973">
        <ele>170.749</ele>
        <time>2013-10-06T13:14:45.009Z</time>
      </trkpt>
      <trkpt lat="48.66425" lon="1.88963">
        <ele>169.654</ele>
        <time>2013-10-06T13:14:56.202Z</time>
      </trkpt>
      <trkpt lat="48.66417" lon="1.88954">
        <ele>168.991</ele>
        <time>2013-10-06T13:15:05.918Z</time>
      </trkpt>
      <trkpt lat="48.66408" lon="1.88944">
        <ele>168.964</ele>
        <time>2013-10-06T13:15:15.479Z</time>
      </trkpt>
      <trkpt lat="48.664" lon="1.88937">
        <ele>169.157</ele>
        <time>2013-10-06T13:15:23.126Z</time>
      </trkpt>
      <trkpt lat="48.66392" lon="1.88929">
        <ele>169.194</ele>
        <time>2013-10-06T13:15:34.966Z</time>
      </trkpt>
      <trkpt lat="48.66383" lon="1.88922">
        <ele>169.096</ele>
        <time>2013-10-06T13:15:46.477Z</time>
      </trkpt>
      <trkpt lat="48.66375" lon="1.88915">
        <ele>168.995</ele>
        <time>2013-10-06T13:15:53.551Z</time>
      </trkpt>
      <trkpt lat="48.66366" lon="1.88908">
        <ele>168.816</ele>
        <time>2013-10-06T13:16:00.270Z</time>
      </trkpt>
      <trkpt lat="48.66358" lon="1.889">
        <ele>168.485</ele>
        <time>2013-10-06T13:16:08.551Z</time>
      </trkpt>
      <trkpt lat="48.66349" lon="1.88893">
        <ele>169.332</ele>
        <time>2013-10-06T13:16:17.030Z</time>
      </trkpt>
      <trkpt lat="48.66341" lon="1.88885">
        <ele>172.308</ele>
        <time>2013-10-06T13:16:24.452Z</time>
      </trkpt>
      <trkpt lat="48.66332" lon="1.88877">
        <ele>175.624</ele>
        <time>2013-10-06T13:16:33.743Z</time>
      </trkpt>
      <trkpt lat="48.66323" lon="1.88869">
        <ele>177.352</ele>
        <time>2013-10-06T13:16:41.860Z</time>
      </trkpt>
      <trkpt lat="48.66317" lon="1.88858">
        <ele>177.401</ele>
        <time>2013-10-06T13:16:48.875Z</time>
      </trkpt>
      <trkpt lat="48.66309" lon="1.88851">
        <ele>176.215</ele>
        <time>2013-10-06T13:16:55.652Z</time>
      </trkpt>
      <trkpt lat="48.663" lon="1.88846">
        <ele>174.69</ele>
        <time>2013-10-06T13:17:04.105Z</time>
      </trkpt>
      <trkpt lat="48.66291" lon="1.88836">
        <ele>173.702</ele>
        <time>2013-10-06T13:17:13.773Z</time>
      </trkpt>
      <trkpt lat="48.66283" lon="1.88828">
        <ele>173.251</ele>
        <time>2013-10-06T13:17:21.125Z</time>
      </trkpt>
      <trkpt lat="48.66275" lon="1.88822">
        <ele>172.945</ele>
        <time>2013-10-06T13:17:28.729Z</time>
      </trkpt>
      <trkpt lat="48.66266" lon="1.88815">
        <ele>172.711</ele>
        <time>2013-10-06T13:17:37.853Z</time>
      </trkpt>
      <trkpt lat="48.66258" lon="1.8881">
        <ele>172.382</ele>
        <time>2013-10-06T13:17:47.898Z</time>
      </trkpt>
      <trkpt lat="48.66248" lon="1.88802">
        <ele>171.498</ele>
        <time>2013-10-06T13:17:59.495Z</time>
      </trkpt>
      <trkpt lat="48.6624" lon="1.88796">
        <ele>170.21</ele>
        <time>2013-10-06T13:18:08.435Z</time>
      </trkpt>
      <trkpt lat="48.66232" lon="1.88789">
        <ele>169.234</ele>
        <time>2013-10-06T13:18:18.106Z</time>
      </trkpt>
      <trkpt lat="48.66223" lon="1.88781">
        <ele>169.202</ele>
        <time>2013-10-06T13:18:28.026Z</time>
      </trkpt>
      <trkpt lat="48.66214" lon="1.88773">
        <ele>171.379</ele>
        <time>2013-10-06T13:18:35.257Z</time>
      </trkpt>
      <trkpt lat="48.66206" lon="1.88764">
        <ele>172.753</ele>
        <time>2013-10-06T13:18:42.279Z</time>
      </trkpt>
      <trkpt lat="48.66198" lon="1.88759">
        <ele>172.847</ele>
        <time>2013-10-06T13:18:48.806Z</time>
      </trkpt>
      <trkpt lat="48.66188" lon="1.88752">
        <ele>172.228</ele>
        <time>2013-10-06T13:18:56.411Z</time>
      </trkpt>
      <trkpt lat="48.6618" lon="1.88744">
        <ele>170.387</ele>
        <time>2013-10-06T13:19:03.974Z</time>
      </trkpt>
      <trkpt lat="48.66173" lon="1.88736">
        <ele>167.563</ele>
        <time>2013-10-06T13:19:11.996Z</time>
      </trkpt>
      <trkpt lat="48.66165" lon="1.88728">
        <ele>165.073</ele>
        <time>2013-10-06T13:19:18.820Z</time>
      </trkpt>
      <trkpt lat="48.66157" lon="1.8872">
        <ele>164.146</ele>
        <time>2013-10-06T13:19:26.070Z</time>
      </trkpt>
      <trkpt lat="48.66148" lon="1.88715">
        <ele>164.494</ele>
        <time>2013-10-06T13:19:33.366Z</time>
      </trkpt>
      <trkpt lat="48.66139" lon="1.88708">
        <ele>166.252</ele>
        <time>2013-10-06T13:19:41.839Z</time>
      </trkpt>
      <trkpt lat="48.6613" lon="1.88705">
        <ele>169.848</ele>
        <time>2013-10-06T13:19:48.627Z</time>
      </trkpt>
      <trkpt lat="48.66122" lon="1.887">
        <ele>173.814</ele>
        <time>2013-10-06T13:19:56.054Z</time>
      </trkpt>
      <trkpt lat="48.66116" lon="1.88688">
        <ele>176.266</ele>
        <time>2013-10-06T13:20:05.360Z</time>
      </trkpt>
      <trkpt lat="48.66109" lon="1.8868">
        <ele>177.66</ele>
        <time>2013-10-06T13:20:15.111Z</time>
      </trkpt>
      <trkpt lat="48.661" lon="1.88674">
        <ele>179.275</ele>
        <time>2013-10-06T13:20:23.442Z</time>
      </trkpt>
      <trkpt lat="48.66092" lon="1.88666">
        <ele>181.133</ele>
        <time>2013-10-06T13:20:31.505Z</time>
      </trkpt>
      <trkpt lat="48.66084" lon="1.88657">
        <ele>179.095</ele>
        <time>2013-10-06T13:20:39.580Z</time>
      </trkpt>
      <trkpt lat="48.66076" lon="1.88651">
        <ele>177.154</ele>
        <time>2013-10-06T13:20:47.553Z</time>
      </trkpt>
      <trkpt lat="48.66068" lon="1.88642">
        <ele>174.783</ele>
        <time>2013-10-06T13:20:55.803Z</time>
      </trkpt>
      <trkpt lat="48.66061" lon="1.88633">
        <ele>172.853</ele>
        <time>2013-10-06T13:21:03.831Z</time>
      </trkpt>
      <trkpt lat="48.66053" lon="1.88626">
        <ele>171.908</ele>
        <time>2013-10-06T13:21:12.000Z</time>
      </trkpt>
      <trkpt lat="48.66044" lon="1.88619">
        <ele>171.641</ele>
        <time>2013-10-06T13:21:21.443Z</time>
      </trkpt>
      <trkpt lat="48.66036" lon="1.88612">
        <ele>171.519</ele>
        <time>2013-10-06T13:21:30.162Z</time>
      </trkpt>
      <trkpt lat="48.66028" lon="1.88603">
        <ele>171.406</ele>
        <time>2013-10-06T13:21:39.368Z</time>
      </trkpt>
      <trkpt lat="48.66021" lon="1.88594">
        <ele>171.567</ele>
        <time>2013-10-06T13:21:50.485Z</time>
      </trkpt>
      <trkpt lat="48.66012" lon="1.88589">
        <ele>172.255</ele>
        <time>2013-10-06T13:21:59.734Z</time>
      </trkpt>
      <trkpt lat="48.66003" lon="1.88583">
        <ele>173.294</ele>
        <time>2013-10-06T13:22:09.566Z</time>
      </trkpt>
      <trkpt lat="48.65995" lon="1.88574">
        <ele>174.195</ele>
        <time>2013-10-06T13:22:18.111Z</time>
      </trkpt>
      <trkpt lat="48.65986" lon="1.88568">
        <ele>174.68</ele>
        <time>2013-10-06T13:22:26.105Z</time>
      </trkpt>
      <trkpt lat="48.65979" lon="1.8856">
        <ele>174.719</ele>
        <time>2013-10-06T13:22:33.389Z</time>
      </trkpt>
      <trkpt lat="48.65972" lon="1.8855">
        <ele>173.941</ele>
        <time>2013-10-06T13:22:41.030Z</time>
      </trkpt>
      <trkpt lat="48.65963" lon="1.88545">
        <ele>171.799</ele>
        <time>2013-10-06T13:22:48.093Z</time>
      </trkpt>
      <trkpt lat="48.65954" lon="1.88538">
        <ele>168.976</ele>
        <time>2013-10-06T13:22:55.569Z</time>
      </trkpt>
      <trkpt lat="48.65946" lon="1.88531">
        <ele>167.046</ele>
        <time>2013-10-06T13:23:03.355Z</time>
      </trkpt>
      <trkpt lat="48.65938" lon="1.88522">
        <ele>167.219</ele>
        <time>2013-10-06T13:23:12.999Z</time>
      </trkpt>
      <trkpt lat="48.6593" lon="1.88517">
        <ele>169.249</ele>
        <time>2013-10-06T13:23:24.996Z</time>
      </trkpt>
      <trkpt lat="48.6593" lon="1.88517">
        <ele>170.977</ele>
        <time>2013-10-06T13:23:25.998Z</time>
      </trkpt>
      <trkpt lat="48.6593" lon="1.88517">
        <ele>170.885</ele>
        <time>2013-10-06T13:23:26.098Z</time>
      </trkpt>
      <trkpt lat="48.65923" lon="1.88508">
        <ele>170.017</ele>
        <time>2013-10-06T13:23:42.952Z</time>
      </trkpt>
      <trkpt lat="48.65914" lon="1.88501">
        <ele>170.25</ele>
        <time>2013-10-06T13:23:51.868Z</time>
      </trkpt>
      <trkpt lat="48.65905" lon="1.88495">
        <ele>170.036</ele>
        <time>2013-10-06T13:23:59.324Z</time>
      </trkpt>
      <trkpt lat="48.65896" lon="1.8849">
        <ele>169.533</ele>
        <time>2013-10-06T13:24:06.050Z</time>
      </trkpt>
      <trkpt lat="48.65888" lon="1.88483">
        <ele>169.405</ele>
        <time>2013-10-06T13:24:12.829Z</time>
      </trkpt>
      <trkpt lat="48.65883" lon="1.88471">
        <ele>169.712</ele>
        <time>2013-10-06T13:24:19.999Z</time>
      </trkpt>
      <trkpt lat="48.65883" lon="1.88471">
        <ele>170.023</ele>
        <time>2013-10-06T13:24:33.002Z</time>
      </trkpt>
      <trkpt lat="48.65883" lon="1.88471">
        <ele>170.113</ele>
        <time>2013-10-06T13:24:39.302Z</time>
      </trkpt>
      <trkpt lat="48.65879" lon="1.88447">
        <ele>170.019</ele>
        <time>2013-10-06T13:25:38.003Z</time>
      </trkpt>
      <trkpt lat="48.65879" lon="1.88447">
        <ele>169.89</ele>
        <time>2013-10-06T13:25:50.006Z</time>
      </trkpt>
      <trkpt lat="48.65879" lon="1.88447">
        <ele>169.819</ele>
        <time>2013-10-06T13:30:09.170Z</time>
      </trkpt>
      <trkpt lat="48.65888" lon="1.8843">
        <ele>169.802</ele>
        <time>2013-10-06T13:31:46.538Z</time>
      </trkpt>
      <trkpt lat="48.65891" lon="1.88418">
        <ele>169.863</ele>
        <time>2013-10-06T13:31:53.625Z</time>
      </trkpt>
      <trkpt lat="48.65895" lon="1.88404">
        <ele>170.28</ele>
        <time>2013-10-06T13:32:00.683Z</time>
      </trkpt>
      <trkpt lat="48.65898" lon="1.8839">
        <ele>171.122</ele>
        <time>2013-10-06T13:32:08.441Z</time>
      </trkpt>
      <trkpt lat="48.65902" lon="1.88376">
        <ele>171.909</ele>
        <time>2013-10-06T13:32:16.293Z</time>
      </trkpt>
      <trkpt lat="48.65906" lon="1.88362">
        <ele>171.754</ele>
        <time>2013-10-06T13:32:23.431Z</time>
      </trkpt>
      <trkpt lat="48.6591" lon="1.88349">
        <ele>170.396</ele>
        <time>2013-10-06T13:32:30.652Z</time>
      </trkpt>
      <trkpt lat="48.6591" lon="1.88334">
        <ele>168.85</ele>
        <time>2013-10-06T13:32:38.241Z</time>
      </trkpt>
      <trkpt lat="48.65912" lon="1.8832">
        <ele>168.447</ele>
        <time>2013-10-06T13:32:45.506Z</time>
      </trkpt>
      <trkpt lat="48.65913" lon="1.88307">
        <ele>169.31</ele>
        <time>2013-10-06T13:32:53.001Z</time>
      </trkpt>
      <trkpt lat="48.65913" lon="1.88307">
        <ele>170.529</ele>
        <time>2013-10-06T13:33:06.005Z</time>
      </trkpt>
      <trkpt lat="48.65913" lon="1.88307">
        <ele>171.144</ele>
        <time>2013-10-06T13:33:06.105Z</time>
      </trkpt>
      <trkpt lat="48.65914" lon="1.88286">
        <ele>170.849</ele>
        <time>2013-10-06T13:33:24.992Z</time>
      </trkpt>
      <trkpt lat="48.65917" lon="1.88272">
        <ele>170.178</ele>
        <time>2013-10-06T13:33:33.290Z</time>
      </trkpt>
      <trkpt lat="48.65917" lon="1.88257">
        <ele>169.589</ele>
        <time>2013-10-06T13:33:41.874Z</time>
      </trkpt>
      <trkpt lat="48.65918" lon="1.88241">
        <ele>169.131</ele>
        <time>2013-10-06T13:33:49.441Z</time>
      </trkpt>
      <trkpt lat="48.65919" lon="1.88226">
        <ele>169.016</ele>
        <time>2013-10-06T13:33:56.464Z</time>
      </trkpt>
      <trkpt lat="48.65923" lon="1.8821">
        <ele>169.261</ele>
        <time>2013-10-06T13:34:04.768Z</time>
      </trkpt>
      <trkpt lat="48.65925" lon="1.88196">
        <ele>169.357</ele>
        <time>2013-10-06T13:34:12.688Z</time>
      </trkpt>
      <trkpt lat="48.65927" lon="1.88182">
        <ele>169.132</ele>
        <time>2013-10-06T13:34:20.023Z</time>
      </trkpt>
      <trkpt lat="48.65931" lon="1.8817">
        <ele>168.766</ele>
        <time>2013-10-06T13:34:27.391Z</time>
      </trkpt>
      <trkpt lat="48.65934" lon="1.88156">
        <ele>168.55</ele>
        <time>2013-10-06T13:34:35.502Z</time>
      </trkpt>
      <trkpt lat="48.65939" lon="1.88144">
        <ele>168.515</ele>
        <time>2013-10-06T13:34:42.814Z</time>
      </trkpt>
      <trkpt lat="48.65943" lon="1.88131">
        <ele>168.716</ele>
        <time>2013-10-06T13:34:50.171Z</time>
      </trkpt>
      <trkpt lat="48.65946" lon="1.88117">
        <ele>169.627</ele>
        <time>2013-10-06T13:35:00.100Z</time>
      </trkpt>
      <trkpt lat="48.65951" lon="1.88105">
        <ele>171.217</ele>
        <time>2013-10-06T13:35:10.021Z</time>
      </trkpt>
      <trkpt lat="48.65952" lon="1.88091">
        <ele>171.93</ele>
        <time>2013-10-06T13:35:17.093Z</time>
      </trkpt>
      <trkpt lat="48.65954" lon="1.88076">
        <ele>170.693</ele>
        <time>2013-10-06T13:35:23.711Z</time>
      </trkpt>
      <trkpt lat="48.65958" lon="1.88063">
        <ele>168.518</ele>
        <time>2013-10-06T13:35:30.686Z</time>
      </trkpt>
      <trkpt lat="48.65961" lon="1.88049">
        <ele>166.893</ele>
        <time>2013-10-06T13:35:38.538Z</time>
      </trkpt>
      <trkpt lat="48.65969" lon="1.8804">
        <ele>166.378</ele>
        <time>2013-10-06T13:35:47.163Z</time>
      </trkpt>
      <trkpt lat="48.65979" lon="1.88035">
        <ele>166.825</ele>
        <time>2013-10-06T13:35:55.449Z</time>
      </trkpt>
      <trkpt lat="48.65988" lon="1.88035">
        <ele>167.575</ele>
        <time>2013-10-06T13:36:04.161Z</time>
      </trkpt>
      <trkpt lat="48.65997" lon="1.8804">
        <ele>167.339</ele>
        <time>2013-10-06T13:36:12.688Z</time>
      </trkpt>
      <trkpt lat="48.66006" lon="1.88044">
        <ele>165.518</ele>
        <time>2013-10-06T13:36:21.633Z</time>
      </trkpt>
      <trkpt lat="48.66015" lon="1.88046">
        <ele>163.415</ele>
        <time>2013-10-06T13:36:29.095Z</time>
      </trkpt>
      <trkpt lat="48.66026" lon="1.88048">
        <ele>162.88</ele>
        <time>2013-10-06T13:36:38.048Z</time>
      </trkpt>
      <trkpt lat="48.66036" lon="1.8805">
        <ele>164.237</ele>
        <time>2013-10-06T13:36:48.022Z</time>
      </trkpt>
      <trkpt lat="48.66045" lon="1.88048">
        <ele>166.298</ele>
        <time>2013-10-06T13:36:57.989Z</time>
      </trkpt>
      <trkpt lat="48.66054" lon="1.88041">
        <ele>167.637</ele>
        <time>2013-10-06T13:37:06.644Z</time>
      </trkpt>
      <trkpt lat="48.66063" lon="1.88035">
        <ele>167.942</ele>
        <time>2013-10-06T13:37:12.817Z</time>
      </trkpt>
      <trkpt lat="48.6607" lon="1.88028">
        <ele>168.061</ele>
        <time>2013-10-06T13:37:19.042Z</time>
      </trkpt>
      <trkpt lat="48.66079" lon="1.88019">
        <ele>168.679</ele>
        <time>2013-10-06T13:37:27.265Z</time>
      </trkpt>
      <trkpt lat="48.66088" lon="1.88012">
        <ele>169.368</ele>
        <time>2013-10-06T13:37:34.695Z</time>
      </trkpt>
      <trkpt lat="48.66098" lon="1.88007">
        <ele>169.459</ele>
        <time>2013-10-06T13:37:42.170Z</time>
      </trkpt>
      <trkpt lat="48.66106" lon="1.88001">
        <ele>169.047</ele>
        <time>2013-10-06T13:37:49.767Z</time>
      </trkpt>
      <trkpt lat="48.66115" lon="1.87994">
        <ele>168.645</ele>
        <time>2013-10-06T13:37:57.991Z</time>
      </trkpt>
      <trkpt lat="48.66124" lon="1.87992">
        <ele>169.125</ele>
        <time>2013-10-06T13:38:05.865Z</time>
      </trkpt>
      <trkpt lat="48.66135" lon="1.87993">
        <ele>170.713</ele>
        <time>2013-10-06T13:38:14.994Z</time>
      </trkpt>
      <trkpt lat="48.66135" lon="1.87993">
        <ele>172.237</ele>
        <time>2013-10-06T13:38:23.009Z</time>
      </trkpt>
      <trkpt lat="48.66135" lon="1.87993">
        <ele>172.716</ele>
        <time>2013-10-06T13:38:23.109Z</time>
      </trkpt>
      <trkpt lat="48.6615" lon="1.87994">
        <ele>172.297</ele>
        <time>2013-10-06T13:38:45.577Z</time>
      </trkpt>
      <trkpt lat="48.66159" lon="1.87988">
        <ele>171.293</ele>
        <time>2013-10-06T13:38:53.966Z</time>
      </trkpt>
      <trkpt lat="48.66165" lon="1.87977">
        <ele>169.608</ele>
        <time>2013-10-06T13:39:01.394Z</time>
      </trkpt>
      <trkpt lat="48.66172" lon="1.87966">
        <ele>167.427</ele>
        <time>2013-10-06T13:39:09.187Z</time>
      </trkpt>
      <trkpt lat="48.66179" lon="1.87955">
        <ele>165.876</ele>
        <time>2013-10-06T13:39:16.371Z</time>
      </trkpt>
      <trkpt lat="48.66185" lon="1.87944">
        <ele>166.067</ele>
        <time>2013-10-06T13:39:24.132Z</time>
      </trkpt>
      <trkpt lat="48.66189" lon="1.87932">
        <ele>167.577</ele>
        <time>2013-10-06T13:39:32.431Z</time>
      </trkpt>
      <trkpt lat="48.66195" lon="1.87921">
        <ele>169.397</ele>
        <time>2013-10-06T13:39:40.952Z</time>
      </trkpt>
      <trkpt lat="48.66201" lon="1.8791">
        <ele>170.958</ele>
        <time>2013-10-06T13:39:49.147Z</time>
      </trkpt>
      <trkpt lat="48.66208" lon="1.87899">
        <ele>171.702</ele>
        <time>2013-10-06T13:39:56.607Z</time>
      </trkpt>
      <trkpt lat="48.66213" lon="1.87888">
        <ele>171.029</ele>
        <time>2013-10-06T13:40:03.824Z</time>
      </trkpt>
      <trkpt lat="48.66219" lon="1.87878">
        <ele>169.162</ele>
        <time>2013-10-06T13:40:11.460Z</time>
      </trkpt>
      <trkpt lat="48.66226" lon="1.87867">
        <ele>166.666</ele>
        <time>2013-10-06T13:40:21.023Z</time>
      </trkpt>
      <trkpt lat="48.66231" lon="1.87855">
        <ele>164.259</ele>
        <time>2013-10-06T13:40:30.301Z</time>
      </trkpt>
      <trkpt lat="48.66236" lon="1.87843">
        <ele>162.991</ele>
        <time>2013-10-06T13:40:37.977Z</time>
      </trkpt>
      <trkpt lat="48.66242" lon="1.87831">
        <ele>163.648</ele>
        <time>2013-10-06T13:40:45.922Z</time>
      </trkpt>
      <trkpt lat="48.66249" lon="1.87821">
        <ele>165.729</ele>
        <time>2013-10-06T13:40:54.393Z</time>
      </trkpt>
      <trkpt lat="48.66254" lon="1.87809">
        <ele>169.05</ele>
        <time>2013-10-06T13:41:02.407Z</time>
      </trkpt>
      <trkpt lat="48.6626" lon="1.87797">
        <ele>173.411</ele>
        <time>2013-10-06T13:41:10.739Z</time>
      </trkpt>
      <trkpt lat="48.66267" lon="1.87786">
        <ele>176.716</ele>
        <time>2013-10-06T13:41:18.552Z</time>
      </trkpt>
      <trkpt lat="48.66271" lon="1.87773">
        <ele>177.347</ele>
        <time>2013-10-06T13:41:25.730Z</time>
      </trkpt>
      <trkpt lat="48.66279" lon="1.87765">
        <ele>175.683</ele>
        <time>2013-10-06T13:41:34.092Z</time>
      </trkpt>
      <trkpt lat="48.66284" lon="1.87752">
        <ele>172.483</ele>
        <time>2013-10-06T13:41:42.194Z</time>
      </trkpt>
      <trkpt lat="48.66287" lon="1.87739">
        <ele>169.286</ele>
        <time>2013-10-06T13:41:50.119Z</time>
      </trkpt>
      <trkpt lat="48.66293" lon="1.87726">
        <ele>167.869</ele>
        <time>2013-10-06T13:41:58.210Z</time>
      </trkpt>
      <trkpt lat="48.66297" lon="1.87714">
        <ele>168.467</ele>
        <time>2013-10-06T13:42:04.712Z</time>
      </trkpt>
      <trkpt lat="48.66303" lon="1.87702">
        <ele>170.399</ele>
        <time>2013-10-06T13:42:11.203Z</time>
      </trkpt>
      <trkpt lat="48.66306" lon="1.87688">
        <ele>172.239</ele>
        <time>2013-10-06T13:42:17.759Z</time>
      </trkpt>
      <trkpt lat="48.66305" lon="1.87673">
        <ele>172.819</ele>
        <time>2013-10-06T13:42:24.834Z</time>
      </trkpt>
      <trkpt lat="48.66303" lon="1.87657">
        <ele>172.554</ele>
        <time>2013-10-06T13:42:32.157Z</time>
      </trkpt>
      <trkpt lat="48.66301" lon="1.87644">
        <ele>172.562</ele>
        <time>2013-10-06T13:42:38.144Z</time>
      </trkpt>
      <trkpt lat="48.66299" lon="1.8763">
        <ele>172.998</ele>
        <time>2013-10-06T13:42:45.149Z</time>
      </trkpt>
      <trkpt lat="48.66296" lon="1.87616">
        <ele>173.301</ele>
        <time>2013-10-06T13:42:52.364Z</time>
      </trkpt>
      <trkpt lat="48.66293" lon="1.87603">
        <ele>172.911</ele>
        <time>2013-10-06T13:42:58.862Z</time>
      </trkpt>
      <trkpt lat="48.66291" lon="1.8759">
        <ele>171.89</ele>
        <time>2013-10-06T13:43:05.202Z</time>
      </trkpt>
      <trkpt lat="48.66289" lon="1.87576">
        <ele>170.601</ele>
        <time>2013-10-06T13:43:12.139Z</time>
      </trkpt>
      <trkpt lat="48.66286" lon="1.87563">
        <ele>169.612</ele>
        <time>2013-10-06T13:43:19.214Z</time>
      </trkpt>
      <trkpt lat="48.66285" lon="1.87548">
        <ele>169.501</ele>
        <time>2013-10-06T13:43:28.137Z</time>
      </trkpt>
      <trkpt lat="48.66289" lon="1.87536">
        <ele>170.15</ele>
        <time>2013-10-06T13:43:37.553Z</time>
      </trkpt>
      <trkpt lat="48.66298" lon="1.87529">
        <ele>170.845</ele>
        <time>2013-10-06T13:43:48.214Z</time>
      </trkpt>
      <trkpt lat="48.66307" lon="1.87524">
        <ele>171.127</ele>
        <time>2013-10-06T13:43:57.953Z</time>
      </trkpt>
      <trkpt lat="48.66316" lon="1.87521">
        <ele>171.11</ele>
        <time>2013-10-06T13:44:07.622Z</time>
      </trkpt>
      <trkpt lat="48.66324" lon="1.87517">
        <ele>170.978</ele>
        <time>2013-10-06T13:44:16.290Z</time>
      </trkpt>
      <trkpt lat="48.66333" lon="1.87513">
        <ele>170.811</ele>
        <time>2013-10-06T13:44:24.379Z</time>
      </trkpt>
      <trkpt lat="48.66342" lon="1.87508">
        <ele>170.43</ele>
        <time>2013-10-06T13:44:32.071Z</time>
      </trkpt>
      <trkpt lat="48.66352" lon="1.87505">
        <ele>169.661</ele>
        <time>2013-10-06T13:44:40.240Z</time>
      </trkpt>
      <trkpt lat="48.6636" lon="1.87499">
        <ele>168.798</ele>
        <time>2013-10-06T13:44:47.826Z</time>
      </trkpt>
      <trkpt lat="48.66369" lon="1.87494">
        <ele>168.283</ele>
        <time>2013-10-06T13:44:56.443Z</time>
      </trkpt>
      <trkpt lat="48.66379" lon="1.87492">
        <ele>168.445</ele>
        <time>2013-10-06T13:45:05.973Z</time>
      </trkpt>
      <trkpt lat="48.66387" lon="1.87486">
        <ele>169.257</ele>
        <time>2013-10-06T13:45:16.995Z</time>
      </trkpt>
      <trkpt lat="48.66387" lon="1.87486">
        <ele>170.086</ele>
        <time>2013-10-06T13:45:21.003Z</time>
      </trkpt>
      <trkpt lat="48.66387" lon="1.87486">
        <ele>170.398</ele>
        <time>2013-10-06T13:46:32.008Z</time>
      </trkpt>
      <trkpt lat="48.66387" lon="1.87486">
        <ele>170.275</ele>
        <time>2013-10-06T13:46:32.108Z</time>
      </trkpt>
      <trkpt lat="48.66397" lon="1.87484">
        <ele>170.035</ele>
        <time>2013-10-06T13:47:24.826Z</time>
      </trkpt>
      <trkpt lat="48.66407" lon="1.87481">
        <ele>169.53</ele>
        <time>2013-10-06T13:47:32.188Z</time>
      </trkpt>
      <trkpt lat="48.66416" lon="1.87475">
        <ele>168.462</ele>
        <time>2013-10-06T13:47:38.993Z</time>
      </trkpt>
      <trkpt lat="48.66416" lon="1.87475">
        <ele>167.279</ele>
        <time>2013-10-06T13:47:47.995Z</time>
      </trkpt>
      <trkpt lat="48.66416" lon="1.87475">
        <ele>166.664</ele>
        <time>2013-10-06T13:47:48.095Z</time>
      </trkpt>
      <trkpt lat="48.66423" lon="1.87463">
        <ele>166.881</ele>
        <time>2013-10-06T13:48:22.365Z</time>
      </trkpt>
      <trkpt lat="48.66428" lon="1.8745">
        <ele>167.055</ele>
        <time>2013-10-06T13:48:28.744Z</time>
      </trkpt>
      <trkpt lat="48.66436" lon="1.87444">
        <ele>167.639</ele>
        <time>2013-10-06T13:48:33.574Z</time>
      </trkpt>
      <trkpt lat="48.66447" lon="1.87443">
        <ele>168.989</ele>
        <time>2013-10-06T13:48:38.996Z</time>
      </trkpt>
      <trkpt lat="48.66455" lon="1.87448">
        <ele>170.348</ele>
        <time>2013-10-06T13:48:43.995Z</time>
      </trkpt>
      <trkpt lat="48.66455" lon="1.87448">
        <ele>170.885</ele>
        <time>2013-10-06T13:48:53.004Z</time>
      </trkpt>
      <trkpt lat="48.66455" lon="1.87448">
        <ele>170.734</ele>
        <time>2013-10-06T13:48:53.104Z</time>
      </trkpt>
      <trkpt lat="48.66465" lon="1.87447">
        <ele>170.426</ele>
        <time>2013-10-06T13:49:23.567Z</time>
      </trkpt>
      <trkpt lat="48.66474" lon="1.87443">
        <ele>170.157</ele>
        <time>2013-10-06T13:49:34.397Z</time>
      </trkpt>
      <trkpt lat="48.66483" lon="1.8744">
        <ele>168.602</ele>
        <time>2013-10-06T13:49:45.354Z</time>
      </trkpt>
      <trkpt lat="48.66492" lon="1.87433">
        <ele>165.961</ele>
        <time>2013-10-06T13:49:54.974Z</time>
      </trkpt>
      <trkpt lat="48.66501" lon="1.87429">
        <ele>164.108</ele>
        <time>2013-10-06T13:50:02.817Z</time>
      </trkpt>
      <trkpt lat="48.66511" lon="1.87427">
        <ele>164.041</ele>
        <time>2013-10-06T13:50:11.099Z</time>
      </trkpt>
      <trkpt lat="48.66521" lon="1.87421">
        <ele>164.828</ele>
        <time>2013-10-06T13:50:18.959Z</time>
      </trkpt>
      <trkpt lat="48.66529" lon="1.87415">
        <ele>165.833</ele>
        <time>2013-10-06T13:50:28.320Z</time>
      </trkpt>
      <trkpt lat="48.66537" lon="1.87406">
        <ele>167.364</ele>
        <time>2013-10-06T13:50:39.405Z</time>
      </trkpt>
      <trkpt lat="48.66546" lon="1.87399">
        <ele>169.27</ele>
        <time>2013-10-06T13:50:50.272Z</time>
      </trkpt>
      <trkpt lat="48.66555" lon="1.87395">
        <ele>171.209</ele>
        <time>2013-10-06T13:50:57.208Z</time>
      </trkpt>
      <trkpt lat="48.66565" lon="1.87394">
        <ele>173.011</ele>
        <time>2013-10-06T13:51:04.524Z</time>
      </trkpt>
      <trkpt lat="48.66573" lon="1.87389">
        <ele>173.889</ele>
        <time>2013-10-06T13:51:11.962Z</time>
      </trkpt>
      <trkpt lat="48.66582" lon="1.87384">
        <ele>173.366</ele>
        <time>2013-10-06T13:51:19.959Z</time>
      </trkpt>
      <trkpt lat="48.66592" lon="1.87381">
        <ele>172.215</ele>
        <time>2013-10-06T13:51:28.322Z</time>
      </trkpt>
      <trkpt lat="48.66601" lon="1.87375">
        <ele>171.329</ele>
        <time>2013-10-06T13:51:36.712Z</time>
      </trkpt>
      <trkpt lat="48.66611" lon="1.8737">
        <ele>170.988</ele>
        <time>2013-10-06T13:51:45.809Z</time>
      </trkpt>
      <trkpt lat="48.66618" lon="1.87362">
        <ele>172.264</ele>
        <time>2013-10-06T13:51:53.363Z</time>
      </trkpt>
      <trkpt lat="48.66626" lon="1.87355">
        <ele>175.571</ele>
        <time>2013-10-06T13:52:01.572Z</time>
      </trkpt>
      <trkpt lat="48.66637" lon="1.87352">
        <ele>179.087</ele>
        <time>2013-10-06T13:52:12.052Z</time>
      </trkpt>
      <trkpt lat="48.66647" lon="1.87348">
        <ele>180.631</ele>
        <time>2013-10-06T13:52:21.194Z</time>
      </trkpt>
      <trkpt lat="48.66655" lon="1.87342">
        <ele>180.004</ele>
        <time>2013-10-06T13:52:28.862Z</time>
      </trkpt>
      <trkpt lat="48.66664" lon="1.8734">
        <ele>177.671</ele>
        <time>2013-10-06T13:52:37.233Z</time>
      </trkpt>
      <trkpt lat="48.66674" lon="1.87335">
        <ele>174.216</ele>
        <time>2013-10-06T13:52:46.593Z</time>
      </trkpt>
      <trkpt lat="48.66684" lon="1.87329">
        <ele>170.964</ele>
        <time>2013-10-06T13:52:56.895Z</time>
      </trkpt>
      <trkpt lat="48.66694" lon="1.87327">
        <ele>170.046</ele>
        <time>2013-10-06T13:53:03.502Z</time>
      </trkpt>
      <trkpt lat="48.66706" lon="1.8732">
        <ele>171.718</ele>
        <time>2013-10-06T13:53:12.008Z</time>
      </trkpt>
      <trkpt lat="48.66706" lon="1.8732">
        <ele>173.512</ele>
        <time>2013-10-06T13:53:19.003Z</time>
      </trkpt>
      <trkpt lat="48.66706" lon="1.8732">
        <ele>173.461</ele>
        <time>2013-10-06T13:53:19.377Z</time>
      </trkpt>
      <trkpt lat="48.66716" lon="1.87322">
        <ele>172.532</ele>
        <time>2013-10-06T13:53:48.874Z</time>
      </trkpt>
      <trkpt lat="48.66724" lon="1.87315">
        <ele>172.911</ele>
        <time>2013-10-06T13:53:58.182Z</time>
      </trkpt>
      <trkpt lat="48.66734" lon="1.87313">
        <ele>172.889</ele>
        <time>2013-10-06T13:54:06.345Z</time>
      </trkpt>
      <trkpt lat="48.66742" lon="1.87306">
        <ele>173.06</ele>
        <time>2013-10-06T13:54:15.906Z</time>
      </trkpt>
      <trkpt lat="48.66752" lon="1.87301">
        <ele>173.648</ele>
        <time>2013-10-06T13:54:28.165Z</time>
      </trkpt>
      <trkpt lat="48.66761" lon="1.87295">
        <ele>174.062</ele>
        <time>2013-10-06T13:54:36.752Z</time>
      </trkpt>
      <trkpt lat="48.66772" lon="1.8729">
        <ele>174.558</ele>
        <time>2013-10-06T13:54:43.881Z</time>
      </trkpt>
      <trkpt lat="48.66788" lon="1.87282">
        <ele>175.437</ele>
        <time>2013-10-06T13:54:52.302Z</time>
      </trkpt>
      <trkpt lat="48.66798" lon="1.87277">
        <ele>176.682</ele>
        <time>2013-10-06T13:54:57.121Z</time>
      </trkpt>
      <trkpt lat="48.66807" lon="1.87273">
        <ele>178.579</ele>
        <time>2013-10-06T13:55:03.298Z</time>
      </trkpt>
      <trkpt lat="48.66816" lon="1.8727">
        <ele>179.983</ele>
        <time>2013-10-06T13:55:11.152Z</time>
      </trkpt>
      <trkpt lat="48.66825" lon="1.87268">
        <ele>179.775</ele>
        <time>2013-10-06T13:55:20.644Z</time>
      </trkpt>
      <trkpt lat="48.66834" lon="1.87261">
        <ele>178.359</ele>
        <time>2013-10-06T13:55:30.976Z</time>
      </trkpt>
      <trkpt lat="48.66843" lon="1.87255">
        <ele>177.169</ele>
        <time>2013-10-06T13:55:40.420Z</time>
      </trkpt>
      <trkpt lat="48.66852" lon="1.87252">
        <ele>176.998</ele>
        <time>2013-10-06T13:55:50.714Z</time>
      </trkpt>
      <trkpt lat="48.66862" lon="1.87248">
        <ele>176.274</ele>
        <time>2013-10-06T13:55:58.722Z</time>
      </trkpt>
      <trkpt lat="48.66872" lon="1.87244">
        <ele>173.725</ele>
        <time>2013-10-06T13:56:05.243Z</time>
      </trkpt>
      <trkpt lat="48.66882" lon="1.8724">
        <ele>171.493</ele>
        <time>2013-10-06T13:56:12.175Z</time>
      </trkpt>
      <trkpt lat="48.66892" lon="1.87238">
        <ele>171.627</ele>
        <time>2013-10-06T13:56:19.571Z</time>
      </trkpt>
      <trkpt lat="48.66906" lon="1.87234">
        <ele>173.046</ele>
        <time>2013-10-06T13:56:32.191Z</time>
      </trkpt>
      <trkpt lat="48.66915" lon="1.87226">
        <ele>174.528</ele>
        <time>2013-10-06T13:56:38.685Z</time>
      </trkpt>
      <trkpt lat="48.66924" lon="1.8722">
        <ele>176.125</ele>
        <time>2013-10-06T13:56:44.385Z</time>
      </trkpt>
      <trkpt lat="48.66937" lon="1.87221">
        <ele>177.689</ele>
        <time>2013-10-06T13:56:53.829Z</time>
      </trkpt>
      <trkpt lat="48.66946" lon="1.87228">
        <ele>177.607</ele>
        <time>2013-10-06T13:57:00.996Z</time>
      </trkpt>
      <trkpt lat="48.66946" lon="1.87228">
        <ele>175.103</ele>
        <time>2013-10-06T13:57:16.003Z</time>
      </trkpt>
      <trkpt lat="48.66946" lon="1.87228">
        <ele>172.716</ele>
        <time>2013-10-06T13:57:41.013Z</time>
      </trkpt>
      <trkpt lat="48.66946" lon="1.87228">
        <ele>172.651</ele>
        <time>2013-10-06T13:57:47.471Z</time>
      </trkpt>
      <trkpt lat="48.66959" lon="1.87215">
        <ele>173.832</ele>
        <time>2013-10-06T13:58:24.001Z</time>
      </trkpt>
      <trkpt lat="48.66959" lon="1.87215">
        <ele>174.563</ele>
        <time>2013-10-06T13:58:34.010Z</time>
      </trkpt>
      <trkpt lat="48.66959" lon="1.87215">
        <ele>174.552</ele>
        <time>2013-10-06T13:58:34.110Z</time>
      </trkpt>
      <trkpt lat="48.66959" lon="1.87215">
        <ele>174.297</ele>
        <time>2013-10-06T14:00:23.005Z</time>
      </trkpt>
      <trkpt lat="48.66959" lon="1.87215">
        <ele>174.288</ele>
        <time>2013-10-06T14:01:04.552Z</time>
      </trkpt>
      <trkpt lat="48.66956" lon="1.87227">
        <ele>174.233</ele>
        <time>2013-10-06T14:01:36.996Z</time>
      </trkpt>
      <trkpt lat="48.66956" lon="1.87227">
        <ele>174.142</ele>
        <time>2013-10-06T14:02:03.016Z</time>
      </trkpt>
      <trkpt lat="48.66956" lon="1.87227">
        <ele>174.054</ele>
        <time>2013-10-06T14:09:45.522Z</time>
      </trkpt>
      <trkpt lat="48.66956" lon="1.87227">
        <ele>173.94</ele>
        <time>2013-10-06T14:10:44.017Z</time>
      </trkpt>
      <trkpt lat="48.66956" lon="1.87227">
        <ele>173.907</ele>
        <time>2013-10-06T14:16:37.844Z</time>
      </trkpt>
      <trkpt lat="48.66965" lon="1.8722">
        <ele>173.779</ele>
        <time>2013-10-06T14:17:06.432Z</time>
      </trkpt>
      <trkpt lat="48.66973" lon="1.87212">
        <ele>174.208</ele>
        <time>2013-10-06T14:17:17.217Z</time>
      </trkpt>
      <trkpt lat="48.66981" lon="1.87203">
        <ele>175.519</ele>
        <time>2013-10-06T14:17:23.490Z</time>
      </trkpt>
      <trkpt lat="48.66989" lon="1.87194">
        <ele>177.073</ele>
        <time>2013-10-06T14:17:29.498Z</time>
      </trkpt>
      <trkpt lat="48.66997" lon="1.87188">
        <ele>178</ele>
        <time>2013-10-06T14:17:36.067Z</time>
      </trkpt>
      <trkpt lat="48.67007" lon="1.87182">
        <ele>177.426</ele>
        <time>2013-10-06T14:17:43.823Z</time>
      </trkpt>
      <trkpt lat="48.67016" lon="1.87178">
        <ele>175.218</ele>
        <time>2013-10-06T14:17:52.109Z</time>
      </trkpt>
      <trkpt lat="48.67025" lon="1.87172">
        <ele>172.552</ele>
        <time>2013-10-06T14:18:00.524Z</time>
      </trkpt>
      <trkpt lat="48.67034" lon="1.87168">
        <ele>170.484</ele>
        <time>2013-10-06T14:18:09.023Z</time>
      </trkpt>
      <trkpt lat="48.67042" lon="1.87162">
        <ele>169.315</ele>
        <time>2013-10-06T14:18:16.081Z</time>
      </trkpt>
      <trkpt lat="48.67051" lon="1.87154">
        <ele>168.284</ele>
        <time>2013-10-06T14:18:23.794Z</time>
      </trkpt>
      <trkpt lat="48.6706" lon="1.87147">
        <ele>166.901</ele>
        <time>2013-10-06T14:18:32.395Z</time>
      </trkpt>
      <trkpt lat="48.67067" lon="1.87137">
        <ele>166.162</ele>
        <time>2013-10-06T14:18:42.092Z</time>
      </trkpt>
      <trkpt lat="48.67076" lon="1.87131">
        <ele>166.386</ele>
        <time>2013-10-06T14:18:51.312Z</time>
      </trkpt>
      <trkpt lat="48.67086" lon="1.87127">
        <ele>167.225</ele>
        <time>2013-10-06T14:18:59.125Z</time>
      </trkpt>
      <trkpt lat="48.67094" lon="1.87121">
        <ele>168.768</ele>
        <time>2013-10-06T14:19:07.603Z</time>
      </trkpt>
      <trkpt lat="48.67102" lon="1.87114">
        <ele>170.39</ele>
        <time>2013-10-06T14:19:16.657Z</time>
      </trkpt>
      <trkpt lat="48.67111" lon="1.87107">
        <ele>171.394</ele>
        <time>2013-10-06T14:19:24.571Z</time>
      </trkpt>
      <trkpt lat="48.6712" lon="1.87104">
        <ele>170.936</ele>
        <time>2013-10-06T14:19:32.093Z</time>
      </trkpt>
      <trkpt lat="48.67129" lon="1.871">
        <ele>168.784</ele>
        <time>2013-10-06T14:19:41.122Z</time>
      </trkpt>
      <trkpt lat="48.67138" lon="1.87095">
        <ele>166.449</ele>
        <time>2013-10-06T14:19:49.074Z</time>
      </trkpt>
      <trkpt lat="48.67147" lon="1.87089">
        <ele>165.309</ele>
        <time>2013-10-06T14:19:57.093Z</time>
      </trkpt>
      <trkpt lat="48.67155" lon="1.87081">
        <ele>165.6</ele>
        <time>2013-10-06T14:20:04.608Z</time>
      </trkpt>
      <trkpt lat="48.67164" lon="1.87074">
        <ele>167.314</ele>
        <time>2013-10-06T14:20:11.957Z</time>
      </trkpt>
      <trkpt lat="48.67175" lon="1.87064">
        <ele>169.864</ele>
        <time>2013-10-06T14:20:22.703Z</time>
      </trkpt>
      <trkpt lat="48.67184" lon="1.8706">
        <ele>172.3</ele>
        <time>2013-10-06T14:20:30.357Z</time>
      </trkpt>
      <trkpt lat="48.67193" lon="1.87056">
        <ele>173.902</ele>
        <time>2013-10-06T14:20:36.076Z</time>
      </trkpt>
      <trkpt lat="48.67202" lon="1.87051">
        <ele>174.482</ele>
        <time>2013-10-06T14:20:41.710Z</time>
      </trkpt>
      <trkpt lat="48.6721" lon="1.87045">
        <ele>174.056</ele>
        <time>2013-10-06T14:20:48.365Z</time>
      </trkpt>
      <trkpt lat="48.67218" lon="1.87038">
        <ele>172.613</ele>
        <time>2013-10-06T14:20:56.573Z</time>
      </trkpt>
      <trkpt lat="48.67229" lon="1.87035">
        <ele>170.812</ele>
        <time>2013-10-06T14:21:05.959Z</time>
      </trkpt>
      <trkpt lat="48.67237" lon="1.8703">
        <ele>169.701</ele>
        <time>2013-10-06T14:21:13.194Z</time>
      </trkpt>
      <trkpt lat="48.67246" lon="1.87023">
        <ele>169.635</ele>
        <time>2013-10-06T14:21:20.446Z</time>
      </trkpt>
      <trkpt lat="48.67254" lon="1.87015">
        <ele>170.22</ele>
        <time>2013-10-06T14:21:29.219Z</time>
      </trkpt>
      <trkpt lat="48.67263" lon="1.87013">
        <ele>170.864</ele>
        <time>2013-10-06T14:21:39.016Z</time>
      </trkpt>
      <trkpt lat="48.67273" lon="1.87015">
        <ele>171.291</ele>
        <time>2013-10-06T14:21:50.073Z</time>
      </trkpt>
      <trkpt lat="48.67282" lon="1.87019">
        <ele>172.118</ele>
        <time>2013-10-06T14:21:59.131Z</time>
      </trkpt>
      <trkpt lat="48.67292" lon="1.87022">
        <ele>173.743</ele>
        <time>2013-10-06T14:22:06.308Z</time>
      </trkpt>
      <trkpt lat="48.673" lon="1.87028">
        <ele>174.684</ele>
        <time>2013-10-06T14:22:14.448Z</time>
      </trkpt>
      <trkpt lat="48.6731" lon="1.87032">
        <ele>173.002</ele>
        <time>2013-10-06T14:22:23.838Z</time>
      </trkpt>
      <trkpt lat="48.6732" lon="1.87033">
        <ele>169.401</ele>
        <time>2013-10-06T14:22:33.702Z</time>
      </trkpt>
      <trkpt lat="48.6733" lon="1.87037">
        <ele>166.896</ele>
        <time>2013-10-06T14:22:43.745Z</time>
      </trkpt>
      <trkpt lat="48.6734" lon="1.8704">
        <ele>167.665</ele>
        <time>2013-10-06T14:22:50.074Z</time>
      </trkpt>
      <trkpt lat="48.6735" lon="1.87041">
        <ele>170.848</ele>
        <time>2013-10-06T14:22:55.902Z</time>
      </trkpt>
      <trkpt lat="48.67359" lon="1.87044">
        <ele>173.934</ele>
        <time>2013-10-06T14:23:03.339Z</time>
      </trkpt>
      <trkpt lat="48.67368" lon="1.87046">
        <ele>175.503</ele>
        <time>2013-10-06T14:23:11.059Z</time>
      </trkpt>
      <trkpt lat="48.67378" lon="1.8705">
        <ele>175.558</ele>
        <time>2013-10-06T14:23:19.044Z</time>
      </trkpt>
      <trkpt lat="48.67387" lon="1.87055">
        <ele>174.439</ele>
        <time>2013-10-06T14:23:27.763Z</time>
      </trkpt>
      <trkpt lat="48.67396" lon="1.87058">
        <ele>171.958</ele>
        <time>2013-10-06T14:23:36.269Z</time>
      </trkpt>
      <trkpt lat="48.67405" lon="1.87061">
        <ele>168.42</ele>
        <time>2013-10-06T14:23:43.662Z</time>
      </trkpt>
      <trkpt lat="48.67415" lon="1.87064">
        <ele>166.111</ele>
        <time>2013-10-06T14:23:52.026Z</time>
      </trkpt>
      <trkpt lat="48.67426" lon="1.87065">
        <ele>166.934</ele>
        <time>2013-10-06T14:24:00.019Z</time>
      </trkpt>
      <trkpt lat="48.67426" lon="1.87065">
        <ele>169.183</ele>
        <time>2013-10-06T14:24:14.022Z</time>
      </trkpt>
      <trkpt lat="48.67426" lon="1.87065">
        <ele>170.24</ele>
        <time>2013-10-06T14:24:14.122Z</time>
      </trkpt>
      <trkpt lat="48.67441" lon="1.87073">
        <ele>169.905</ele>
        <time>2013-10-06T14:24:29.056Z</time>
      </trkpt>
      <trkpt lat="48.67448" lon="1.87079">
        <ele>169.968</ele>
        <time>2013-10-06T14:24:35.065Z</time>
      </trkpt>
      <trkpt lat="48.67457" lon="1.87081">
        <ele>171.31</ele>
        <time>2013-10-06T14:24:41.025Z</time>
      </trkpt>
      <trkpt lat="48.67457" lon="1.87081">
        <ele>172.594</ele>
        <time>2013-10-06T14:24:51.020Z</time>
      </trkpt>
      <trkpt lat="48.67457" lon="1.87081">
        <ele>172.524</ele>
        <time>2013-10-06T14:24:51.120Z</time>
      </trkpt>
      <trkpt lat="48.67466" lon="1.87089">
        <ele>171.831</ele>
        <time>2013-10-06T14:25:04.783Z</time>
      </trkpt>
      <trkpt lat="48.67473" lon="1.87081">
        <ele>171.603</ele>
        <time>2013-10-06T14:25:10.008Z</time>
      </trkpt>
      <trkpt lat="48.67473" lon="1.87081">
        <ele>170.532</ele>
        <time>2013-10-06T14:25:24.033Z</time>
      </trkpt>
      <trkpt lat="48.67473" lon="1.87081">
        <ele>169.507</ele>
        <time>2013-10-06T14:25:24.133Z</time>
      </trkpt>
      <trkpt lat="48.67476" lon="1.87065">
        <ele>169.589</ele>
        <time>2013-10-06T14:26:11.884Z</time>
      </trkpt>
      <trkpt lat="48.67486" lon="1.87061">
        <ele>170.284</ele>
        <time>2013-10-06T14:26:28.961Z</time>
      </trkpt>
      <trkpt lat="48.67493" lon="1.8707">
        <ele>168.959</ele>
        <time>2013-10-06T14:26:46.993Z</time>
      </trkpt>
      <trkpt lat="48.67503" lon="1.87076">
        <ele>164.43</ele>
        <time>2013-10-06T14:27:05.641Z</time>
      </trkpt>
      <trkpt lat="48.67512" lon="1.8708">
        <ele>159.632</ele>
        <time>2013-10-06T14:27:20.518Z</time>
      </trkpt>
      <trkpt lat="48.67522" lon="1.87081">
        <ele>159.249</ele>
        <time>2013-10-06T14:27:26.290Z</time>
      </trkpt>
      <trkpt lat="48.67545" lon="1.87082">
        <ele>164.007</ele>
        <time>2013-10-06T14:27:36.818Z</time>
      </trkpt>
      <trkpt lat="48.67557" lon="1.87089">
        <ele>169.687</ele>
        <time>2013-10-06T14:27:45.578Z</time>
      </trkpt>
      <trkpt lat="48.67569" lon="1.87091">
        <ele>172.746</ele>
        <time>2013-10-06T14:27:54.656Z</time>
      </trkpt>
      <trkpt lat="48.67582" lon="1.87096">
        <ele>173.707</ele>
        <time>2013-10-06T14:28:04.009Z</time>
      </trkpt>
      <trkpt lat="48.6759" lon="1.87101">
        <ele>174.05</ele>
        <time>2013-10-06T14:28:11.019Z</time>
      </trkpt>
      <trkpt lat="48.676" lon="1.87105">
        <ele>174.641</ele>
        <time>2013-10-06T14:28:18.418Z</time>
      </trkpt>
      <trkpt lat="48.6761" lon="1.87107">
        <ele>173.643</ele>
        <time>2013-10-06T14:28:27.594Z</time>
      </trkpt>
      <trkpt lat="48.67619" lon="1.87108">
        <ele>168.51</ele>
        <time>2013-10-06T14:28:37.855Z</time>
      </trkpt>
      <trkpt lat="48.67628" lon="1.87115">
        <ele>161.195</ele>
        <time>2013-10-06T14:28:47.232Z</time>
      </trkpt>
      <trkpt lat="48.67637" lon="1.87119">
        <ele>155.709</ele>
        <time>2013-10-06T14:28:55.888Z</time>
      </trkpt>
      <trkpt lat="48.67646" lon="1.87122">
        <ele>152.647</ele>
        <time>2013-10-06T14:29:04.013Z</time>
      </trkpt>
      <trkpt lat="48.67656" lon="1.87126">
        <ele>150.824</ele>
        <time>2013-10-06T14:29:10.159Z</time>
      </trkpt>
      <trkpt lat="48.67668" lon="1.87125">
        <ele>150.484</ele>
        <time>2013-10-06T14:29:15.934Z</time>
      </trkpt>
      <trkpt lat="48.67679" lon="1.87126">
        <ele>152.341</ele>
        <time>2013-10-06T14:29:21.768Z</time>
      </trkpt>
      <trkpt lat="48.67691" lon="1.87124">
        <ele>155.441</ele>
        <time>2013-10-06T14:29:30.930Z</time>
      </trkpt>
      <trkpt lat="48.677" lon="1.8712">
        <ele>158.514</ele>
        <time>2013-10-06T14:29:40.011Z</time>
      </trkpt>
      <trkpt lat="48.67709" lon="1.87116">
        <ele>160.541</ele>
        <time>2013-10-06T14:29:49.207Z</time>
      </trkpt>
      <trkpt lat="48.67719" lon="1.87114">
        <ele>161.121</ele>
        <time>2013-10-06T14:29:56.959Z</time>
      </trkpt>
      <trkpt lat="48.67728" lon="1.87114">
        <ele>161.239</ele>
        <time>2013-10-06T14:30:03.066Z</time>
      </trkpt>
      <trkpt lat="48.67737" lon="1.87121">
        <ele>161.664</ele>
        <time>2013-10-06T14:30:10.472Z</time>
      </trkpt>
      <trkpt lat="48.67738" lon="1.87135">
        <ele>162.13</ele>
        <time>2013-10-06T14:30:19.097Z</time>
      </trkpt>
      <trkpt lat="48.67746" lon="1.87145">
        <ele>162.693</ele>
        <time>2013-10-06T14:30:28.337Z</time>
      </trkpt>
      <trkpt lat="48.67754" lon="1.87142">
        <ele>163.399</ele>
        <time>2013-10-06T14:30:36.911Z</time>
      </trkpt>
      <trkpt lat="48.67763" lon="1.87137">
        <ele>164.268</ele>
        <time>2013-10-06T14:30:44.891Z</time>
      </trkpt>
      <trkpt lat="48.67773" lon="1.87136">
        <ele>165.499</ele>
        <time>2013-10-06T14:30:53.015Z</time>
      </trkpt>
      <trkpt lat="48.67782" lon="1.87132">
        <ele>167.371</ele>
        <time>2013-10-06T14:31:01.739Z</time>
      </trkpt>
      <trkpt lat="48.67794" lon="1.87131">
        <ele>169.474</ele>
        <time>2013-10-06T14:31:11.413Z</time>
      </trkpt>
      <trkpt lat="48.67803" lon="1.87128">
        <ele>170.516</ele>
        <time>2013-10-06T14:31:18.881Z</time>
      </trkpt>
      <trkpt lat="48.67813" lon="1.87126">
        <ele>169.872</ele>
        <time>2013-10-06T14:31:26.502Z</time>
      </trkpt>
      <trkpt lat="48.67824" lon="1.87125">
        <ele>168.335</ele>
        <time>2013-10-06T14:31:36.082Z</time>
      </trkpt>
      <trkpt lat="48.67833" lon="1.87124">
        <ele>166.509</ele>
        <time>2013-10-06T14:31:43.248Z</time>
      </trkpt>
      <trkpt lat="48.67843" lon="1.87124">
        <ele>164.171</ele>
        <time>2013-10-06T14:31:50.620Z</time>
      </trkpt>
      <trkpt lat="48.67854" lon="1.87124">
        <ele>162.108</ele>
        <time>2013-10-06T14:31:58.412Z</time>
      </trkpt>
      <trkpt lat="48.67864" lon="1.87126">
        <ele>162.078</ele>
        <time>2013-10-06T14:32:05.742Z</time>
      </trkpt>
      <trkpt lat="48.67874" lon="1.87121">
        <ele>164.053</ele>
        <time>2013-10-06T14:32:13.987Z</time>
      </trkpt>
      <trkpt lat="48.67885" lon="1.87117">
        <ele>164.92</ele>
        <time>2013-10-06T14:32:23.330Z</time>
      </trkpt>
      <trkpt lat="48.67895" lon="1.87114">
        <ele>162.738</ele>
        <time>2013-10-06T14:32:30.589Z</time>
      </trkpt>
      <trkpt lat="48.67904" lon="1.87111">
        <ele>160.448</ele>
        <time>2013-10-06T14:32:37.060Z</time>
      </trkpt>
      <trkpt lat="48.67913" lon="1.87109">
        <ele>160.872</ele>
        <time>2013-10-06T14:32:43.912Z</time>
      </trkpt>
      <trkpt lat="48.67923" lon="1.87108">
        <ele>162.346</ele>
        <time>2013-10-06T14:32:52.197Z</time>
      </trkpt>
      <trkpt lat="48.67933" lon="1.87106">
        <ele>162.689</ele>
        <time>2013-10-06T14:33:01.479Z</time>
      </trkpt>
      <trkpt lat="48.67942" lon="1.87103">
        <ele>162.118</ele>
        <time>2013-10-06T14:33:09.629Z</time>
      </trkpt>
      <trkpt lat="48.67951" lon="1.87107">
        <ele>161.981</ele>
        <time>2013-10-06T14:33:17.211Z</time>
      </trkpt>
      <trkpt lat="48.67961" lon="1.87105">
        <ele>162.849</ele>
        <time>2013-10-06T14:33:24.661Z</time>
      </trkpt>
      <trkpt lat="48.6797" lon="1.87101">
        <ele>163.224</ele>
        <time>2013-10-06T14:33:31.896Z</time>
      </trkpt>
      <trkpt lat="48.6798" lon="1.87098">
        <ele>161.861</ele>
        <time>2013-10-06T14:33:40.753Z</time>
      </trkpt>
      <trkpt lat="48.67989" lon="1.87095">
        <ele>160.496</ele>
        <time>2013-10-06T14:33:47.636Z</time>
      </trkpt>
      <trkpt lat="48.67998" lon="1.87089">
        <ele>161.212</ele>
        <time>2013-10-06T14:33:54.749Z</time>
      </trkpt>
      <trkpt lat="48.68006" lon="1.87082">
        <ele>163.975</ele>
        <time>2013-10-06T14:34:02.563Z</time>
      </trkpt>
      <trkpt lat="48.68015" lon="1.87076">
        <ele>167.662</ele>
        <time>2013-10-06T14:34:10.590Z</time>
      </trkpt>
      <trkpt lat="48.68025" lon="1.87078">
        <ele>170.518</ele>
        <time>2013-10-06T14:34:19.545Z</time>
      </trkpt>
      <trkpt lat="48.68036" lon="1.87076">
        <ele>171.585</ele>
        <time>2013-10-06T14:34:28.782Z</time>
      </trkpt>
      <trkpt lat="48.68045" lon="1.87076">
        <ele>171.621</ele>
        <time>2013-10-06T14:34:37.433Z</time>
      </trkpt>
      <trkpt lat="48.68054" lon="1.87074">
        <ele>171.431</ele>
        <time>2013-10-06T14:34:48.217Z</time>
      </trkpt>
      <trkpt lat="48.68062" lon="1.87066">
        <ele>171.031</ele>
        <time>2013-10-06T14:34:59.722Z</time>
      </trkpt>
      <trkpt lat="48.68071" lon="1.87073">
        <ele>169.744</ele>
        <time>2013-10-06T14:35:10.414Z</time>
      </trkpt>
      <trkpt lat="48.68078" lon="1.87083">
        <ele>166.654</ele>
        <time>2013-10-06T14:35:17.731Z</time>
      </trkpt>
      <trkpt lat="48.68083" lon="1.87095">
        <ele>162.667</ele>
        <time>2013-10-06T14:35:24.761Z</time>
      </trkpt>
      <trkpt lat="48.68088" lon="1.87107">
        <ele>160.125</ele>
        <time>2013-10-06T14:35:32.016Z</time>
      </trkpt>
      <trkpt lat="48.68088" lon="1.87107">
        <ele>159.849</ele>
        <time>2013-10-06T14:35:45.025Z</time>
      </trkpt>
      <trkpt lat="48.68088" lon="1.87107">
        <ele>160.425</ele>
        <time>2013-10-06T14:35:45.125Z</time>
      </trkpt>
      <trkpt lat="48.68095" lon="1.87122">
        <ele>160.542</ele>
        <time>2013-10-06T14:36:14.897Z</time>
      </trkpt>
      <trkpt lat="48.68098" lon="1.87136">
        <ele>160.885</ele>
        <time>2013-10-06T14:36:23.113Z</time>
      </trkpt>
      <trkpt lat="48.68104" lon="1.87148">
        <ele>162.531</ele>
        <time>2013-10-06T14:36:31.280Z</time>
      </trkpt>
      <trkpt lat="48.68108" lon="1.87162">
        <ele>164.775</ele>
        <time>2013-10-06T14:36:39.468Z</time>
      </trkpt>
      <trkpt lat="48.68114" lon="1.87174">
        <ele>166.879</ele>
        <time>2013-10-06T14:36:47.296Z</time>
      </trkpt>
      <trkpt lat="48.68118" lon="1.87186">
        <ele>168.991</ele>
        <time>2013-10-06T14:36:54.566Z</time>
      </trkpt>
      <trkpt lat="48.68123" lon="1.87197">
        <ele>170.073</ele>
        <time>2013-10-06T14:37:01.460Z</time>
      </trkpt>
      <trkpt lat="48.68127" lon="1.87211">
        <ele>168.658</ele>
        <time>2013-10-06T14:37:08.986Z</time>
      </trkpt>
      <trkpt lat="48.68132" lon="1.87223">
        <ele>166.209</ele>
        <time>2013-10-06T14:37:16.498Z</time>
      </trkpt>
      <trkpt lat="48.68136" lon="1.87236">
        <ele>165.263</ele>
        <time>2013-10-06T14:37:24.204Z</time>
      </trkpt>
      <trkpt lat="48.6814" lon="1.87248">
        <ele>165.796</ele>
        <time>2013-10-06T14:37:31.516Z</time>
      </trkpt>
      <trkpt lat="48.68145" lon="1.87263">
        <ele>166.421</ele>
        <time>2013-10-06T14:37:39.548Z</time>
      </trkpt>
      <trkpt lat="48.68149" lon="1.87276">
        <ele>167.503</ele>
        <time>2013-10-06T14:37:47.052Z</time>
      </trkpt>
      <trkpt lat="48.68155" lon="1.87288">
        <ele>169.555</ele>
        <time>2013-10-06T14:37:54.505Z</time>
      </trkpt>
      <trkpt lat="48.68159" lon="1.873">
        <ele>170.887</ele>
        <time>2013-10-06T14:38:01.943Z</time>
      </trkpt>
      <trkpt lat="48.68163" lon="1.87313">
        <ele>170.067</ele>
        <time>2013-10-06T14:38:09.654Z</time>
      </trkpt>
      <trkpt lat="48.68168" lon="1.87327">
        <ele>168.351</ele>
        <time>2013-10-06T14:38:17.894Z</time>
      </trkpt>
      <trkpt lat="48.68173" lon="1.8734">
        <ele>167.327</ele>
        <time>2013-10-06T14:38:25.140Z</time>
      </trkpt>
      <trkpt lat="48.68178" lon="1.87352">
        <ele>167.23</ele>
        <time>2013-10-06T14:38:32.180Z</time>
      </trkpt>
      <trkpt lat="48.68183" lon="1.87364">
        <ele>167.857</ele>
        <time>2013-10-06T14:38:39.494Z</time>
      </trkpt>
      <trkpt lat="48.68188" lon="1.87377">
        <ele>168.872</ele>
        <time>2013-10-06T14:38:48.235Z</time>
      </trkpt>
      <trkpt lat="48.68191" lon="1.8739">
        <ele>169.627</ele>
        <time>2013-10-06T14:38:56.637Z</time>
      </trkpt>
      <trkpt lat="48.68195" lon="1.87403">
        <ele>169.545</ele>
        <time>2013-10-06T14:39:05.019Z</time>
      </trkpt>
      <trkpt lat="48.68195" lon="1.87403">
        <ele>169.024</ele>
        <time>2013-10-06T14:39:22.019Z</time>
      </trkpt>
      <trkpt lat="48.68195" lon="1.87403">
        <ele>168.745</ele>
        <time>2013-10-06T14:39:22.119Z</time>
      </trkpt>
      <trkpt lat="48.68199" lon="1.87421">
        <ele>168.756</ele>
        <time>2013-10-06T14:40:22.268Z</time>
      </trkpt>
      <trkpt lat="48.68204" lon="1.87434">
        <ele>168.697</ele>
        <time>2013-10-06T14:40:30.943Z</time>
      </trkpt>
      <trkpt lat="48.68209" lon="1.87448">
        <ele>168.461</ele>
        <time>2013-10-06T14:40:39.533Z</time>
      </trkpt>
      <trkpt lat="48.68214" lon="1.8746">
        <ele>168.312</ele>
        <time>2013-10-06T14:40:47.612Z</time>
      </trkpt>
      <trkpt lat="48.68219" lon="1.87471">
        <ele>168.507</ele>
        <time>2013-10-06T14:40:56.310Z</time>
      </trkpt>
      <trkpt lat="48.68225" lon="1.87483">
        <ele>168.834</ele>
        <time>2013-10-06T14:41:05.940Z</time>
      </trkpt>
      <trkpt lat="48.68229" lon="1.87497">
        <ele>169.395</ele>
        <time>2013-10-06T14:41:15.504Z</time>
      </trkpt>
      <trkpt lat="48.68235" lon="1.87508">
        <ele>170.258</ele>
        <time>2013-10-06T14:41:23.700Z</time>
      </trkpt>
      <trkpt lat="48.6824" lon="1.8752">
        <ele>170.902</ele>
        <time>2013-10-06T14:41:32.509Z</time>
      </trkpt>
      <trkpt lat="48.68244" lon="1.87533">
        <ele>171.034</ele>
        <time>2013-10-06T14:41:41.455Z</time>
      </trkpt>
      <trkpt lat="48.68249" lon="1.87547">
        <ele>170.872</ele>
        <time>2013-10-06T14:41:50.647Z</time>
      </trkpt>
      <trkpt lat="48.68254" lon="1.87559">
        <ele>170.489</ele>
        <time>2013-10-06T14:41:59.326Z</time>
      </trkpt>
      <trkpt lat="48.68258" lon="1.87572">
        <ele>170.004</ele>
        <time>2013-10-06T14:42:08.332Z</time>
      </trkpt>
      <trkpt lat="48.68262" lon="1.87585">
        <ele>170.242</ele>
        <time>2013-10-06T14:42:18.165Z</time>
      </trkpt>
      <trkpt lat="48.68267" lon="1.87597">
        <ele>171.7</ele>
        <time>2013-10-06T14:42:27.249Z</time>
      </trkpt>
      <trkpt lat="48.68272" lon="1.8761">
        <ele>173.028</ele>
        <time>2013-10-06T14:42:35.447Z</time>
      </trkpt>
      <trkpt lat="48.68277" lon="1.87623">
        <ele>173.026</ele>
        <time>2013-10-06T14:42:44.491Z</time>
      </trkpt>
      <trkpt lat="48.68283" lon="1.87636">
        <ele>172.192</ele>
        <time>2013-10-06T14:42:53.499Z</time>
      </trkpt>
      <trkpt lat="48.68287" lon="1.87649">
        <ele>170.821</ele>
        <time>2013-10-06T14:43:01.520Z</time>
      </trkpt>
      <trkpt lat="48.6829" lon="1.87662">
        <ele>167.898</ele>
        <time>2013-10-06T14:43:08.869Z</time>
      </trkpt>
      <trkpt lat="48.68294" lon="1.87675">
        <ele>168.337</ele>
        <time>2013-10-06T14:43:17.231Z</time>
      </trkpt>
      <trkpt lat="48.68298" lon="1.87688">
        <ele>169.394</ele>
        <time>2013-10-06T14:43:25.498Z</time>
      </trkpt>
      <trkpt lat="48.68304" lon="1.877">
        <ele>168.896</ele>
        <time>2013-10-06T14:43:34.787Z</time>
      </trkpt>
      <trkpt lat="48.68311" lon="1.87709">
        <ele>168.461</ele>
        <time>2013-10-06T14:43:45.210Z</time>
      </trkpt>
      <trkpt lat="48.68312" lon="1.87724">
        <ele>168.405</ele>
        <time>2013-10-06T14:44:00.085Z</time>
      </trkpt>
      <trkpt lat="48.68317" lon="1.87737">
        <ele>168.221</ele>
        <time>2013-10-06T14:44:12.273Z</time>
      </trkpt>
      <trkpt lat="48.68321" lon="1.8775">
        <ele>168.07</ele>
        <time>2013-10-06T14:44:20.520Z</time>
      </trkpt>
      <trkpt lat="48.68326" lon="1.87763">
        <ele>168.067</ele>
        <time>2013-10-06T14:44:28.439Z</time>
      </trkpt>
      <trkpt lat="48.68331" lon="1.87777">
        <ele>168.432</ele>
        <time>2013-10-06T14:44:37.023Z</time>
      </trkpt>
      <trkpt lat="48.68331" lon="1.87777">
        <ele>169.169</ele>
        <time>2013-10-06T14:44:54.022Z</time>
      </trkpt>
      <trkpt lat="48.68331" lon="1.87777">
        <ele>169.691</ele>
        <time>2013-10-06T14:44:54.122Z</time>
      </trkpt>
      <trkpt lat="48.68338" lon="1.87795">
        <ele>169.604</ele>
        <time>2013-10-06T14:45:47.231Z</time>
      </trkpt>
      <trkpt lat="48.68342" lon="1.87807">
        <ele>169.491</ele>
        <time>2013-10-06T14:45:56.472Z</time>
      </trkpt>
      <trkpt lat="48.68347" lon="1.8782">
        <ele>170.199</ele>
        <time>2013-10-06T14:46:04.786Z</time>
      </trkpt>
      <trkpt lat="48.68353" lon="1.87832">
        <ele>171.84</ele>
        <time>2013-10-06T14:46:13.128Z</time>
      </trkpt>
      <trkpt lat="48.68358" lon="1.87845">
        <ele>173.713</ele>
        <time>2013-10-06T14:46:21.045Z</time>
      </trkpt>
      <trkpt lat="48.68362" lon="1.87857">
        <ele>175.017</ele>
        <time>2013-10-06T14:46:29.787Z</time>
      </trkpt>
      <trkpt lat="48.68367" lon="1.8787">
        <ele>175.418</ele>
        <time>2013-10-06T14:46:38.968Z</time>
      </trkpt>
      <trkpt lat="48.6837" lon="1.87884">
        <ele>175.066</ele>
        <time>2013-10-06T14:46:47.769Z</time>
      </trkpt>
      <trkpt lat="48.68375" lon="1.87896">
        <ele>174.022</ele>
        <time>2013-10-06T14:46:55.738Z</time>
      </trkpt>
      <trkpt lat="48.6838" lon="1.87908">
        <ele>172.517</ele>
        <time>2013-10-06T14:47:02.931Z</time>
      </trkpt>
      <trkpt lat="48.68385" lon="1.8792">
        <ele>171.218</ele>
        <time>2013-10-06T14:47:10.411Z</time>
      </trkpt>
      <trkpt lat="48.6839" lon="1.87932">
        <ele>170.541</ele>
        <time>2013-10-06T14:47:17.982Z</time>
      </trkpt>
      <trkpt lat="48.68395" lon="1.87945">
        <ele>170.617</ele>
        <time>2013-10-06T14:47:26.095Z</time>
      </trkpt>
      <trkpt lat="48.68399" lon="1.87958">
        <ele>171.785</ele>
        <time>2013-10-06T14:47:33.548Z</time>
      </trkpt>
      <trkpt lat="48.68404" lon="1.8797">
        <ele>173.645</ele>
        <time>2013-10-06T14:47:41.590Z</time>
      </trkpt>
      <trkpt lat="48.68409" lon="1.87981">
        <ele>174.515</ele>
        <time>2013-10-06T14:47:49.594Z</time>
      </trkpt>
      <trkpt lat="48.68413" lon="1.87994">
        <ele>173.473</ele>
        <time>2013-10-06T14:47:57.707Z</time>
      </trkpt>
      <trkpt lat="48.68417" lon="1.88007">
        <ele>171.323</ele>
        <time>2013-10-06T14:48:06.043Z</time>
      </trkpt>
      <trkpt lat="48.68422" lon="1.88019">
        <ele>169.228</ele>
        <time>2013-10-06T14:48:13.932Z</time>
      </trkpt>
      <trkpt lat="48.68426" lon="1.88033">
        <ele>168.777</ele>
        <time>2013-10-06T14:48:22.197Z</time>
      </trkpt>
      <trkpt lat="48.6843" lon="1.88045">
        <ele>170.668</ele>
        <time>2013-10-06T14:48:29.392Z</time>
      </trkpt>
      <trkpt lat="48.68436" lon="1.88057">
        <ele>172.912</ele>
        <time>2013-10-06T14:48:36.585Z</time>
      </trkpt>
      <trkpt lat="48.6844" lon="1.88071">
        <ele>173.655</ele>
        <time>2013-10-06T14:48:45.151Z</time>
      </trkpt>
      <trkpt lat="48.68446" lon="1.88084">
        <ele>173.28</ele>
        <time>2013-10-06T14:48:53.912Z</time>
      </trkpt>
      <trkpt lat="48.6845" lon="1.88097">
        <ele>172.731</ele>
        <time>2013-10-06T14:49:01.785Z</time>
      </trkpt>
      <trkpt lat="48.68454" lon="1.88109">
        <ele>172.809</ele>
        <time>2013-10-06T14:49:09.250Z</time>
      </trkpt>
      <trkpt lat="48.68459" lon="1.88121">
        <ele>173.737</ele>
        <time>2013-10-06T14:49:17.221Z</time>
      </trkpt>
      <trkpt lat="48.68462" lon="1.88134">
        <ele>174.639</ele>
        <time>2013-10-06T14:49:24.618Z</time>
      </trkpt>
      <trkpt lat="48.68466" lon="1.88146">
        <ele>174.706</ele>
        <time>2013-10-06T14:49:32.173Z</time>
      </trkpt>
      <trkpt lat="48.68471" lon="1.88159">
        <ele>173.48</ele>
        <time>2013-10-06T14:49:40.521Z</time>
      </trkpt>
      <trkpt lat="48.68475" lon="1.88171">
        <ele>171.044</ele>
        <time>2013-10-06T14:49:48.286Z</time>
      </trkpt>
      <trkpt lat="48.68481" lon="1.88183">
        <ele>168.619</ele>
        <time>2013-10-06T14:49:56.114Z</time>
      </trkpt>
      <trkpt lat="48.68486" lon="1.88194">
        <ele>167.352</ele>
        <time>2013-10-06T14:50:03.423Z</time>
      </trkpt>
      <trkpt lat="48.68491" lon="1.88207">
        <ele>167.071</ele>
        <time>2013-10-06T14:50:11.037Z</time>
      </trkpt>
      <trkpt lat="48.68496" lon="1.88219">
        <ele>167.03</ele>
        <time>2013-10-06T14:50:18.894Z</time>
      </trkpt>
      <trkpt lat="48.68498" lon="1.88234">
        <ele>166.798</ele>
        <time>2013-10-06T14:50:28.030Z</time>
      </trkpt>
      <trkpt lat="48.685" lon="1.88248">
        <ele>166.321</ele>
        <time>2013-10-06T14:50:37.792Z</time>
      </trkpt>
      <trkpt lat="48.68504" lon="1.88261">
        <ele>165.79</ele>
        <time>2013-10-06T14:50:48.126Z</time>
      </trkpt>
      <trkpt lat="48.6851" lon="1.88274">
        <ele>165.634</ele>
        <time>2013-10-06T14:50:56.236Z</time>
      </trkpt>
      <trkpt lat="48.68516" lon="1.88285">
        <ele>165.917</ele>
        <time>2013-10-06T14:51:03.328Z</time>
      </trkpt>
      <trkpt lat="48.68522" lon="1.88296">
        <ele>166.477</ele>
        <time>2013-10-06T14:51:10.226Z</time>
      </trkpt>
      <trkpt lat="48.68525" lon="1.88311">
        <ele>167.207</ele>
        <time>2013-10-06T14:51:17.755Z</time>
      </trkpt>
      <trkpt lat="48.68528" lon="1.88325">
        <ele>167.72</ele>
        <time>2013-10-06T14:51:25.603Z</time>
      </trkpt>
      <trkpt lat="48.68532" lon="1.88338">
        <ele>167.806</ele>
        <time>2013-10-06T14:51:34.506Z</time>
      </trkpt>
      <trkpt lat="48.68536" lon="1.88351">
        <ele>168.053</ele>
        <time>2013-10-06T14:51:42.770Z</time>
      </trkpt>
      <trkpt lat="48.68541" lon="1.88363">
        <ele>168.912</ele>
        <time>2013-10-06T14:51:49.486Z</time>
      </trkpt>
      <trkpt lat="48.68547" lon="1.88376">
        <ele>169.832</ele>
        <time>2013-10-06T14:51:56.396Z</time>
      </trkpt>
      <trkpt lat="48.68552" lon="1.88388">
        <ele>170.22</ele>
        <time>2013-10-06T14:52:03.419Z</time>
      </trkpt>
      <trkpt lat="48.68557" lon="1.88399">
        <ele>170.406</ele>
        <time>2013-10-06T14:52:11.193Z</time>
      </trkpt>
      <trkpt lat="48.68563" lon="1.88411">
        <ele>170.784</ele>
        <time>2013-10-06T14:52:19.783Z</time>
      </trkpt>
      <trkpt lat="48.68566" lon="1.88425">
        <ele>170.425</ele>
        <time>2013-10-06T14:52:29.021Z</time>
      </trkpt>
      <trkpt lat="48.68566" lon="1.88425">
        <ele>168.603</ele>
        <time>2013-10-06T14:52:44.032Z</time>
      </trkpt>
      <trkpt lat="48.68566" lon="1.88425">
        <ele>166.926</ele>
        <time>2013-10-06T14:52:44.132Z</time>
      </trkpt>
      <trkpt lat="48.68574" lon="1.88447">
        <ele>167.12</ele>
        <time>2013-10-06T14:53:08.182Z</time>
      </trkpt>
      <trkpt lat="48.68576" lon="1.88462">
        <ele>169.139</ele>
        <time>2013-10-06T14:53:17.576Z</time>
      </trkpt>
      <trkpt lat="48.6858" lon="1.88476">
        <ele>171.886</ele>
        <time>2013-10-06T14:53:26.160Z</time>
      </trkpt>
      <trkpt lat="48.68585" lon="1.88488">
        <ele>173.774</ele>
        <time>2013-10-06T14:53:33.935Z</time>
      </trkpt>
      <trkpt lat="48.6859" lon="1.885">
        <ele>174.091</ele>
        <time>2013-10-06T14:53:41.459Z</time>
      </trkpt>
      <trkpt lat="48.68593" lon="1.88514">
        <ele>173.612</ele>
        <time>2013-10-06T14:53:49.492Z</time>
      </trkpt>
      <trkpt lat="48.68596" lon="1.88528">
        <ele>172.857</ele>
        <time>2013-10-06T14:53:56.162Z</time>
      </trkpt>
      <trkpt lat="48.68599" lon="1.88542">
        <ele>171.852</ele>
        <time>2013-10-06T14:54:02.601Z</time>
      </trkpt>
      <trkpt lat="48.68602" lon="1.88556">
        <ele>170.793</ele>
        <time>2013-10-06T14:54:09.116Z</time>
      </trkpt>
      <trkpt lat="48.68604" lon="1.8857">
        <ele>169.701</ele>
        <time>2013-10-06T14:54:16.240Z</time>
      </trkpt>
      <trkpt lat="48.68604" lon="1.88584">
        <ele>168.48</ele>
        <time>2013-10-06T14:54:24.711Z</time>
      </trkpt>
      <trkpt lat="48.68603" lon="1.88599">
        <ele>167.472</ele>
        <time>2013-10-06T14:54:33.185Z</time>
      </trkpt>
      <trkpt lat="48.68605" lon="1.88614">
        <ele>166.965</ele>
        <time>2013-10-06T14:54:41.037Z</time>
      </trkpt>
      <trkpt lat="48.68606" lon="1.88629">
        <ele>167.105</ele>
        <time>2013-10-06T14:54:49.171Z</time>
      </trkpt>
      <trkpt lat="48.68603" lon="1.88643">
        <ele>167.786</ele>
        <time>2013-10-06T14:54:56.386Z</time>
      </trkpt>
      <trkpt lat="48.68603" lon="1.88658">
        <ele>168.863</ele>
        <time>2013-10-06T14:55:03.409Z</time>
      </trkpt>
      <trkpt lat="48.68603" lon="1.88673">
        <ele>170.167</ele>
        <time>2013-10-06T14:55:10.582Z</time>
      </trkpt>
      <trkpt lat="48.68603" lon="1.88687">
        <ele>171.186</ele>
        <time>2013-10-06T14:55:18.104Z</time>
      </trkpt>
      <trkpt lat="48.68604" lon="1.88701">
        <ele>170.484</ele>
        <time>2013-10-06T14:55:25.514Z</time>
      </trkpt>
      <trkpt lat="48.68604" lon="1.88715">
        <ele>167.695</ele>
        <time>2013-10-06T14:55:33.228Z</time>
      </trkpt>
      <trkpt lat="48.68604" lon="1.88729">
        <ele>164.883</ele>
        <time>2013-10-06T14:55:41.090Z</time>
      </trkpt>
      <trkpt lat="48.68602" lon="1.88743">
        <ele>164.771</ele>
        <time>2013-10-06T14:55:48.421Z</time>
      </trkpt>
      <trkpt lat="48.68602" lon="1.88756">
        <ele>167.472</ele>
        <time>2013-10-06T14:55:55.839Z</time>
      </trkpt>
      <trkpt lat="48.68604" lon="1.88772">
        <ele>170.556</ele>
        <time>2013-10-06T14:56:06.035Z</time>
      </trkpt>
      <trkpt lat="48.68604" lon="1.88772">
        <ele>171.877</ele>
        <time>2013-10-06T14:56:16.024Z</time>
      </trkpt>
      <trkpt lat="48.68604" lon="1.88772">
        <ele>171.611</ele>
        <time>2013-10-06T14:56:16.124Z</time>
      </trkpt>
      <trkpt lat="48.68598" lon="1.8879">
        <ele>171.051</ele>
        <time>2013-10-06T14:56:35.335Z</time>
      </trkpt>
      <trkpt lat="48.68598" lon="1.88804">
        <ele>171.044</ele>
        <time>2013-10-06T14:56:43.790Z</time>
      </trkpt>
      <trkpt lat="48.68599" lon="1.88818">
        <ele>171.052</ele>
        <time>2013-10-06T14:56:51.237Z</time>
      </trkpt>
      <trkpt lat="48.68602" lon="1.88832">
        <ele>170.419</ele>
        <time>2013-10-06T14:56:57.904Z</time>
      </trkpt>
      <trkpt lat="48.68604" lon="1.88846">
        <ele>169.555</ele>
        <time>2013-10-06T14:57:04.032Z</time>
      </trkpt>
      <trkpt lat="48.68604" lon="1.88846">
        <ele>169.093</ele>
        <time>2013-10-06T14:57:16.036Z</time>
      </trkpt>
      <trkpt lat="48.68604" lon="1.88846">
        <ele>169.064</ele>
        <time>2013-10-06T14:57:16.136Z</time>
      </trkpt>
      <trkpt lat="48.68605" lon="1.88871">
        <ele>169.15</ele>
        <time>2013-10-06T14:57:46.941Z</time>
      </trkpt>
      <trkpt lat="48.68603" lon="1.88884">
        <ele>169.104</ele>
        <time>2013-10-06T14:57:55.526Z</time>
      </trkpt>
      <trkpt lat="48.68603" lon="1.889">
        <ele>169.176</ele>
        <time>2013-10-06T14:58:04.808Z</time>
      </trkpt>
      <trkpt lat="48.68603" lon="1.88913">
        <ele>169.908</ele>
        <time>2013-10-06T14:58:12.805Z</time>
      </trkpt>
      <trkpt lat="48.68605" lon="1.88929">
        <ele>171.326</ele>
        <time>2013-10-06T14:58:21.101Z</time>
      </trkpt>
      <trkpt lat="48.68604" lon="1.88944">
        <ele>172.732</ele>
        <time>2013-10-06T14:58:27.261Z</time>
      </trkpt>
      <trkpt lat="48.68604" lon="1.88958">
        <ele>173.089</ele>
        <time>2013-10-06T14:58:32.922Z</time>
      </trkpt>
      <trkpt lat="48.68605" lon="1.88972">
        <ele>172.162</ele>
        <time>2013-10-06T14:58:38.963Z</time>
      </trkpt>
      <trkpt lat="48.68603" lon="1.88987">
        <ele>171.717</ele>
        <time>2013-10-06T14:58:47.493Z</time>
      </trkpt>
      <trkpt lat="48.68604" lon="1.89001">
        <ele>173.756</ele>
        <time>2013-10-06T14:58:55.909Z</time>
      </trkpt>
      <trkpt lat="48.68604" lon="1.89015">
        <ele>177.422</ele>
        <time>2013-10-06T14:59:03.782Z</time>
      </trkpt>
      <trkpt lat="48.68602" lon="1.8903">
        <ele>178.117</ele>
        <time>2013-10-06T14:59:11.380Z</time>
      </trkpt>
      <trkpt lat="48.68603" lon="1.89045">
        <ele>173.627</ele>
        <time>2013-10-06T14:59:18.725Z</time>
      </trkpt>
      <trkpt lat="48.68603" lon="1.89059">
        <ele>167.901</ele>
        <time>2013-10-06T14:59:25.531Z</time>
      </trkpt>
      <trkpt lat="48.68603" lon="1.89074">
        <ele>164.857</ele>
        <time>2013-10-06T14:59:33.474Z</time>
      </trkpt>
      <trkpt lat="48.68603" lon="1.89089">
        <ele>163.681</ele>
        <time>2013-10-06T14:59:41.992Z</time>
      </trkpt>
      <trkpt lat="48.68602" lon="1.89102">
        <ele>162.719</ele>
        <time>2013-10-06T14:59:49.262Z</time>
      </trkpt>
      <trkpt lat="48.68602" lon="1.89116">
        <ele>162.859</ele>
        <time>2013-10-06T14:59:55.629Z</time>
      </trkpt>
      <trkpt lat="48.68603" lon="1.89132">
        <ele>165.161</ele>
        <time>2013-10-06T15:00:03.448Z</time>
      </trkpt>
      <trkpt lat="48.68604" lon="1.89146">
        <ele>168.109</ele>
        <time>2013-10-06T15:00:11.167Z</time>
      </trkpt>
      <trkpt lat="48.68604" lon="1.89162">
        <ele>170.076</ele>
        <time>2013-10-06T15:00:19.260Z</time>
      </trkpt>
      <trkpt lat="48.68604" lon="1.89177">
        <ele>170.934</ele>
        <time>2013-10-06T15:00:27.026Z</time>
      </trkpt>
      <trkpt lat="48.68605" lon="1.89191">
        <ele>171.307</ele>
        <time>2013-10-06T15:00:33.638Z</time>
      </trkpt>
      <trkpt lat="48.68604" lon="1.89207">
        <ele>172.184</ele>
        <time>2013-10-06T15:00:41.064Z</time>
      </trkpt>
      <trkpt lat="48.68601" lon="1.89221">
        <ele>174.225</ele>
        <time>2013-10-06T15:00:47.638Z</time>
      </trkpt>
      <trkpt lat="48.68601" lon="1.89221">
        <ele>176.978</ele>
        <time>2013-10-06T15:00:57.021Z</time>
      </trkpt>
      <trkpt lat="48.68601" lon="1.89221">
        <ele>178.72</ele>
        <time>2013-10-06T15:00:57.121Z</time>
      </trkpt>
      <trkpt lat="48.68601" lon="1.89241">
        <ele>178.173</ele>
        <time>2013-10-06T15:01:55.967Z</time>
      </trkpt>
      <trkpt lat="48.68599" lon="1.89255">
        <ele>175.435</ele>
        <time>2013-10-06T15:02:04.520Z</time>
      </trkpt>
      <trkpt lat="48.686" lon="1.8927">
        <ele>171.616</ele>
        <time>2013-10-06T15:02:12.061Z</time>
      </trkpt>
      <trkpt lat="48.68604" lon="1.89284">
        <ele>168.506</ele>
        <time>2013-10-06T15:02:19.614Z</time>
      </trkpt>
      <trkpt lat="48.68607" lon="1.89297">
        <ele>167.117</ele>
        <time>2013-10-06T15:02:26.272Z</time>
      </trkpt>
      <trkpt lat="48.68606" lon="1.89313">
        <ele>167.659</ele>
        <time>2013-10-06T15:02:33.424Z</time>
      </trkpt>
      <trkpt lat="48.68607" lon="1.89327">
        <ele>169.745</ele>
        <time>2013-10-06T15:02:40.507Z</time>
      </trkpt>
      <trkpt lat="48.68607" lon="1.89342">
        <ele>171.719</ele>
        <time>2013-10-06T15:02:48.749Z</time>
      </trkpt>
      <trkpt lat="48.68606" lon="1.89357">
        <ele>171.954</ele>
        <time>2013-10-06T15:02:57.053Z</time>
      </trkpt>
      <trkpt lat="48.68606" lon="1.8937">
        <ele>171.084</ele>
        <time>2013-10-06T15:03:05.034Z</time>
      </trkpt>
      <trkpt lat="48.68605" lon="1.89384">
        <ele>170.865</ele>
        <time>2013-10-06T15:03:12.708Z</time>
      </trkpt>
      <trkpt lat="48.68605" lon="1.89398">
        <ele>171.636</ele>
        <time>2013-10-06T15:03:20.276Z</time>
      </trkpt>
      <trkpt lat="48.68604" lon="1.89412">
        <ele>172.268</ele>
        <time>2013-10-06T15:03:27.969Z</time>
      </trkpt>
      <trkpt lat="48.68605" lon="1.89427">
        <ele>171.908</ele>
        <time>2013-10-06T15:03:36.044Z</time>
      </trkpt>
      <trkpt lat="48.68604" lon="1.89441">
        <ele>170.326</ele>
        <time>2013-10-06T15:03:43.285Z</time>
      </trkpt>
      <trkpt lat="48.68605" lon="1.89456">
        <ele>168.218</ele>
        <time>2013-10-06T15:03:51.277Z</time>
      </trkpt>
      <trkpt lat="48.68604" lon="1.89471">
        <ele>166.254</ele>
        <time>2013-10-06T15:03:59.848Z</time>
      </trkpt>
      <trkpt lat="48.68604" lon="1.89486">
        <ele>164.536</ele>
        <time>2013-10-06T15:04:09.369Z</time>
      </trkpt>
      <trkpt lat="48.68604" lon="1.89501">
        <ele>162.936</ele>
        <time>2013-10-06T15:04:16.657Z</time>
      </trkpt>
      <trkpt lat="48.68603" lon="1.89515">
        <ele>162.004</ele>
        <time>2013-10-06T15:04:22.146Z</time>
      </trkpt>
      <trkpt lat="48.68604" lon="1.89531">
        <ele>162.445</ele>
        <time>2013-10-06T15:04:28.820Z</time>
      </trkpt>
      <trkpt lat="48.68605" lon="1.89545">
        <ele>164.468</ele>
        <time>2013-10-06T15:04:34.973Z</time>
      </trkpt>
      <trkpt lat="48.68603" lon="1.89559">
        <ele>167.351</ele>
        <time>2013-10-06T15:04:41.515Z</time>
      </trkpt>
      <trkpt lat="48.68601" lon="1.89577">
        <ele>169.945</ele>
        <time>2013-10-06T15:04:49.638Z</time>
      </trkpt>
      <trkpt lat="48.68603" lon="1.89592">
        <ele>171.438</ele>
        <time>2013-10-06T15:04:56.240Z</time>
      </trkpt>
      <trkpt lat="48.68604" lon="1.89607">
        <ele>172.052</ele>
        <time>2013-10-06T15:05:03.693Z</time>
      </trkpt>
      <trkpt lat="48.68603" lon="1.89621">
        <ele>172.273</ele>
        <time>2013-10-06T15:05:11.773Z</time>
      </trkpt>
      <trkpt lat="48.68603" lon="1.89636">
        <ele>172.45</ele>
        <time>2013-10-06T15:05:20.740Z</time>
      </trkpt>
      <trkpt lat="48.68606" lon="1.8965">
        <ele>172.585</ele>
        <time>2013-10-06T15:05:28.946Z</time>
      </trkpt>
      <trkpt lat="48.68605" lon="1.89664">
        <ele>172.212</ele>
        <time>2013-10-06T15:05:37.772Z</time>
      </trkpt>
      <trkpt lat="48.68604" lon="1.89678">
        <ele>171.357</ele>
        <time>2013-10-06T15:05:47.405Z</time>
      </trkpt>
      <trkpt lat="48.68607" lon="1.89691">
        <ele>171.649</ele>
        <time>2013-10-06T15:05:56.245Z</time>
      </trkpt>
      <trkpt lat="48.68611" lon="1.89704">
        <ele>171.05</ele>
        <time>2013-10-06T15:06:04.070Z</time>
      </trkpt>
      <trkpt lat="48.68616" lon="1.89716">
        <ele>168.205</ele>
        <time>2013-10-06T15:06:11.302Z</time>
      </trkpt>
      <trkpt lat="48.68622" lon="1.89727">
        <ele>164.089</ele>
        <time>2013-10-06T15:06:18.783Z</time>
      </trkpt>
      <trkpt lat="48.6863" lon="1.89739">
        <ele>162.972</ele>
        <time>2013-10-06T15:06:26.743Z</time>
      </trkpt>
      <trkpt lat="48.68636" lon="1.89749">
        <ele>166.742</ele>
        <time>2013-10-06T15:06:33.881Z</time>
      </trkpt>
      <trkpt lat="48.68642" lon="1.89761">
        <ele>172.209</ele>
        <time>2013-10-06T15:06:41.970Z</time>
      </trkpt>
      <trkpt lat="48.68649" lon="1.89771">
        <ele>175.391</ele>
        <time>2013-10-06T15:06:51.667Z</time>
      </trkpt>
      <trkpt lat="48.68655" lon="1.8978">
        <ele>174.16</ele>
        <time>2013-10-06T15:06:59.733Z</time>
      </trkpt>
      <trkpt lat="48.68662" lon="1.89791">
        <ele>169.014</ele>
        <time>2013-10-06T15:07:06.614Z</time>
      </trkpt>
      <trkpt lat="48.68668" lon="1.89802">
        <ele>163.673</ele>
        <time>2013-10-06T15:07:12.942Z</time>
      </trkpt>
      <trkpt lat="48.68673" lon="1.89815">
        <ele>160.86</ele>
        <time>2013-10-06T15:07:20.994Z</time>
      </trkpt>
      <trkpt lat="48.6868" lon="1.89827">
        <ele>160.691</ele>
        <time>2013-10-06T15:07:28.953Z</time>
      </trkpt>
      <trkpt lat="48.68688" lon="1.89838">
        <ele>162.813</ele>
        <time>2013-10-06T15:07:35.221Z</time>
      </trkpt>
      <trkpt lat="48.68695" lon="1.89849">
        <ele>167.036</ele>
        <time>2013-10-06T15:07:41.001Z</time>
      </trkpt>
      <trkpt lat="48.68703" lon="1.89858">
        <ele>172.322</ele>
        <time>2013-10-06T15:07:46.581Z</time>
      </trkpt>
      <trkpt lat="48.68711" lon="1.89866">
        <ele>176.296</ele>
        <time>2013-10-06T15:07:53.721Z</time>
      </trkpt>
      <trkpt lat="48.68716" lon="1.89878">
        <ele>177.49</ele>
        <time>2013-10-06T15:08:02.701Z</time>
      </trkpt>
      <trkpt lat="48.68722" lon="1.8989">
        <ele>176.897</ele>
        <time>2013-10-06T15:08:12.287Z</time>
      </trkpt>
      <trkpt lat="48.68726" lon="1.89903">
        <ele>176.137</ele>
        <time>2013-10-06T15:08:20.712Z</time>
      </trkpt>
      <trkpt lat="48.68731" lon="1.89915">
        <ele>175.721</ele>
        <time>2013-10-06T15:08:28.493Z</time>
      </trkpt>
      <trkpt lat="48.68736" lon="1.89926">
        <ele>175.177</ele>
        <time>2013-10-06T15:08:36.066Z</time>
      </trkpt>
      <trkpt lat="48.68739" lon="1.89939">
        <ele>174.11</ele>
        <time>2013-10-06T15:08:44.180Z</time>
      </trkpt>
      <trkpt lat="48.68745" lon="1.8995">
        <ele>173.054</ele>
        <time>2013-10-06T15:08:52.316Z</time>
      </trkpt>
      <trkpt lat="48.68751" lon="1.89962">
        <ele>172.643</ele>
        <time>2013-10-06T15:09:00.809Z</time>
      </trkpt>
      <trkpt lat="48.68757" lon="1.89972">
        <ele>172.915</ele>
        <time>2013-10-06T15:09:07.363Z</time>
      </trkpt>
      <trkpt lat="48.68769" lon="1.89986">
        <ele>173.467</ele>
        <time>2013-10-06T15:09:15.768Z</time>
      </trkpt>
      <trkpt lat="48.68776" lon="1.89995">
        <ele>173.545</ele>
        <time>2013-10-06T15:09:21.595Z</time>
      </trkpt>
      <trkpt lat="48.68784" lon="1.90007">
        <ele>172.882</ele>
        <time>2013-10-06T15:09:28.495Z</time>
      </trkpt>
      <trkpt lat="48.68791" lon="1.90015">
        <ele>173.193</ele>
        <time>2013-10-06T15:09:35.271Z</time>
      </trkpt>
      <trkpt lat="48.68798" lon="1.90026">
        <ele>175.722</ele>
        <time>2013-10-06T15:09:42.406Z</time>
      </trkpt>
      <trkpt lat="48.68804" lon="1.90037">
        <ele>178.354</ele>
        <time>2013-10-06T15:09:49.244Z</time>
      </trkpt>
      <trkpt lat="48.68813" lon="1.90045">
        <ele>178.644</ele>
        <time>2013-10-06T15:09:55.454Z</time>
      </trkpt>
      <trkpt lat="48.68819" lon="1.90055">
        <ele>176.9</ele>
        <time>2013-10-06T15:10:01.818Z</time>
      </trkpt>
      <trkpt lat="48.68824" lon="1.90069">
        <ele>174.735</ele>
        <time>2013-10-06T15:10:09.352Z</time>
      </trkpt>
      <trkpt lat="48.68829" lon="1.90081">
        <ele>173.34</ele>
        <time>2013-10-06T15:10:18.742Z</time>
      </trkpt>
      <trkpt lat="48.68832" lon="1.90094">
        <ele>172.859</ele>
        <time>2013-10-06T15:10:27.408Z</time>
      </trkpt>
      <trkpt lat="48.68837" lon="1.90106">
        <ele>173.13</ele>
        <time>2013-10-06T15:10:35.350Z</time>
      </trkpt>
      <trkpt lat="48.68843" lon="1.90117">
        <ele>173.629</ele>
        <time>2013-10-06T15:10:44.023Z</time>
      </trkpt>
      <trkpt lat="48.68851" lon="1.90125">
        <ele>173.855</ele>
        <time>2013-10-06T15:10:53.109Z</time>
      </trkpt>
      <trkpt lat="48.68858" lon="1.90135">
        <ele>174.006</ele>
        <time>2013-10-06T15:10:59.419Z</time>
      </trkpt>
      <trkpt lat="48.68865" lon="1.90146">
        <ele>174.605</ele>
        <time>2013-10-06T15:11:04.441Z</time>
      </trkpt>
      <trkpt lat="48.68872" lon="1.90155">
        <ele>175.806</ele>
        <time>2013-10-06T15:11:09.256Z</time>
      </trkpt>
      <trkpt lat="48.68878" lon="1.90169">
        <ele>177.802</ele>
        <time>2013-10-06T15:11:15.180Z</time>
      </trkpt>
      <trkpt lat="48.68884" lon="1.90181">
        <ele>180.217</ele>
        <time>2013-10-06T15:11:22.046Z</time>
      </trkpt>
      <trkpt lat="48.68889" lon="1.90193">
        <ele>181.61</ele>
        <time>2013-10-06T15:11:29.686Z</time>
      </trkpt>
      <trkpt lat="48.68895" lon="1.90205">
        <ele>179.884</ele>
        <time>2013-10-06T15:11:40.063Z</time>
      </trkpt>
      <trkpt lat="48.689" lon="1.90216">
        <ele>175.355</ele>
        <time>2013-10-06T15:11:49.037Z</time>
      </trkpt>
      <trkpt lat="48.689" lon="1.90216">
        <ele>171.135</ele>
        <time>2013-10-06T15:11:58.021Z</time>
      </trkpt>
      <trkpt lat="48.689" lon="1.90216">
        <ele>169.398</ele>
        <time>2013-10-06T15:11:58.121Z</time>
      </trkpt>
      <trkpt lat="48.6891" lon="1.90233">
        <ele>170.157</ele>
        <time>2013-10-06T15:12:38.354Z</time>
      </trkpt>
      <trkpt lat="48.68919" lon="1.90242">
        <ele>172.562</ele>
        <time>2013-10-06T15:12:47.885Z</time>
      </trkpt>
      <trkpt lat="48.6893" lon="1.90247">
        <ele>177.209</ele>
        <time>2013-10-06T15:12:54.924Z</time>
      </trkpt>
      <trkpt lat="48.68941" lon="1.90253">
        <ele>179.704</ele>
        <time>2013-10-06T15:13:03.024Z</time>
      </trkpt>
      <trkpt lat="48.68949" lon="1.90261">
        <ele>180.915</ele>
        <time>2013-10-06T15:13:11.469Z</time>
      </trkpt>
      <trkpt lat="48.68958" lon="1.90268">
        <ele>180.486</ele>
        <time>2013-10-06T15:13:19.731Z</time>
      </trkpt>
      <trkpt lat="48.68966" lon="1.90275">
        <ele>180.439</ele>
        <time>2013-10-06T15:13:28.338Z</time>
      </trkpt>
      <trkpt lat="48.68974" lon="1.90283">
        <ele>180.671</ele>
        <time>2013-10-06T15:13:37.360Z</time>
      </trkpt>
      <trkpt lat="48.68983" lon="1.90289">
        <ele>180.522</ele>
        <time>2013-10-06T15:13:45.475Z</time>
      </trkpt>
      <trkpt lat="48.68992" lon="1.90294">
        <ele>179.758</ele>
        <time>2013-10-06T15:13:52.525Z</time>
      </trkpt>
      <trkpt lat="48.69" lon="1.90301">
        <ele>178.945</ele>
        <time>2013-10-06T15:13:58.472Z</time>
      </trkpt>
      <trkpt lat="48.69008" lon="1.90308">
        <ele>178.409</ele>
        <time>2013-10-06T15:14:05.126Z</time>
      </trkpt>
      <trkpt lat="48.69018" lon="1.90311">
        <ele>176.805</ele>
        <time>2013-10-06T15:14:11.921Z</time>
      </trkpt>
      <trkpt lat="48.69029" lon="1.90319">
        <ele>173.444</ele>
        <time>2013-10-06T15:14:18.902Z</time>
      </trkpt>
      <trkpt lat="48.69038" lon="1.90323">
        <ele>172.087</ele>
        <time>2013-10-06T15:14:23.982Z</time>
      </trkpt>
      <trkpt lat="48.69047" lon="1.90332">
        <ele>175.509</ele>
        <time>2013-10-06T15:14:31.528Z</time>
      </trkpt>
      <trkpt lat="48.69054" lon="1.90342">
        <ele>179.607</ele>
        <time>2013-10-06T15:14:39.013Z</time>
      </trkpt>
      <trkpt lat="48.69058" lon="1.90354">
        <ele>180.335</ele>
        <time>2013-10-06T15:14:48.074Z</time>
      </trkpt>
      <trkpt lat="48.69063" lon="1.90367">
        <ele>178.971</ele>
        <time>2013-10-06T15:14:58.518Z</time>
      </trkpt>
      <trkpt lat="48.69071" lon="1.90377">
        <ele>175.828</ele>
        <time>2013-10-06T15:15:05.332Z</time>
      </trkpt>
      <trkpt lat="48.69078" lon="1.90389">
        <ele>170.317</ele>
        <time>2013-10-06T15:15:11.628Z</time>
      </trkpt>
      <trkpt lat="48.69084" lon="1.904">
        <ele>165.439</ele>
        <time>2013-10-06T15:15:17.390Z</time>
      </trkpt>
      <trkpt lat="48.69092" lon="1.90413">
        <ele>164.071</ele>
        <time>2013-10-06T15:15:23.765Z</time>
      </trkpt>
      <trkpt lat="48.691" lon="1.90424">
        <ele>167.122</ele>
        <time>2013-10-06T15:15:29.434Z</time>
      </trkpt>
      <trkpt lat="48.69107" lon="1.90433">
        <ele>173.757</ele>
        <time>2013-10-06T15:15:35.155Z</time>
      </trkpt>
      <trkpt lat="48.69114" lon="1.90443">
        <ele>179.428</ele>
        <time>2013-10-06T15:15:42.273Z</time>
      </trkpt>
      <trkpt lat="48.69121" lon="1.90453">
        <ele>180.856</ele>
        <time>2013-10-06T15:15:50.412Z</time>
      </trkpt>
      <trkpt lat="48.69126" lon="1.90466">
        <ele>178.139</ele>
        <time>2013-10-06T15:15:57.977Z</time>
      </trkpt>
      <trkpt lat="48.69129" lon="1.90483">
        <ele>172.582</ele>
        <time>2013-10-06T15:16:06.911Z</time>
      </trkpt>
      <trkpt lat="48.69131" lon="1.90497">
        <ele>167.174</ele>
        <time>2013-10-06T15:16:14.008Z</time>
      </trkpt>
      <trkpt lat="48.69132" lon="1.90511">
        <ele>163.514</ele>
        <time>2013-10-06T15:16:21.746Z</time>
      </trkpt>
      <trkpt lat="48.69135" lon="1.90525">
        <ele>159.191</ele>
        <time>2013-10-06T15:16:29.671Z</time>
      </trkpt>
      <trkpt lat="48.69137" lon="1.90539">
        <ele>153.248</ele>
        <time>2013-10-06T15:16:36.034Z</time>
      </trkpt>
      <trkpt lat="48.69137" lon="1.90539">
        <ele>149.173</ele>
        <time>2013-10-06T15:16:50.033Z</time>
      </trkpt>
      <trkpt lat="48.69137" lon="1.90539">
        <ele>149.288</ele>
        <time>2013-10-06T15:16:50.133Z</time>
      </trkpt>
      <trkpt lat="48.69143" lon="1.9056">
        <ele>151.337</ele>
        <time>2013-10-06T15:17:14.453Z</time>
      </trkpt>
      <trkpt lat="48.69145" lon="1.90575">
        <ele>155.932</ele>
        <time>2013-10-06T15:17:21.856Z</time>
      </trkpt>
      <trkpt lat="48.69144" lon="1.90589">
        <ele>164.522</ele>
        <time>2013-10-06T15:17:29.490Z</time>
      </trkpt>
      <trkpt lat="48.69143" lon="1.90603">
        <ele>172.304</ele>
        <time>2013-10-06T15:17:38.048Z</time>
      </trkpt>
      <trkpt lat="48.69144" lon="1.90618">
        <ele>174.19</ele>
        <time>2013-10-06T15:17:45.426Z</time>
      </trkpt>
      <trkpt lat="48.69145" lon="1.90633">
        <ele>169.927</ele>
        <time>2013-10-06T15:17:52.485Z</time>
      </trkpt>
      <trkpt lat="48.69148" lon="1.90645">
        <ele>162.187</ele>
        <time>2013-10-06T15:17:59.386Z</time>
      </trkpt>
      <trkpt lat="48.69148" lon="1.9066">
        <ele>155.384</ele>
        <time>2013-10-06T15:18:07.200Z</time>
      </trkpt>
      <trkpt lat="48.69146" lon="1.90676">
        <ele>151.827</ele>
        <time>2013-10-06T15:18:15.364Z</time>
      </trkpt>
      <trkpt lat="48.69149" lon="1.9069">
        <ele>150.285</ele>
        <time>2013-10-06T15:18:23.005Z</time>
      </trkpt>
      <trkpt lat="48.69151" lon="1.90705">
        <ele>149.945</ele>
        <time>2013-10-06T15:18:30.484Z</time>
      </trkpt>
      <trkpt lat="48.69151" lon="1.90719">
        <ele>150.249</ele>
        <time>2013-10-06T15:18:38.163Z</time>
      </trkpt>
      <trkpt lat="48.69151" lon="1.90733">
        <ele>149.818</ele>
        <time>2013-10-06T15:18:44.887Z</time>
      </trkpt>
      <trkpt lat="48.69153" lon="1.90749">
        <ele>148.304</ele>
        <time>2013-10-06T15:18:52.536Z</time>
      </trkpt>
      <trkpt lat="48.69156" lon="1.90761">
        <ele>146.331</ele>
        <time>2013-10-06T15:18:59.961Z</time>
      </trkpt>
      <trkpt lat="48.69157" lon="1.90776">
        <ele>144.063</ele>
        <time>2013-10-06T15:19:08.790Z</time>
      </trkpt>
      <trkpt lat="48.69161" lon="1.90789">
        <ele>142.343</ele>
        <time>2013-10-06T15:19:17.142Z</time>
      </trkpt>
      <trkpt lat="48.69165" lon="1.90801">
        <ele>142.212</ele>
        <time>2013-10-06T15:19:24.321Z</time>
      </trkpt>
      <trkpt lat="48.69166" lon="1.90816">
        <ele>143.52</ele>
        <time>2013-10-06T15:19:31.502Z</time>
      </trkpt>
      <trkpt lat="48.69166" lon="1.9083">
        <ele>145.027</ele>
        <time>2013-10-06T15:19:38.224Z</time>
      </trkpt>
      <trkpt lat="48.69167" lon="1.90845">
        <ele>145.192</ele>
        <time>2013-10-06T15:19:46.307Z</time>
      </trkpt>
      <trkpt lat="48.69166" lon="1.9086">
        <ele>143.694</ele>
        <time>2013-10-06T15:19:55.347Z</time>
      </trkpt>
      <trkpt lat="48.69166" lon="1.90874">
        <ele>141.557</ele>
        <time>2013-10-06T15:20:04.963Z</time>
      </trkpt>
      <trkpt lat="48.69168" lon="1.90888">
        <ele>139.842</ele>
        <time>2013-10-06T15:20:14.314Z</time>
      </trkpt>
      <trkpt lat="48.69169" lon="1.90902">
        <ele>138.828</ele>
        <time>2013-10-06T15:20:21.225Z</time>
      </trkpt>
      <trkpt lat="48.69171" lon="1.90915">
        <ele>138.484</ele>
        <time>2013-10-06T15:20:27.581Z</time>
      </trkpt>
      <trkpt lat="48.69172" lon="1.9093">
        <ele>138.104</ele>
        <time>2013-10-06T15:20:34.995Z</time>
      </trkpt>
      <trkpt lat="48.69175" lon="1.90945">
        <ele>137.157</ele>
        <time>2013-10-06T15:20:42.862Z</time>
      </trkpt>
      <trkpt lat="48.69175" lon="1.9096">
        <ele>135.993</ele>
        <time>2013-10-06T15:20:50.679Z</time>
      </trkpt>
      <trkpt lat="48.6918" lon="1.90974">
        <ele>135.393</ele>
        <time>2013-10-06T15:20:59.059Z</time>
      </trkpt>
      <trkpt lat="48.69188" lon="1.90968">
        <ele>135.363</ele>
        <time>2013-10-06T15:21:08.201Z</time>
      </trkpt>
      <trkpt lat="48.69194" lon="1.90957">
        <ele>135.238</ele>
        <time>2013-10-06T15:21:16.628Z</time>
      </trkpt>
      <trkpt lat="48.69199" lon="1.90946">
        <ele>134.807</ele>
        <time>2013-10-06T15:21:23.875Z</time>
      </trkpt>
      <trkpt lat="48.69206" lon="1.90935">
        <ele>134.998</ele>
        <time>2013-10-06T15:21:31.420Z</time>
      </trkpt>
      <trkpt lat="48.69211" lon="1.90924">
        <ele>136.216</ele>
        <time>2013-10-06T15:21:39.110Z</time>
      </trkpt>
      <trkpt lat="48.69211" lon="1.90924">
        <ele>137.302</ele>
        <time>2013-10-06T15:21:53.024Z</time>
      </trkpt>
      <trkpt lat="48.69211" lon="1.90924">
        <ele>137.238</ele>
        <time>2013-10-06T15:21:53.124Z</time>
      </trkpt>
      <trkpt lat="48.69213" lon="1.90909">
        <ele>136.741</ele>
        <time>2013-10-06T15:22:07.025Z</time>
      </trkpt>
      <trkpt lat="48.6921" lon="1.90911">
        <ele>136.895</ele>
        <time>2013-10-06T15:22:11.028Z</time>
      </trkpt>
      <trkpt lat="48.6921" lon="1.90912">
        <ele>138.257</ele>
        <time>2013-10-06T15:22:13.947Z</time>
      </trkpt>
      <trkpt lat="48.6921" lon="1.90912">
        <ele>137.783</ele>
        <time>2013-10-06T15:22:14.047Z</time>
      </trkpt>
      <trkpt lat="48.69203" lon="1.90919">
        <ele>137.715</ele>
        <time>2013-10-06T15:22:27.026Z</time>
      </trkpt>
      <trkpt lat="48.69203" lon="1.90919">
        <ele>137.961</ele>
        <time>2013-10-06T15:22:34.029Z</time>
      </trkpt>
      <trkpt lat="48.69203" lon="1.90919">
        <ele>138.269</ele>
        <time>2013-10-06T15:22:36.299Z</time>
      </trkpt>
    </trkseg>
  </trk>
</gpx>